<?xml version="1.0" encoding="UTF-8" standalone="no" ?>
<gpx xmlns="http://www.topografix.com/GPX/1/1" xmlns:xsi="http://www.w3.org/2001/XMLSchema-instance" xsi:schemaLocation="http://www.topografix.com/GPX/1/1 http://www.topografix.com/GPX/1/1/gpx.xsd" version="1.1" creator="VisuGPX - https://www.visugpx.com">
  <metadata>
    <name>RSPG le Moure de l\'Aigle la Faurie</name>
    <desc><![CDATA[Au départ du hameau de la Valette commune de la Faurie prendre le GR qui monte vers le village abandonné d\'Agnelles. Puis prendre le chemin et le sentier qui monte vers le mourre de l\'aigle. Arrivés  au col, prendre le sentier qui descend vers notre Dame et la Valette ]]></desc>
  </metadata>
  <trk>
    <name><![CDATA[Le moure de l'Aigle: 14 NOV 2013 09:28]]></name>
    <trkseg>
      <trkpt lat="44.56667" lon="5.74845">
        <ele>923</ele>
        <time>2013-11-14T08:28:55Z</time>
      </trkpt>
      <trkpt lat="44.56667" lon="5.74845">
        <ele>923</ele>
        <time>2013-11-14T08:28:56Z</time>
      </trkpt>
      <trkpt lat="44.56666" lon="5.74845">
        <ele>839.37</ele>
        <time>2013-11-14T08:29:00Z</time>
      </trkpt>
      <trkpt lat="44.56666" lon="5.74845">
        <ele>839.37</ele>
        <time>2013-11-14T08:29:01Z</time>
      </trkpt>
      <trkpt lat="44.56664" lon="5.74844">
        <ele>838.89</ele>
        <time>2013-11-14T08:29:13Z</time>
      </trkpt>
      <trkpt lat="44.5666" lon="5.7485">
        <ele>838.89</ele>
        <time>2013-11-14T08:29:28Z</time>
      </trkpt>
      <trkpt lat="44.56658" lon="5.74855">
        <ele>837.93</ele>
        <time>2013-11-14T08:29:43Z</time>
      </trkpt>
      <trkpt lat="44.56653" lon="5.74871">
        <ele>836</ele>
        <time>2013-11-14T08:29:58Z</time>
      </trkpt>
      <trkpt lat="44.56652" lon="5.74872">
        <ele>836</ele>
        <time>2013-11-14T08:29:59Z</time>
      </trkpt>
      <trkpt lat="44.56643" lon="5.74894">
        <ele>834.56</ele>
        <time>2013-11-14T08:30:17Z</time>
      </trkpt>
      <trkpt lat="44.56635" lon="5.74911">
        <ele>833.6</ele>
        <time>2013-11-14T08:30:33Z</time>
      </trkpt>
      <trkpt lat="44.56628" lon="5.74925">
        <ele>833.6</ele>
        <time>2013-11-14T08:30:46Z</time>
      </trkpt>
      <trkpt lat="44.56624" lon="5.74929">
        <ele>833.12</ele>
        <time>2013-11-14T08:30:50Z</time>
      </trkpt>
      <trkpt lat="44.56618" lon="5.7493">
        <ele>833.12</ele>
        <time>2013-11-14T08:31:05Z</time>
      </trkpt>
      <trkpt lat="44.56616" lon="5.74932">
        <ele>833.12</ele>
        <time>2013-11-14T08:31:10Z</time>
      </trkpt>
      <trkpt lat="44.56616" lon="5.74935">
        <ele>832.64</ele>
        <time>2013-11-14T08:31:22Z</time>
      </trkpt>
      <trkpt lat="44.56621" lon="5.74927">
        <ele>832.16</ele>
        <time>2013-11-14T08:31:30Z</time>
      </trkpt>
      <trkpt lat="44.56628" lon="5.74915">
        <ele>832.64</ele>
        <time>2013-11-14T08:31:42Z</time>
      </trkpt>
      <trkpt lat="44.56632" lon="5.74902">
        <ele>833.6</ele>
        <time>2013-11-14T08:31:52Z</time>
      </trkpt>
      <trkpt lat="44.56645" lon="5.74885">
        <ele>834.08</ele>
        <time>2013-11-14T08:32:09Z</time>
      </trkpt>
      <trkpt lat="44.56649" lon="5.74889">
        <ele>833.6</ele>
        <time>2013-11-14T08:32:24Z</time>
      </trkpt>
      <trkpt lat="44.56648" lon="5.74888">
        <ele>834.08</ele>
        <time>2013-11-14T08:32:43Z</time>
      </trkpt>
      <trkpt lat="44.56649" lon="5.74891">
        <ele>834.08</ele>
        <time>2013-11-14T08:32:59Z</time>
      </trkpt>
      <trkpt lat="44.56654" lon="5.74906">
        <ele>834.56</ele>
        <time>2013-11-14T08:33:11Z</time>
      </trkpt>
      <trkpt lat="44.56663" lon="5.7492">
        <ele>834.56</ele>
        <time>2013-11-14T08:33:20Z</time>
      </trkpt>
      <trkpt lat="44.5667" lon="5.74937">
        <ele>835.04</ele>
        <time>2013-11-14T08:33:35Z</time>
      </trkpt>
      <trkpt lat="44.56674" lon="5.74962">
        <ele>835.52</ele>
        <time>2013-11-14T08:33:52Z</time>
      </trkpt>
      <trkpt lat="44.56675" lon="5.74994">
        <ele>835.04</ele>
        <time>2013-11-14T08:34:11Z</time>
      </trkpt>
      <trkpt lat="44.56676" lon="5.75024">
        <ele>835.04</ele>
        <time>2013-11-14T08:34:30Z</time>
      </trkpt>
      <trkpt lat="44.56677" lon="5.75052">
        <ele>834.08</ele>
        <time>2013-11-14T08:34:48Z</time>
      </trkpt>
      <trkpt lat="44.56677" lon="5.75079">
        <ele>833.12</ele>
        <time>2013-11-14T08:35:05Z</time>
      </trkpt>
      <trkpt lat="44.56677" lon="5.75108">
        <ele>832.64</ele>
        <time>2013-11-14T08:35:22Z</time>
      </trkpt>
      <trkpt lat="44.56674" lon="5.75136">
        <ele>832.64</ele>
        <time>2013-11-14T08:35:40Z</time>
      </trkpt>
      <trkpt lat="44.5667" lon="5.7516">
        <ele>831.2</ele>
        <time>2013-11-14T08:35:56Z</time>
      </trkpt>
      <trkpt lat="44.56666" lon="5.75188">
        <ele>831.68</ele>
        <time>2013-11-14T08:36:13Z</time>
      </trkpt>
      <trkpt lat="44.56661" lon="5.75213">
        <ele>832.64</ele>
        <time>2013-11-14T08:36:30Z</time>
      </trkpt>
      <trkpt lat="44.56658" lon="5.75228">
        <ele>832.16</ele>
        <time>2013-11-14T08:36:40Z</time>
      </trkpt>
      <trkpt lat="44.56653" lon="5.75249">
        <ele>830.24</ele>
        <time>2013-11-14T08:36:56Z</time>
      </trkpt>
      <trkpt lat="44.56646" lon="5.75268">
        <ele>829.27</ele>
        <time>2013-11-14T08:37:11Z</time>
      </trkpt>
      <trkpt lat="44.56644" lon="5.75275">
        <ele>829.27</ele>
        <time>2013-11-14T08:37:15Z</time>
      </trkpt>
      <trkpt lat="44.56638" lon="5.75296">
        <ele>829.27</ele>
        <time>2013-11-14T08:37:31Z</time>
      </trkpt>
      <trkpt lat="44.56632" lon="5.75315">
        <ele>829.27</ele>
        <time>2013-11-14T08:37:48Z</time>
      </trkpt>
      <trkpt lat="44.56624" lon="5.75332">
        <ele>829.27</ele>
        <time>2013-11-14T08:38:03Z</time>
      </trkpt>
      <trkpt lat="44.56617" lon="5.7535">
        <ele>828.79</ele>
        <time>2013-11-14T08:38:17Z</time>
      </trkpt>
      <trkpt lat="44.56609" lon="5.7536">
        <ele>829.27</ele>
        <time>2013-11-14T08:38:29Z</time>
      </trkpt>
      <trkpt lat="44.56599" lon="5.75364">
        <ele>829.76</ele>
        <time>2013-11-14T08:38:39Z</time>
      </trkpt>
      <trkpt lat="44.5659" lon="5.75384">
        <ele>828.31</ele>
        <time>2013-11-14T08:38:54Z</time>
      </trkpt>
      <trkpt lat="44.5658" lon="5.75407">
        <ele>828.31</ele>
        <time>2013-11-14T08:39:08Z</time>
      </trkpt>
      <trkpt lat="44.56574" lon="5.75425">
        <ele>827.83</ele>
        <time>2013-11-14T08:39:23Z</time>
      </trkpt>
      <trkpt lat="44.56571" lon="5.7545">
        <ele>827.83</ele>
        <time>2013-11-14T08:39:39Z</time>
      </trkpt>
      <trkpt lat="44.56566" lon="5.75473">
        <ele>827.83</ele>
        <time>2013-11-14T08:39:54Z</time>
      </trkpt>
      <trkpt lat="44.56556" lon="5.75496">
        <ele>827.35</ele>
        <time>2013-11-14T08:40:09Z</time>
      </trkpt>
      <trkpt lat="44.56547" lon="5.75521">
        <ele>827.35</ele>
        <time>2013-11-14T08:40:26Z</time>
      </trkpt>
      <trkpt lat="44.56543" lon="5.7554">
        <ele>827.35</ele>
        <time>2013-11-14T08:40:40Z</time>
      </trkpt>
      <trkpt lat="44.56545" lon="5.75546">
        <ele>826.87</ele>
        <time>2013-11-14T08:40:44Z</time>
      </trkpt>
      <trkpt lat="44.56559" lon="5.75557">
        <ele>826.87</ele>
        <time>2013-11-14T08:40:59Z</time>
      </trkpt>
      <trkpt lat="44.56576" lon="5.75551">
        <ele>828.79</ele>
        <time>2013-11-14T08:41:15Z</time>
      </trkpt>
      <trkpt lat="44.56584" lon="5.75555">
        <ele>829.76</ele>
        <time>2013-11-14T08:41:23Z</time>
      </trkpt>
      <trkpt lat="44.56601" lon="5.75557">
        <ele>832.16</ele>
        <time>2013-11-14T08:41:40Z</time>
      </trkpt>
      <trkpt lat="44.56601" lon="5.75557">
        <ele>832.64</ele>
        <time>2013-11-14T08:42:00Z</time>
      </trkpt>
      <trkpt lat="44.56607" lon="5.75559">
        <ele>833.12</ele>
        <time>2013-11-14T08:42:20Z</time>
      </trkpt>
      <trkpt lat="44.5662" lon="5.75563">
        <ele>834.56</ele>
        <time>2013-11-14T08:42:34Z</time>
      </trkpt>
      <trkpt lat="44.56626" lon="5.75564">
        <ele>835.04</ele>
        <time>2013-11-14T08:42:51Z</time>
      </trkpt>
      <trkpt lat="44.56627" lon="5.75565">
        <ele>835.52</ele>
        <time>2013-11-14T08:43:15Z</time>
      </trkpt>
      <trkpt lat="44.56626" lon="5.75563">
        <ele>835.04</ele>
        <time>2013-11-14T08:43:43Z</time>
      </trkpt>
      <trkpt lat="44.56633" lon="5.75563">
        <ele>836</ele>
        <time>2013-11-14T08:44:07Z</time>
      </trkpt>
      <trkpt lat="44.56653" lon="5.75572">
        <ele>839.37</ele>
        <time>2013-11-14T08:44:28Z</time>
      </trkpt>
      <trkpt lat="44.56659" lon="5.75572">
        <ele>839.37</ele>
        <time>2013-11-14T08:44:43Z</time>
      </trkpt>
      <trkpt lat="44.56666" lon="5.75571">
        <ele>841.29</ele>
        <time>2013-11-14T08:44:59Z</time>
      </trkpt>
      <trkpt lat="44.56685" lon="5.75589">
        <ele>844.18</ele>
        <time>2013-11-14T08:45:24Z</time>
      </trkpt>
      <trkpt lat="44.56691" lon="5.75602">
        <ele>846.1</ele>
        <time>2013-11-14T08:45:37Z</time>
      </trkpt>
      <trkpt lat="44.56699" lon="5.75616">
        <ele>848.02</ele>
        <time>2013-11-14T08:45:53Z</time>
      </trkpt>
      <trkpt lat="44.56705" lon="5.75632">
        <ele>850.42</ele>
        <time>2013-11-14T08:46:09Z</time>
      </trkpt>
      <trkpt lat="44.56706" lon="5.75653">
        <ele>852.83</ele>
        <time>2013-11-14T08:46:26Z</time>
      </trkpt>
      <trkpt lat="44.56707" lon="5.75669">
        <ele>854.75</ele>
        <time>2013-11-14T08:46:42Z</time>
      </trkpt>
      <trkpt lat="44.56707" lon="5.75673">
        <ele>856.19</ele>
        <time>2013-11-14T08:46:45Z</time>
      </trkpt>
      <trkpt lat="44.56706" lon="5.75692">
        <ele>857.15</ele>
        <time>2013-11-14T08:47:01Z</time>
      </trkpt>
      <trkpt lat="44.56706" lon="5.75701">
        <ele>858.59</ele>
        <time>2013-11-14T08:47:09Z</time>
      </trkpt>
      <trkpt lat="44.56712" lon="5.75717">
        <ele>860.52</ele>
        <time>2013-11-14T08:47:24Z</time>
      </trkpt>
      <trkpt lat="44.5672" lon="5.75728">
        <ele>862.44</ele>
        <time>2013-11-14T08:47:40Z</time>
      </trkpt>
      <trkpt lat="44.56725" lon="5.75744">
        <ele>864.84</ele>
        <time>2013-11-14T08:47:54Z</time>
      </trkpt>
      <trkpt lat="44.56727" lon="5.75758">
        <ele>866.29</ele>
        <time>2013-11-14T08:48:07Z</time>
      </trkpt>
      <trkpt lat="44.56722" lon="5.75775">
        <ele>867.73</ele>
        <time>2013-11-14T08:48:23Z</time>
      </trkpt>
      <trkpt lat="44.56722" lon="5.75775">
        <ele>868.69</ele>
        <time>2013-11-14T08:48:46Z</time>
      </trkpt>
      <trkpt lat="44.56719" lon="5.75769">
        <ele>867.25</ele>
        <time>2013-11-14T08:49:05Z</time>
      </trkpt>
      <trkpt lat="44.56719" lon="5.7577">
        <ele>866.77</ele>
        <time>2013-11-14T08:49:16Z</time>
      </trkpt>
      <trkpt lat="44.56717" lon="5.75768">
        <ele>866.77</ele>
        <time>2013-11-14T08:49:46Z</time>
      </trkpt>
      <trkpt lat="44.56717" lon="5.75767">
        <ele>866.77</ele>
        <time>2013-11-14T08:50:26Z</time>
      </trkpt>
      <trkpt lat="44.56717" lon="5.75767">
        <ele>867.73</ele>
        <time>2013-11-14T08:50:48Z</time>
      </trkpt>
      <trkpt lat="44.56717" lon="5.75769">
        <ele>867.25</ele>
        <time>2013-11-14T08:51:06Z</time>
      </trkpt>
      <trkpt lat="44.56717" lon="5.75773">
        <ele>867.25</ele>
        <time>2013-11-14T08:51:26Z</time>
      </trkpt>
      <trkpt lat="44.56711" lon="5.75785">
        <ele>867.73</ele>
        <time>2013-11-14T08:51:36Z</time>
      </trkpt>
      <trkpt lat="44.56703" lon="5.75802">
        <ele>868.69</ele>
        <time>2013-11-14T08:51:51Z</time>
      </trkpt>
      <trkpt lat="44.56692" lon="5.75821">
        <ele>870.61</ele>
        <time>2013-11-14T08:52:09Z</time>
      </trkpt>
      <trkpt lat="44.56685" lon="5.75835">
        <ele>872.05</ele>
        <time>2013-11-14T08:52:24Z</time>
      </trkpt>
      <trkpt lat="44.56684" lon="5.75849">
        <ele>872.53</ele>
        <time>2013-11-14T08:52:35Z</time>
      </trkpt>
      <trkpt lat="44.56684" lon="5.7587">
        <ele>875.42</ele>
        <time>2013-11-14T08:52:53Z</time>
      </trkpt>
      <trkpt lat="44.56685" lon="5.75885">
        <ele>877.34</ele>
        <time>2013-11-14T08:53:06Z</time>
      </trkpt>
      <trkpt lat="44.56687" lon="5.759">
        <ele>878.78</ele>
        <time>2013-11-14T08:53:20Z</time>
      </trkpt>
      <trkpt lat="44.56694" lon="5.75917">
        <ele>881.67</ele>
        <time>2013-11-14T08:53:35Z</time>
      </trkpt>
      <trkpt lat="44.567" lon="5.7593">
        <ele>884.07</ele>
        <time>2013-11-14T08:53:52Z</time>
      </trkpt>
      <trkpt lat="44.56706" lon="5.75949">
        <ele>886.47</ele>
        <time>2013-11-14T08:54:09Z</time>
      </trkpt>
      <trkpt lat="44.56704" lon="5.75965">
        <ele>888.4</ele>
        <time>2013-11-14T08:54:24Z</time>
      </trkpt>
      <trkpt lat="44.567" lon="5.75975">
        <ele>890.32</ele>
        <time>2013-11-14T08:54:38Z</time>
      </trkpt>
      <trkpt lat="44.56693" lon="5.75989">
        <ele>893.2</ele>
        <time>2013-11-14T08:54:52Z</time>
      </trkpt>
      <trkpt lat="44.56685" lon="5.76004">
        <ele>894.64</ele>
        <time>2013-11-14T08:55:07Z</time>
      </trkpt>
      <trkpt lat="44.56683" lon="5.76008">
        <ele>895.12</ele>
        <time>2013-11-14T08:55:14Z</time>
      </trkpt>
      <trkpt lat="44.56679" lon="5.76019">
        <ele>897.05</ele>
        <time>2013-11-14T08:55:27Z</time>
      </trkpt>
      <trkpt lat="44.56672" lon="5.76033">
        <ele>899.45</ele>
        <time>2013-11-14T08:55:41Z</time>
      </trkpt>
      <trkpt lat="44.56666" lon="5.76047">
        <ele>901.85</ele>
        <time>2013-11-14T08:55:56Z</time>
      </trkpt>
      <trkpt lat="44.56661" lon="5.76058">
        <ele>904.26</ele>
        <time>2013-11-14T08:56:10Z</time>
      </trkpt>
      <trkpt lat="44.56658" lon="5.76066">
        <ele>905.22</ele>
        <time>2013-11-14T08:56:22Z</time>
      </trkpt>
      <trkpt lat="44.56653" lon="5.76076">
        <ele>906.66</ele>
        <time>2013-11-14T08:56:33Z</time>
      </trkpt>
      <trkpt lat="44.56649" lon="5.76087">
        <ele>908.1</ele>
        <time>2013-11-14T08:56:44Z</time>
      </trkpt>
      <trkpt lat="44.5664" lon="5.76106">
        <ele>910.03</ele>
        <time>2013-11-14T08:57:00Z</time>
      </trkpt>
      <trkpt lat="44.56636" lon="5.76114">
        <ele>911.47</ele>
        <time>2013-11-14T08:57:12Z</time>
      </trkpt>
      <trkpt lat="44.56628" lon="5.7613">
        <ele>912.91</ele>
        <time>2013-11-14T08:57:26Z</time>
      </trkpt>
      <trkpt lat="44.56626" lon="5.7614">
        <ele>914.35</ele>
        <time>2013-11-14T08:57:39Z</time>
      </trkpt>
      <trkpt lat="44.5662" lon="5.7616">
        <ele>916.27</ele>
        <time>2013-11-14T08:57:54Z</time>
      </trkpt>
      <trkpt lat="44.56616" lon="5.76167">
        <ele>917.24</ele>
        <time>2013-11-14T08:58:01Z</time>
      </trkpt>
      <trkpt lat="44.56605" lon="5.76181">
        <ele>920.12</ele>
        <time>2013-11-14T08:58:18Z</time>
      </trkpt>
      <trkpt lat="44.56601" lon="5.76189">
        <ele>921.56</ele>
        <time>2013-11-14T08:58:31Z</time>
      </trkpt>
      <trkpt lat="44.56594" lon="5.76202">
        <ele>923.48</ele>
        <time>2013-11-14T08:58:46Z</time>
      </trkpt>
      <trkpt lat="44.56593" lon="5.76204">
        <ele>923.96</ele>
        <time>2013-11-14T08:58:48Z</time>
      </trkpt>
      <trkpt lat="44.56586" lon="5.76217">
        <ele>925.89</ele>
        <time>2013-11-14T08:59:02Z</time>
      </trkpt>
      <trkpt lat="44.56576" lon="5.7623">
        <ele>927.33</ele>
        <time>2013-11-14T08:59:17Z</time>
      </trkpt>
      <trkpt lat="44.56572" lon="5.76239">
        <ele>928.29</ele>
        <time>2013-11-14T08:59:31Z</time>
      </trkpt>
      <trkpt lat="44.5656" lon="5.76256">
        <ele>928.77</ele>
        <time>2013-11-14T08:59:46Z</time>
      </trkpt>
      <trkpt lat="44.56549" lon="5.76269">
        <ele>929.25</ele>
        <time>2013-11-14T09:00:02Z</time>
      </trkpt>
      <trkpt lat="44.56539" lon="5.76286">
        <ele>929.73</ele>
        <time>2013-11-14T09:00:17Z</time>
      </trkpt>
      <trkpt lat="44.56537" lon="5.76292">
        <ele>929.73</ele>
        <time>2013-11-14T09:00:22Z</time>
      </trkpt>
      <trkpt lat="44.56531" lon="5.76315">
        <ele>931.17</ele>
        <time>2013-11-14T09:00:39Z</time>
      </trkpt>
      <trkpt lat="44.56531" lon="5.76328">
        <ele>930.69</ele>
        <time>2013-11-14T09:00:48Z</time>
      </trkpt>
      <trkpt lat="44.56529" lon="5.76349">
        <ele>931.65</ele>
        <time>2013-11-14T09:01:03Z</time>
      </trkpt>
      <trkpt lat="44.56529" lon="5.76352">
        <ele>931.65</ele>
        <time>2013-11-14T09:01:05Z</time>
      </trkpt>
      <trkpt lat="44.56529" lon="5.76373">
        <ele>930.69</ele>
        <time>2013-11-14T09:01:22Z</time>
      </trkpt>
      <trkpt lat="44.56529" lon="5.76389">
        <ele>931.17</ele>
        <time>2013-11-14T09:01:36Z</time>
      </trkpt>
      <trkpt lat="44.56515" lon="5.76399">
        <ele>932.62</ele>
        <time>2013-11-14T09:01:52Z</time>
      </trkpt>
      <trkpt lat="44.56502" lon="5.76409">
        <ele>935.5</ele>
        <time>2013-11-14T09:02:10Z</time>
      </trkpt>
      <trkpt lat="44.56492" lon="5.76421">
        <ele>936.46</ele>
        <time>2013-11-14T09:02:24Z</time>
      </trkpt>
      <trkpt lat="44.56482" lon="5.76439">
        <ele>937.9</ele>
        <time>2013-11-14T09:02:41Z</time>
      </trkpt>
      <trkpt lat="44.56479" lon="5.76447">
        <ele>938.38</ele>
        <time>2013-11-14T09:02:47Z</time>
      </trkpt>
      <trkpt lat="44.56473" lon="5.76468">
        <ele>940.31</ele>
        <time>2013-11-14T09:03:04Z</time>
      </trkpt>
      <trkpt lat="44.56467" lon="5.76489">
        <ele>941.75</ele>
        <time>2013-11-14T09:03:20Z</time>
      </trkpt>
      <trkpt lat="44.56461" lon="5.7651">
        <ele>942.71</ele>
        <time>2013-11-14T09:03:37Z</time>
      </trkpt>
      <trkpt lat="44.56454" lon="5.76531">
        <ele>943.67</ele>
        <time>2013-11-14T09:03:55Z</time>
      </trkpt>
      <trkpt lat="44.56451" lon="5.76538">
        <ele>943.19</ele>
        <time>2013-11-14T09:04:08Z</time>
      </trkpt>
      <trkpt lat="44.56441" lon="5.76555">
        <ele>944.15</ele>
        <time>2013-11-14T09:04:24Z</time>
      </trkpt>
      <trkpt lat="44.56441" lon="5.76555">
        <ele>943.67</ele>
        <time>2013-11-14T09:04:41Z</time>
      </trkpt>
      <trkpt lat="44.56436" lon="5.76566">
        <ele>944.15</ele>
        <time>2013-11-14T09:04:54Z</time>
      </trkpt>
      <trkpt lat="44.5643" lon="5.76571">
        <ele>944.15</ele>
        <time>2013-11-14T09:05:01Z</time>
      </trkpt>
      <trkpt lat="44.56417" lon="5.76588">
        <ele>945.11</ele>
        <time>2013-11-14T09:05:18Z</time>
      </trkpt>
      <trkpt lat="44.56412" lon="5.76598">
        <ele>946.56</ele>
        <time>2013-11-14T09:05:32Z</time>
      </trkpt>
      <trkpt lat="44.56404" lon="5.76615">
        <ele>948.96</ele>
        <time>2013-11-14T09:05:50Z</time>
      </trkpt>
      <trkpt lat="44.56397" lon="5.76631">
        <ele>951.36</ele>
        <time>2013-11-14T09:06:07Z</time>
      </trkpt>
      <trkpt lat="44.56391" lon="5.76646">
        <ele>953.28</ele>
        <time>2013-11-14T09:06:22Z</time>
      </trkpt>
      <trkpt lat="44.56389" lon="5.76658">
        <ele>955.69</ele>
        <time>2013-11-14T09:06:36Z</time>
      </trkpt>
      <trkpt lat="44.5639" lon="5.76673">
        <ele>958.57</ele>
        <time>2013-11-14T09:06:52Z</time>
      </trkpt>
      <trkpt lat="44.56385" lon="5.7669">
        <ele>960.49</ele>
        <time>2013-11-14T09:07:08Z</time>
      </trkpt>
      <trkpt lat="44.56383" lon="5.76703">
        <ele>962.9</ele>
        <time>2013-11-14T09:07:23Z</time>
      </trkpt>
      <trkpt lat="44.56383" lon="5.76713">
        <ele>965.3</ele>
        <time>2013-11-14T09:07:37Z</time>
      </trkpt>
      <trkpt lat="44.56379" lon="5.76725">
        <ele>966.74</ele>
        <time>2013-11-14T09:07:51Z</time>
      </trkpt>
      <trkpt lat="44.56379" lon="5.7674">
        <ele>969.15</ele>
        <time>2013-11-14T09:08:09Z</time>
      </trkpt>
      <trkpt lat="44.56379" lon="5.76751">
        <ele>970.59</ele>
        <time>2013-11-14T09:08:24Z</time>
      </trkpt>
      <trkpt lat="44.56376" lon="5.76763">
        <ele>972.51</ele>
        <time>2013-11-14T09:08:41Z</time>
      </trkpt>
      <trkpt lat="44.56374" lon="5.7678">
        <ele>974.91</ele>
        <time>2013-11-14T09:09:00Z</time>
      </trkpt>
      <trkpt lat="44.56373" lon="5.76792">
        <ele>976.84</ele>
        <time>2013-11-14T09:09:15Z</time>
      </trkpt>
      <trkpt lat="44.56368" lon="5.76809">
        <ele>978.28</ele>
        <time>2013-11-14T09:09:32Z</time>
      </trkpt>
      <trkpt lat="44.56368" lon="5.76816">
        <ele>979.24</ele>
        <time>2013-11-14T09:09:49Z</time>
      </trkpt>
      <trkpt lat="44.56365" lon="5.76819">
        <ele>979.24</ele>
        <time>2013-11-14T09:10:11Z</time>
      </trkpt>
      <trkpt lat="44.56366" lon="5.76829">
        <ele>980.68</ele>
        <time>2013-11-14T09:10:32Z</time>
      </trkpt>
      <trkpt lat="44.56363" lon="5.76847">
        <ele>982.6</ele>
        <time>2013-11-14T09:10:47Z</time>
      </trkpt>
      <trkpt lat="44.56356" lon="5.76863">
        <ele>985.49</ele>
        <time>2013-11-14T09:11:05Z</time>
      </trkpt>
      <trkpt lat="44.56351" lon="5.76881">
        <ele>988.85</ele>
        <time>2013-11-14T09:11:23Z</time>
      </trkpt>
      <trkpt lat="44.56345" lon="5.76894">
        <ele>990.78</ele>
        <time>2013-11-14T09:11:37Z</time>
      </trkpt>
      <trkpt lat="44.5634" lon="5.76906">
        <ele>992.22</ele>
        <time>2013-11-14T09:11:49Z</time>
      </trkpt>
      <trkpt lat="44.56334" lon="5.76918">
        <ele>994.14</ele>
        <time>2013-11-14T09:12:02Z</time>
      </trkpt>
      <trkpt lat="44.56329" lon="5.76932">
        <ele>996.54</ele>
        <time>2013-11-14T09:12:17Z</time>
      </trkpt>
      <trkpt lat="44.56321" lon="5.76946">
        <ele>997.99</ele>
        <time>2013-11-14T09:12:32Z</time>
      </trkpt>
      <trkpt lat="44.56313" lon="5.76959">
        <ele>999.43</ele>
        <time>2013-11-14T09:12:48Z</time>
      </trkpt>
      <trkpt lat="44.56307" lon="5.76975">
        <ele>1001.35</ele>
        <time>2013-11-14T09:13:03Z</time>
      </trkpt>
      <trkpt lat="44.56301" lon="5.76991">
        <ele>1003.75</ele>
        <time>2013-11-14T09:13:20Z</time>
      </trkpt>
      <trkpt lat="44.56297" lon="5.7701">
        <ele>1006.16</ele>
        <time>2013-11-14T09:13:38Z</time>
      </trkpt>
      <trkpt lat="44.56296" lon="5.77021">
        <ele>1008.08</ele>
        <time>2013-11-14T09:13:49Z</time>
      </trkpt>
      <trkpt lat="44.56296" lon="5.77037">
        <ele>1011.44</ele>
        <time>2013-11-14T09:14:06Z</time>
      </trkpt>
      <trkpt lat="44.56299" lon="5.7705">
        <ele>1013.85</ele>
        <time>2013-11-14T09:14:21Z</time>
      </trkpt>
      <trkpt lat="44.56299" lon="5.77064">
        <ele>1016.73</ele>
        <time>2013-11-14T09:14:36Z</time>
      </trkpt>
      <trkpt lat="44.56297" lon="5.7708">
        <ele>1019.62</ele>
        <time>2013-11-14T09:14:53Z</time>
      </trkpt>
      <trkpt lat="44.56297" lon="5.77093">
        <ele>1021.54</ele>
        <time>2013-11-14T09:15:09Z</time>
      </trkpt>
      <trkpt lat="44.56297" lon="5.77107">
        <ele>1024.42</ele>
        <time>2013-11-14T09:15:27Z</time>
      </trkpt>
      <trkpt lat="44.56297" lon="5.77117">
        <ele>1025.38</ele>
        <time>2013-11-14T09:15:40Z</time>
      </trkpt>
      <trkpt lat="44.56297" lon="5.77131">
        <ele>1028.27</ele>
        <time>2013-11-14T09:15:59Z</time>
      </trkpt>
      <trkpt lat="44.56294" lon="5.77147">
        <ele>1030.67</ele>
        <time>2013-11-14T09:16:18Z</time>
      </trkpt>
      <trkpt lat="44.56293" lon="5.77163">
        <ele>1032.59</ele>
        <time>2013-11-14T09:16:33Z</time>
      </trkpt>
      <trkpt lat="44.5629" lon="5.77181">
        <ele>1034.52</ele>
        <time>2013-11-14T09:16:52Z</time>
      </trkpt>
      <trkpt lat="44.56288" lon="5.77198">
        <ele>1036.44</ele>
        <time>2013-11-14T09:17:11Z</time>
      </trkpt>
      <trkpt lat="44.56285" lon="5.77216">
        <ele>1038.84</ele>
        <time>2013-11-14T09:17:28Z</time>
      </trkpt>
      <trkpt lat="44.56283" lon="5.77233">
        <ele>1040.28</ele>
        <time>2013-11-14T09:17:44Z</time>
      </trkpt>
      <trkpt lat="44.5628" lon="5.77247">
        <ele>1042.69</ele>
        <time>2013-11-14T09:18:02Z</time>
      </trkpt>
      <trkpt lat="44.56282" lon="5.7726">
        <ele>1045.09</ele>
        <time>2013-11-14T09:18:20Z</time>
      </trkpt>
      <trkpt lat="44.56286" lon="5.77272">
        <ele>1047.01</ele>
        <time>2013-11-14T09:18:35Z</time>
      </trkpt>
      <trkpt lat="44.56288" lon="5.77284">
        <ele>1049.42</ele>
        <time>2013-11-14T09:18:51Z</time>
      </trkpt>
      <trkpt lat="44.56287" lon="5.77296">
        <ele>1051.34</ele>
        <time>2013-11-14T09:19:05Z</time>
      </trkpt>
      <trkpt lat="44.5629" lon="5.77304">
        <ele>1054.22</ele>
        <time>2013-11-14T09:19:17Z</time>
      </trkpt>
      <trkpt lat="44.56287" lon="5.77321">
        <ele>1055.18</ele>
        <time>2013-11-14T09:19:34Z</time>
      </trkpt>
      <trkpt lat="44.56285" lon="5.77334">
        <ele>1056.15</ele>
        <time>2013-11-14T09:19:48Z</time>
      </trkpt>
      <trkpt lat="44.56281" lon="5.77343">
        <ele>1056.63</ele>
        <time>2013-11-14T09:20:02Z</time>
      </trkpt>
      <trkpt lat="44.56282" lon="5.77359">
        <ele>1056.63</ele>
        <time>2013-11-14T09:20:18Z</time>
      </trkpt>
      <trkpt lat="44.56288" lon="5.77365">
        <ele>1057.59</ele>
        <time>2013-11-14T09:20:32Z</time>
      </trkpt>
      <trkpt lat="44.56291" lon="5.77365">
        <ele>1057.59</ele>
        <time>2013-11-14T09:20:55Z</time>
      </trkpt>
      <trkpt lat="44.56289" lon="5.77366">
        <ele>1058.07</ele>
        <time>2013-11-14T09:21:15Z</time>
      </trkpt>
      <trkpt lat="44.5629" lon="5.77367">
        <ele>1058.07</ele>
        <time>2013-11-14T09:21:40Z</time>
      </trkpt>
      <trkpt lat="44.56288" lon="5.77366">
        <ele>1057.59</ele>
        <time>2013-11-14T09:22:07Z</time>
      </trkpt>
      <trkpt lat="44.56288" lon="5.77363">
        <ele>1057.59</ele>
        <time>2013-11-14T09:22:29Z</time>
      </trkpt>
      <trkpt lat="44.56288" lon="5.77363">
        <ele>1057.59</ele>
        <time>2013-11-14T09:23:00Z</time>
      </trkpt>
      <trkpt lat="44.56288" lon="5.77369">
        <ele>1057.11</ele>
        <time>2013-11-14T09:23:25Z</time>
      </trkpt>
      <trkpt lat="44.5629" lon="5.77369">
        <ele>1057.59</ele>
        <time>2013-11-14T09:23:41Z</time>
      </trkpt>
      <trkpt lat="44.56289" lon="5.77369">
        <ele>1057.59</ele>
        <time>2013-11-14T09:24:02Z</time>
      </trkpt>
      <trkpt lat="44.56289" lon="5.77371">
        <ele>1057.11</ele>
        <time>2013-11-14T09:24:19Z</time>
      </trkpt>
      <trkpt lat="44.56287" lon="5.77373">
        <ele>1056.63</ele>
        <time>2013-11-14T09:24:47Z</time>
      </trkpt>
      <trkpt lat="44.56287" lon="5.77374">
        <ele>1057.11</ele>
        <time>2013-11-14T09:25:12Z</time>
      </trkpt>
      <trkpt lat="44.56287" lon="5.77377">
        <ele>1056.63</ele>
        <time>2013-11-14T09:25:45Z</time>
      </trkpt>
      <trkpt lat="44.56288" lon="5.77373">
        <ele>1056.63</ele>
        <time>2013-11-14T09:26:13Z</time>
      </trkpt>
      <trkpt lat="44.56288" lon="5.77373">
        <ele>1057.11</ele>
        <time>2013-11-14T09:26:35Z</time>
      </trkpt>
      <trkpt lat="44.56288" lon="5.77372">
        <ele>1057.11</ele>
        <time>2013-11-14T09:27:01Z</time>
      </trkpt>
      <trkpt lat="44.56286" lon="5.77372">
        <ele>1057.11</ele>
        <time>2013-11-14T09:27:31Z</time>
      </trkpt>
      <trkpt lat="44.56287" lon="5.77371">
        <ele>1057.59</ele>
        <time>2013-11-14T09:28:05Z</time>
      </trkpt>
      <trkpt lat="44.56287" lon="5.77375">
        <ele>1057.59</ele>
        <time>2013-11-14T09:28:38Z</time>
      </trkpt>
      <trkpt lat="44.56287" lon="5.77377">
        <ele>1058.07</ele>
        <time>2013-11-14T09:29:15Z</time>
      </trkpt>
      <trkpt lat="44.56289" lon="5.77375">
        <ele>1058.07</ele>
        <time>2013-11-14T09:29:37Z</time>
      </trkpt>
      <trkpt lat="44.5629" lon="5.7737">
        <ele>1059.03</ele>
        <time>2013-11-14T09:29:57Z</time>
      </trkpt>
      <trkpt lat="44.56295" lon="5.77377">
        <ele>1059.51</ele>
        <time>2013-11-14T09:30:11Z</time>
      </trkpt>
      <trkpt lat="44.5629" lon="5.7738">
        <ele>1059.51</ele>
        <time>2013-11-14T09:30:26Z</time>
      </trkpt>
      <trkpt lat="44.56284" lon="5.7738">
        <ele>1059.51</ele>
        <time>2013-11-14T09:31:02Z</time>
      </trkpt>
      <trkpt lat="44.56296" lon="5.77375">
        <ele>1059.99</ele>
        <time>2013-11-14T09:31:38Z</time>
      </trkpt>
      <trkpt lat="44.56308" lon="5.77384">
        <ele>1060.95</ele>
        <time>2013-11-14T09:31:53Z</time>
      </trkpt>
      <trkpt lat="44.5632" lon="5.77394">
        <ele>1060.47</ele>
        <time>2013-11-14T09:32:09Z</time>
      </trkpt>
      <trkpt lat="44.56333" lon="5.77396">
        <ele>1060.95</ele>
        <time>2013-11-14T09:32:27Z</time>
      </trkpt>
      <trkpt lat="44.56349" lon="5.77392">
        <ele>1061.43</ele>
        <time>2013-11-14T09:32:42Z</time>
      </trkpt>
      <trkpt lat="44.56363" lon="5.77388">
        <ele>1062.87</ele>
        <time>2013-11-14T09:32:58Z</time>
      </trkpt>
      <trkpt lat="44.56378" lon="5.77394">
        <ele>1064.32</ele>
        <time>2013-11-14T09:33:16Z</time>
      </trkpt>
      <trkpt lat="44.56395" lon="5.77399">
        <ele>1065.76</ele>
        <time>2013-11-14T09:33:33Z</time>
      </trkpt>
      <trkpt lat="44.56407" lon="5.77406">
        <ele>1065.76</ele>
        <time>2013-11-14T09:33:49Z</time>
      </trkpt>
      <trkpt lat="44.56422" lon="5.77414">
        <ele>1066.24</ele>
        <time>2013-11-14T09:34:03Z</time>
      </trkpt>
      <trkpt lat="44.56432" lon="5.77422">
        <ele>1066.72</ele>
        <time>2013-11-14T09:34:16Z</time>
      </trkpt>
      <trkpt lat="44.5645" lon="5.77431">
        <ele>1068.64</ele>
        <time>2013-11-14T09:34:35Z</time>
      </trkpt>
      <trkpt lat="44.56462" lon="5.77443">
        <ele>1069.12</ele>
        <time>2013-11-14T09:34:51Z</time>
      </trkpt>
      <trkpt lat="44.56481" lon="5.77453">
        <ele>1069.6</ele>
        <time>2013-11-14T09:35:08Z</time>
      </trkpt>
      <trkpt lat="44.56494" lon="5.77459">
        <ele>1069.6</ele>
        <time>2013-11-14T09:35:22Z</time>
      </trkpt>
      <trkpt lat="44.5651" lon="5.77462">
        <ele>1068.64</ele>
        <time>2013-11-14T09:35:39Z</time>
      </trkpt>
      <trkpt lat="44.56528" lon="5.77464">
        <ele>1068.16</ele>
        <time>2013-11-14T09:35:56Z</time>
      </trkpt>
      <trkpt lat="44.56546" lon="5.77464">
        <ele>1068.64</ele>
        <time>2013-11-14T09:36:12Z</time>
      </trkpt>
      <trkpt lat="44.5656" lon="5.77459">
        <ele>1068.64</ele>
        <time>2013-11-14T09:36:26Z</time>
      </trkpt>
      <trkpt lat="44.56578" lon="5.77464">
        <ele>1067.68</ele>
        <time>2013-11-14T09:36:45Z</time>
      </trkpt>
      <trkpt lat="44.56593" lon="5.77464">
        <ele>1066.72</ele>
        <time>2013-11-14T09:37:01Z</time>
      </trkpt>
      <trkpt lat="44.56611" lon="5.77466">
        <ele>1064.32</ele>
        <time>2013-11-14T09:37:18Z</time>
      </trkpt>
      <trkpt lat="44.5662" lon="5.77468">
        <ele>1062.87</ele>
        <time>2013-11-14T09:37:30Z</time>
      </trkpt>
      <trkpt lat="44.56635" lon="5.77478">
        <ele>1062.39</ele>
        <time>2013-11-14T09:37:49Z</time>
      </trkpt>
      <trkpt lat="44.56636" lon="5.77496">
        <ele>1065.76</ele>
        <time>2013-11-14T09:38:09Z</time>
      </trkpt>
      <trkpt lat="44.56635" lon="5.77511">
        <ele>1067.2</ele>
        <time>2013-11-14T09:38:22Z</time>
      </trkpt>
      <trkpt lat="44.56634" lon="5.77523">
        <ele>1069.12</ele>
        <time>2013-11-14T09:38:37Z</time>
      </trkpt>
      <trkpt lat="44.56633" lon="5.77541">
        <ele>1071.05</ele>
        <time>2013-11-14T09:38:53Z</time>
      </trkpt>
      <trkpt lat="44.56637" lon="5.77553">
        <ele>1072.49</ele>
        <time>2013-11-14T09:39:08Z</time>
      </trkpt>
      <trkpt lat="44.56636" lon="5.77559">
        <ele>1072.97</ele>
        <time>2013-11-14T09:39:14Z</time>
      </trkpt>
      <trkpt lat="44.56639" lon="5.77577">
        <ele>1074.89</ele>
        <time>2013-11-14T09:39:31Z</time>
      </trkpt>
      <trkpt lat="44.56642" lon="5.77592">
        <ele>1076.33</ele>
        <time>2013-11-14T09:39:49Z</time>
      </trkpt>
      <trkpt lat="44.56648" lon="5.77608">
        <ele>1078.26</ele>
        <time>2013-11-14T09:40:04Z</time>
      </trkpt>
      <trkpt lat="44.56649" lon="5.77623">
        <ele>1080.18</ele>
        <time>2013-11-14T09:40:19Z</time>
      </trkpt>
      <trkpt lat="44.56653" lon="5.77636">
        <ele>1081.62</ele>
        <time>2013-11-14T09:40:33Z</time>
      </trkpt>
      <trkpt lat="44.56659" lon="5.77644">
        <ele>1083.54</ele>
        <time>2013-11-14T09:40:49Z</time>
      </trkpt>
      <trkpt lat="44.56667" lon="5.77655">
        <ele>1085.95</ele>
        <time>2013-11-14T09:41:07Z</time>
      </trkpt>
      <trkpt lat="44.56675" lon="5.77668">
        <ele>1087.87</ele>
        <time>2013-11-14T09:41:23Z</time>
      </trkpt>
      <trkpt lat="44.56681" lon="5.77678">
        <ele>1088.83</ele>
        <time>2013-11-14T09:41:39Z</time>
      </trkpt>
      <trkpt lat="44.56691" lon="5.77686">
        <ele>1090.75</ele>
        <time>2013-11-14T09:41:55Z</time>
      </trkpt>
      <trkpt lat="44.56704" lon="5.77696">
        <ele>1091.71</ele>
        <time>2013-11-14T09:42:11Z</time>
      </trkpt>
      <trkpt lat="44.56718" lon="5.77705">
        <ele>1093.16</ele>
        <time>2013-11-14T09:42:29Z</time>
      </trkpt>
      <trkpt lat="44.56735" lon="5.77715">
        <ele>1094.12</ele>
        <time>2013-11-14T09:42:48Z</time>
      </trkpt>
      <trkpt lat="44.56754" lon="5.77727">
        <ele>1094.12</ele>
        <time>2013-11-14T09:43:07Z</time>
      </trkpt>
      <trkpt lat="44.56763" lon="5.77734">
        <ele>1094.12</ele>
        <time>2013-11-14T09:43:26Z</time>
      </trkpt>
      <trkpt lat="44.56776" lon="5.77738">
        <ele>1094.12</ele>
        <time>2013-11-14T09:43:42Z</time>
      </trkpt>
      <trkpt lat="44.56789" lon="5.77737">
        <ele>1094.12</ele>
        <time>2013-11-14T09:43:57Z</time>
      </trkpt>
      <trkpt lat="44.56801" lon="5.77729">
        <ele>1093.64</ele>
        <time>2013-11-14T09:44:14Z</time>
      </trkpt>
      <trkpt lat="44.56814" lon="5.77724">
        <ele>1091.71</ele>
        <time>2013-11-14T09:44:28Z</time>
      </trkpt>
      <trkpt lat="44.56826" lon="5.77717">
        <ele>1088.83</ele>
        <time>2013-11-14T09:44:48Z</time>
      </trkpt>
      <trkpt lat="44.56842" lon="5.7771">
        <ele>1085.47</ele>
        <time>2013-11-14T09:45:06Z</time>
      </trkpt>
      <trkpt lat="44.5685" lon="5.777">
        <ele>1084.02</ele>
        <time>2013-11-14T09:45:20Z</time>
      </trkpt>
      <trkpt lat="44.56864" lon="5.77694">
        <ele>1080.66</ele>
        <time>2013-11-14T09:45:39Z</time>
      </trkpt>
      <trkpt lat="44.56875" lon="5.7768">
        <ele>1079.22</ele>
        <time>2013-11-14T09:45:56Z</time>
      </trkpt>
      <trkpt lat="44.56882" lon="5.77699">
        <ele>1080.66</ele>
        <time>2013-11-14T09:46:10Z</time>
      </trkpt>
      <trkpt lat="44.56885" lon="5.77715">
        <ele>1082.58</ele>
        <time>2013-11-14T09:46:28Z</time>
      </trkpt>
      <trkpt lat="44.56887" lon="5.77734">
        <ele>1084.5</ele>
        <time>2013-11-14T09:46:46Z</time>
      </trkpt>
      <trkpt lat="44.5689" lon="5.77758">
        <ele>1084.5</ele>
        <time>2013-11-14T09:47:04Z</time>
      </trkpt>
      <trkpt lat="44.56892" lon="5.77776">
        <ele>1084.99</ele>
        <time>2013-11-14T09:47:19Z</time>
      </trkpt>
      <trkpt lat="44.56895" lon="5.77791">
        <ele>1086.43</ele>
        <time>2013-11-14T09:47:34Z</time>
      </trkpt>
      <trkpt lat="44.56901" lon="5.77807">
        <ele>1086.91</ele>
        <time>2013-11-14T09:47:51Z</time>
      </trkpt>
      <trkpt lat="44.56907" lon="5.77821">
        <ele>1087.87</ele>
        <time>2013-11-14T09:48:03Z</time>
      </trkpt>
      <trkpt lat="44.56912" lon="5.77846">
        <ele>1086.91</ele>
        <time>2013-11-14T09:48:22Z</time>
      </trkpt>
      <trkpt lat="44.56918" lon="5.77863">
        <ele>1087.39</ele>
        <time>2013-11-14T09:48:37Z</time>
      </trkpt>
      <trkpt lat="44.56924" lon="5.77879">
        <ele>1086.43</ele>
        <time>2013-11-14T09:48:51Z</time>
      </trkpt>
      <trkpt lat="44.56933" lon="5.77888">
        <ele>1086.43</ele>
        <time>2013-11-14T09:49:05Z</time>
      </trkpt>
      <trkpt lat="44.56943" lon="5.77894">
        <ele>1086.43</ele>
        <time>2013-11-14T09:49:23Z</time>
      </trkpt>
      <trkpt lat="44.56957" lon="5.77895">
        <ele>1087.39</ele>
        <time>2013-11-14T09:49:43Z</time>
      </trkpt>
      <trkpt lat="44.5697" lon="5.77896">
        <ele>1088.35</ele>
        <time>2013-11-14T09:50:00Z</time>
      </trkpt>
      <trkpt lat="44.56984" lon="5.77901">
        <ele>1088.35</ele>
        <time>2013-11-14T09:50:16Z</time>
      </trkpt>
      <trkpt lat="44.56996" lon="5.77905">
        <ele>1087.39</ele>
        <time>2013-11-14T09:50:32Z</time>
      </trkpt>
      <trkpt lat="44.57009" lon="5.77908">
        <ele>1086.43</ele>
        <time>2013-11-14T09:50:49Z</time>
      </trkpt>
      <trkpt lat="44.57014" lon="5.77911">
        <ele>1086.43</ele>
        <time>2013-11-14T09:51:00Z</time>
      </trkpt>
      <trkpt lat="44.57036" lon="5.77913">
        <ele>1084.99</ele>
        <time>2013-11-14T09:51:20Z</time>
      </trkpt>
      <trkpt lat="44.57048" lon="5.7791">
        <ele>1085.47</ele>
        <time>2013-11-14T09:51:34Z</time>
      </trkpt>
      <trkpt lat="44.57053" lon="5.77908">
        <ele>1085.95</ele>
        <time>2013-11-14T09:51:49Z</time>
      </trkpt>
      <trkpt lat="44.5707" lon="5.77905">
        <ele>1086.43</ele>
        <time>2013-11-14T09:52:04Z</time>
      </trkpt>
      <trkpt lat="44.57088" lon="5.77901">
        <ele>1085.47</ele>
        <time>2013-11-14T09:52:25Z</time>
      </trkpt>
      <trkpt lat="44.57103" lon="5.779">
        <ele>1084.02</ele>
        <time>2013-11-14T09:52:41Z</time>
      </trkpt>
      <trkpt lat="44.57116" lon="5.779">
        <ele>1083.06</ele>
        <time>2013-11-14T09:52:59Z</time>
      </trkpt>
      <trkpt lat="44.57119" lon="5.779">
        <ele>1081.62</ele>
        <time>2013-11-14T09:53:18Z</time>
      </trkpt>
      <trkpt lat="44.57135" lon="5.77903">
        <ele>1080.18</ele>
        <time>2013-11-14T09:53:40Z</time>
      </trkpt>
      <trkpt lat="44.57147" lon="5.779">
        <ele>1076.81</ele>
        <time>2013-11-14T09:53:56Z</time>
      </trkpt>
      <trkpt lat="44.57158" lon="5.77895">
        <ele>1075.37</ele>
        <time>2013-11-14T09:54:12Z</time>
      </trkpt>
      <trkpt lat="44.57169" lon="5.77892">
        <ele>1073.45</ele>
        <time>2013-11-14T09:54:34Z</time>
      </trkpt>
      <trkpt lat="44.57177" lon="5.7789">
        <ele>1070.57</ele>
        <time>2013-11-14T09:54:51Z</time>
      </trkpt>
      <trkpt lat="44.57186" lon="5.77891">
        <ele>1067.68</ele>
        <time>2013-11-14T09:55:07Z</time>
      </trkpt>
      <trkpt lat="44.57196" lon="5.77895">
        <ele>1065.28</ele>
        <time>2013-11-14T09:55:27Z</time>
      </trkpt>
      <trkpt lat="44.57203" lon="5.77894">
        <ele>1062.87</ele>
        <time>2013-11-14T09:55:40Z</time>
      </trkpt>
      <trkpt lat="44.57219" lon="5.77889">
        <ele>1059.51</ele>
        <time>2013-11-14T09:56:01Z</time>
      </trkpt>
      <trkpt lat="44.57234" lon="5.77898">
        <ele>1056.63</ele>
        <time>2013-11-14T09:56:21Z</time>
      </trkpt>
      <trkpt lat="44.57248" lon="5.77905">
        <ele>1054.7</ele>
        <time>2013-11-14T09:56:40Z</time>
      </trkpt>
      <trkpt lat="44.5726" lon="5.7791">
        <ele>1051.34</ele>
        <time>2013-11-14T09:56:58Z</time>
      </trkpt>
      <trkpt lat="44.57271" lon="5.77908">
        <ele>1048.94</ele>
        <time>2013-11-14T09:57:19Z</time>
      </trkpt>
      <trkpt lat="44.57277" lon="5.77906">
        <ele>1047.01</ele>
        <time>2013-11-14T09:57:41Z</time>
      </trkpt>
      <trkpt lat="44.57281" lon="5.77903">
        <ele>1045.57</ele>
        <time>2013-11-14T09:58:04Z</time>
      </trkpt>
      <trkpt lat="44.57286" lon="5.77907">
        <ele>1044.61</ele>
        <time>2013-11-14T09:58:24Z</time>
      </trkpt>
      <trkpt lat="44.57289" lon="5.77913">
        <ele>1043.65</ele>
        <time>2013-11-14T09:58:48Z</time>
      </trkpt>
      <trkpt lat="44.57302" lon="5.77901">
        <ele>1041.25</ele>
        <time>2013-11-14T09:59:05Z</time>
      </trkpt>
      <trkpt lat="44.57307" lon="5.77897">
        <ele>1040.28</ele>
        <time>2013-11-14T09:59:22Z</time>
      </trkpt>
      <trkpt lat="44.57315" lon="5.77895">
        <ele>1040.28</ele>
        <time>2013-11-14T09:59:43Z</time>
      </trkpt>
      <trkpt lat="44.5731" lon="5.77892">
        <ele>1039.8</ele>
        <time>2013-11-14T10:00:06Z</time>
      </trkpt>
      <trkpt lat="44.57312" lon="5.77893">
        <ele>1038.84</ele>
        <time>2013-11-14T10:00:26Z</time>
      </trkpt>
      <trkpt lat="44.57314" lon="5.77896">
        <ele>1037.88</ele>
        <time>2013-11-14T10:00:35Z</time>
      </trkpt>
      <trkpt lat="44.57316" lon="5.77899">
        <ele>1036.44</ele>
        <time>2013-11-14T10:00:38Z</time>
      </trkpt>
      <trkpt lat="44.57323" lon="5.77911">
        <ele>1033.07</ele>
        <time>2013-11-14T10:00:53Z</time>
      </trkpt>
      <trkpt lat="44.57325" lon="5.77918">
        <ele>1030.19</ele>
        <time>2013-11-14T10:01:06Z</time>
      </trkpt>
      <trkpt lat="44.57333" lon="5.77919">
        <ele>1026.83</ele>
        <time>2013-11-14T10:01:19Z</time>
      </trkpt>
      <trkpt lat="44.57343" lon="5.77926">
        <ele>1023.94</ele>
        <time>2013-11-14T10:01:35Z</time>
      </trkpt>
      <trkpt lat="44.57354" lon="5.77933">
        <ele>1021.54</ele>
        <time>2013-11-14T10:01:52Z</time>
      </trkpt>
      <trkpt lat="44.57364" lon="5.77937">
        <ele>1019.13</ele>
        <time>2013-11-14T10:02:09Z</time>
      </trkpt>
      <trkpt lat="44.57369" lon="5.77934">
        <ele>1018.17</ele>
        <time>2013-11-14T10:02:38Z</time>
      </trkpt>
      <trkpt lat="44.57372" lon="5.77936">
        <ele>1017.69</ele>
        <time>2013-11-14T10:02:52Z</time>
      </trkpt>
      <trkpt lat="44.57385" lon="5.7794">
        <ele>1016.73</ele>
        <time>2013-11-14T10:03:09Z</time>
      </trkpt>
      <trkpt lat="44.574" lon="5.77949">
        <ele>1014.81</ele>
        <time>2013-11-14T10:03:29Z</time>
      </trkpt>
      <trkpt lat="44.57405" lon="5.77964">
        <ele>1012.41</ele>
        <time>2013-11-14T10:03:45Z</time>
      </trkpt>
      <trkpt lat="44.57418" lon="5.77977">
        <ele>1009.52</ele>
        <time>2013-11-14T10:04:02Z</time>
      </trkpt>
      <trkpt lat="44.57423" lon="5.77982">
        <ele>1009.04</ele>
        <time>2013-11-14T10:04:20Z</time>
      </trkpt>
      <trkpt lat="44.57428" lon="5.77992">
        <ele>1006.64</ele>
        <time>2013-11-14T10:04:35Z</time>
      </trkpt>
      <trkpt lat="44.57439" lon="5.78005">
        <ele>1006.64</ele>
        <time>2013-11-14T10:04:53Z</time>
      </trkpt>
      <trkpt lat="44.57447" lon="5.78025">
        <ele>1005.68</ele>
        <time>2013-11-14T10:05:11Z</time>
      </trkpt>
      <trkpt lat="44.5746" lon="5.78046">
        <ele>1004.23</ele>
        <time>2013-11-14T10:05:31Z</time>
      </trkpt>
      <trkpt lat="44.57467" lon="5.78063">
        <ele>1004.72</ele>
        <time>2013-11-14T10:05:47Z</time>
      </trkpt>
      <trkpt lat="44.57477" lon="5.78077">
        <ele>1005.2</ele>
        <time>2013-11-14T10:06:02Z</time>
      </trkpt>
      <trkpt lat="44.57481" lon="5.781">
        <ele>1004.72</ele>
        <time>2013-11-14T10:06:19Z</time>
      </trkpt>
      <trkpt lat="44.57487" lon="5.7812">
        <ele>1002.79</ele>
        <time>2013-11-14T10:06:35Z</time>
      </trkpt>
      <trkpt lat="44.57492" lon="5.78137">
        <ele>1000.87</ele>
        <time>2013-11-14T10:06:53Z</time>
      </trkpt>
      <trkpt lat="44.57491" lon="5.78154">
        <ele>997.99</ele>
        <time>2013-11-14T10:07:07Z</time>
      </trkpt>
      <trkpt lat="44.57491" lon="5.78174">
        <ele>996.06</ele>
        <time>2013-11-14T10:07:21Z</time>
      </trkpt>
      <trkpt lat="44.57486" lon="5.78196">
        <ele>994.14</ele>
        <time>2013-11-14T10:07:39Z</time>
      </trkpt>
      <trkpt lat="44.57484" lon="5.78211">
        <ele>992.7</ele>
        <time>2013-11-14T10:07:56Z</time>
      </trkpt>
      <trkpt lat="44.57478" lon="5.78226">
        <ele>990.78</ele>
        <time>2013-11-14T10:08:13Z</time>
      </trkpt>
      <trkpt lat="44.57474" lon="5.78239">
        <ele>988.37</ele>
        <time>2013-11-14T10:08:28Z</time>
      </trkpt>
      <trkpt lat="44.5747" lon="5.7826">
        <ele>985.49</ele>
        <time>2013-11-14T10:08:44Z</time>
      </trkpt>
      <trkpt lat="44.57463" lon="5.78277">
        <ele>982.12</ele>
        <time>2013-11-14T10:09:01Z</time>
      </trkpt>
      <trkpt lat="44.57458" lon="5.78301">
        <ele>979.72</ele>
        <time>2013-11-14T10:09:20Z</time>
      </trkpt>
      <trkpt lat="44.57455" lon="5.78311">
        <ele>978.76</ele>
        <time>2013-11-14T10:09:36Z</time>
      </trkpt>
      <trkpt lat="44.57454" lon="5.78317">
        <ele>978.28</ele>
        <time>2013-11-14T10:09:54Z</time>
      </trkpt>
      <trkpt lat="44.57453" lon="5.78322">
        <ele>977.8</ele>
        <time>2013-11-14T10:10:13Z</time>
      </trkpt>
      <trkpt lat="44.57454" lon="5.78324">
        <ele>977.32</ele>
        <time>2013-11-14T10:10:40Z</time>
      </trkpt>
      <trkpt lat="44.57455" lon="5.7833">
        <ele>977.32</ele>
        <time>2013-11-14T10:10:59Z</time>
      </trkpt>
      <trkpt lat="44.57452" lon="5.78338">
        <ele>974.43</ele>
        <time>2013-11-14T10:11:13Z</time>
      </trkpt>
      <trkpt lat="44.57447" lon="5.78348">
        <ele>972.99</ele>
        <time>2013-11-14T10:11:27Z</time>
      </trkpt>
      <trkpt lat="44.57452" lon="5.78351">
        <ele>973.47</ele>
        <time>2013-11-14T10:11:48Z</time>
      </trkpt>
      <trkpt lat="44.57451" lon="5.78358">
        <ele>973.47</ele>
        <time>2013-11-14T10:12:02Z</time>
      </trkpt>
      <trkpt lat="44.57457" lon="5.78371">
        <ele>973.95</ele>
        <time>2013-11-14T10:12:12Z</time>
      </trkpt>
      <trkpt lat="44.57471" lon="5.78393">
        <ele>974.43</ele>
        <time>2013-11-14T10:12:30Z</time>
      </trkpt>
      <trkpt lat="44.57477" lon="5.78405">
        <ele>974.91</ele>
        <time>2013-11-14T10:12:39Z</time>
      </trkpt>
      <trkpt lat="44.57487" lon="5.78428">
        <ele>975.88</ele>
        <time>2013-11-14T10:12:56Z</time>
      </trkpt>
      <trkpt lat="44.575" lon="5.78441">
        <ele>977.32</ele>
        <time>2013-11-14T10:13:11Z</time>
      </trkpt>
      <trkpt lat="44.57516" lon="5.7845">
        <ele>978.28</ele>
        <time>2013-11-14T10:13:26Z</time>
      </trkpt>
      <trkpt lat="44.57529" lon="5.78453">
        <ele>979.24</ele>
        <time>2013-11-14T10:13:37Z</time>
      </trkpt>
      <trkpt lat="44.57553" lon="5.78452">
        <ele>980.68</ele>
        <time>2013-11-14T10:13:59Z</time>
      </trkpt>
      <trkpt lat="44.57582" lon="5.78461">
        <ele>983.09</ele>
        <time>2013-11-14T10:14:23Z</time>
      </trkpt>
      <trkpt lat="44.57603" lon="5.78467">
        <ele>985.01</ele>
        <time>2013-11-14T10:14:42Z</time>
      </trkpt>
      <trkpt lat="44.57622" lon="5.78463">
        <ele>986.45</ele>
        <time>2013-11-14T10:14:59Z</time>
      </trkpt>
      <trkpt lat="44.57643" lon="5.78458">
        <ele>987.41</ele>
        <time>2013-11-14T10:15:16Z</time>
      </trkpt>
      <trkpt lat="44.57662" lon="5.78458">
        <ele>988.85</ele>
        <time>2013-11-14T10:15:33Z</time>
      </trkpt>
      <trkpt lat="44.57684" lon="5.78454">
        <ele>989.81</ele>
        <time>2013-11-14T10:15:51Z</time>
      </trkpt>
      <trkpt lat="44.57687" lon="5.78454">
        <ele>990.3</ele>
        <time>2013-11-14T10:15:54Z</time>
      </trkpt>
      <trkpt lat="44.57711" lon="5.78448">
        <ele>991.74</ele>
        <time>2013-11-14T10:16:16Z</time>
      </trkpt>
      <trkpt lat="44.57733" lon="5.78441">
        <ele>993.18</ele>
        <time>2013-11-14T10:16:35Z</time>
      </trkpt>
      <trkpt lat="44.57755" lon="5.78435">
        <ele>994.14</ele>
        <time>2013-11-14T10:16:55Z</time>
      </trkpt>
      <trkpt lat="44.57773" lon="5.78431">
        <ele>994.62</ele>
        <time>2013-11-14T10:17:12Z</time>
      </trkpt>
      <trkpt lat="44.57792" lon="5.78427">
        <ele>995.58</ele>
        <time>2013-11-14T10:17:29Z</time>
      </trkpt>
      <trkpt lat="44.57814" lon="5.78418">
        <ele>997.51</ele>
        <time>2013-11-14T10:17:50Z</time>
      </trkpt>
      <trkpt lat="44.57842" lon="5.78411">
        <ele>997.02</ele>
        <time>2013-11-14T10:18:16Z</time>
      </trkpt>
      <trkpt lat="44.57863" lon="5.78405">
        <ele>997.99</ele>
        <time>2013-11-14T10:18:35Z</time>
      </trkpt>
      <trkpt lat="44.57886" lon="5.78389">
        <ele>999.43</ele>
        <time>2013-11-14T10:18:58Z</time>
      </trkpt>
      <trkpt lat="44.57912" lon="5.78393">
        <ele>1000.39</ele>
        <time>2013-11-14T10:19:22Z</time>
      </trkpt>
      <trkpt lat="44.57937" lon="5.78401">
        <ele>1000.87</ele>
        <time>2013-11-14T10:19:42Z</time>
      </trkpt>
      <trkpt lat="44.57963" lon="5.78406">
        <ele>1000.87</ele>
        <time>2013-11-14T10:20:06Z</time>
      </trkpt>
      <trkpt lat="44.57983" lon="5.7841">
        <ele>1000.87</ele>
        <time>2013-11-14T10:20:24Z</time>
      </trkpt>
      <trkpt lat="44.58003" lon="5.78418">
        <ele>1001.83</ele>
        <time>2013-11-14T10:20:42Z</time>
      </trkpt>
      <trkpt lat="44.58022" lon="5.78422">
        <ele>1002.31</ele>
        <time>2013-11-14T10:21:01Z</time>
      </trkpt>
      <trkpt lat="44.58038" lon="5.78427">
        <ele>1002.79</ele>
        <time>2013-11-14T10:21:19Z</time>
      </trkpt>
      <trkpt lat="44.58053" lon="5.78429">
        <ele>1003.27</ele>
        <time>2013-11-14T10:21:34Z</time>
      </trkpt>
      <trkpt lat="44.58072" lon="5.78436">
        <ele>1004.23</ele>
        <time>2013-11-14T10:21:54Z</time>
      </trkpt>
      <trkpt lat="44.5809" lon="5.78442">
        <ele>1005.2</ele>
        <time>2013-11-14T10:22:14Z</time>
      </trkpt>
      <trkpt lat="44.58102" lon="5.78441">
        <ele>1006.16</ele>
        <time>2013-11-14T10:22:36Z</time>
      </trkpt>
      <trkpt lat="44.581" lon="5.78445">
        <ele>1006.16</ele>
        <time>2013-11-14T10:22:56Z</time>
      </trkpt>
      <trkpt lat="44.58098" lon="5.7844">
        <ele>1006.64</ele>
        <time>2013-11-14T10:23:16Z</time>
      </trkpt>
      <trkpt lat="44.58098" lon="5.78442">
        <ele>1006.64</ele>
        <time>2013-11-14T10:23:38Z</time>
      </trkpt>
      <trkpt lat="44.58099" lon="5.78443">
        <ele>1006.64</ele>
        <time>2013-11-14T10:23:59Z</time>
      </trkpt>
      <trkpt lat="44.58099" lon="5.78448">
        <ele>1006.64</ele>
        <time>2013-11-14T10:24:27Z</time>
      </trkpt>
      <trkpt lat="44.58102" lon="5.78447">
        <ele>1007.12</ele>
        <time>2013-11-14T10:24:51Z</time>
      </trkpt>
      <trkpt lat="44.58114" lon="5.78454">
        <ele>1007.6</ele>
        <time>2013-11-14T10:25:10Z</time>
      </trkpt>
      <trkpt lat="44.58133" lon="5.78457">
        <ele>1009.04</ele>
        <time>2013-11-14T10:25:29Z</time>
      </trkpt>
      <trkpt lat="44.58146" lon="5.78461">
        <ele>1010.48</ele>
        <time>2013-11-14T10:25:47Z</time>
      </trkpt>
      <trkpt lat="44.58165" lon="5.78466">
        <ele>1011.44</ele>
        <time>2013-11-14T10:26:06Z</time>
      </trkpt>
      <trkpt lat="44.58178" lon="5.78466">
        <ele>1012.41</ele>
        <time>2013-11-14T10:26:25Z</time>
      </trkpt>
      <trkpt lat="44.58193" lon="5.78473">
        <ele>1013.85</ele>
        <time>2013-11-14T10:26:41Z</time>
      </trkpt>
      <trkpt lat="44.58213" lon="5.78484">
        <ele>1015.29</ele>
        <time>2013-11-14T10:27:03Z</time>
      </trkpt>
      <trkpt lat="44.58233" lon="5.78493">
        <ele>1016.73</ele>
        <time>2013-11-14T10:27:22Z</time>
      </trkpt>
      <trkpt lat="44.58241" lon="5.78495">
        <ele>1017.21</ele>
        <time>2013-11-14T10:27:29Z</time>
      </trkpt>
      <trkpt lat="44.58259" lon="5.78504">
        <ele>1018.65</ele>
        <time>2013-11-14T10:27:48Z</time>
      </trkpt>
      <trkpt lat="44.58276" lon="5.78507">
        <ele>1020.1</ele>
        <time>2013-11-14T10:28:04Z</time>
      </trkpt>
      <trkpt lat="44.58278" lon="5.78512">
        <ele>1020.1</ele>
        <time>2013-11-14T10:28:27Z</time>
      </trkpt>
      <trkpt lat="44.5828" lon="5.78508">
        <ele>1020.58</ele>
        <time>2013-11-14T10:28:53Z</time>
      </trkpt>
      <trkpt lat="44.58281" lon="5.78506">
        <ele>1022.98</ele>
        <time>2013-11-14T10:29:12Z</time>
      </trkpt>
      <trkpt lat="44.58293" lon="5.78508">
        <ele>1025.38</ele>
        <time>2013-11-14T10:29:31Z</time>
      </trkpt>
      <trkpt lat="44.58302" lon="5.78506">
        <ele>1028.75</ele>
        <time>2013-11-14T10:29:47Z</time>
      </trkpt>
      <trkpt lat="44.5831" lon="5.7851">
        <ele>1030.67</ele>
        <time>2013-11-14T10:30:02Z</time>
      </trkpt>
      <trkpt lat="44.58316" lon="5.78501">
        <ele>1033.55</ele>
        <time>2013-11-14T10:30:19Z</time>
      </trkpt>
      <trkpt lat="44.58325" lon="5.785">
        <ele>1035.96</ele>
        <time>2013-11-14T10:30:33Z</time>
      </trkpt>
      <trkpt lat="44.58341" lon="5.78507">
        <ele>1037.4</ele>
        <time>2013-11-14T10:30:49Z</time>
      </trkpt>
      <trkpt lat="44.58352" lon="5.78496">
        <ele>1040.28</ele>
        <time>2013-11-14T10:31:10Z</time>
      </trkpt>
      <trkpt lat="44.58363" lon="5.78493">
        <ele>1043.17</ele>
        <time>2013-11-14T10:31:26Z</time>
      </trkpt>
      <trkpt lat="44.58379" lon="5.78508">
        <ele>1044.13</ele>
        <time>2013-11-14T10:31:42Z</time>
      </trkpt>
      <trkpt lat="44.58393" lon="5.78514">
        <ele>1045.57</ele>
        <time>2013-11-14T10:31:58Z</time>
      </trkpt>
      <trkpt lat="44.58411" lon="5.78522">
        <ele>1046.53</ele>
        <time>2013-11-14T10:32:15Z</time>
      </trkpt>
      <trkpt lat="44.5843" lon="5.78529">
        <ele>1047.97</ele>
        <time>2013-11-14T10:32:33Z</time>
      </trkpt>
      <trkpt lat="44.58444" lon="5.78536">
        <ele>1050.38</ele>
        <time>2013-11-14T10:32:49Z</time>
      </trkpt>
      <trkpt lat="44.58458" lon="5.78541">
        <ele>1052.78</ele>
        <time>2013-11-14T10:33:06Z</time>
      </trkpt>
      <trkpt lat="44.58467" lon="5.78547">
        <ele>1053.74</ele>
        <time>2013-11-14T10:33:23Z</time>
      </trkpt>
      <trkpt lat="44.58476" lon="5.78555">
        <ele>1052.3</ele>
        <time>2013-11-14T10:33:40Z</time>
      </trkpt>
      <trkpt lat="44.58481" lon="5.78555">
        <ele>1051.82</ele>
        <time>2013-11-14T10:33:54Z</time>
      </trkpt>
      <trkpt lat="44.58489" lon="5.78561">
        <ele>1050.86</ele>
        <time>2013-11-14T10:34:10Z</time>
      </trkpt>
      <trkpt lat="44.58504" lon="5.78576">
        <ele>1047.97</ele>
        <time>2013-11-14T10:34:30Z</time>
      </trkpt>
      <trkpt lat="44.58515" lon="5.78588">
        <ele>1046.53</ele>
        <time>2013-11-14T10:34:47Z</time>
      </trkpt>
      <trkpt lat="44.5853" lon="5.78602">
        <ele>1045.57</ele>
        <time>2013-11-14T10:35:04Z</time>
      </trkpt>
      <trkpt lat="44.58543" lon="5.78606">
        <ele>1045.09</ele>
        <time>2013-11-14T10:35:20Z</time>
      </trkpt>
      <trkpt lat="44.58546" lon="5.78604">
        <ele>1045.09</ele>
        <time>2013-11-14T10:35:39Z</time>
      </trkpt>
      <trkpt lat="44.58553" lon="5.78607">
        <ele>1046.05</ele>
        <time>2013-11-14T10:35:59Z</time>
      </trkpt>
      <trkpt lat="44.58557" lon="5.78611">
        <ele>1045.09</ele>
        <time>2013-11-14T10:36:17Z</time>
      </trkpt>
      <trkpt lat="44.58559" lon="5.78612">
        <ele>1045.09</ele>
        <time>2013-11-14T10:36:33Z</time>
      </trkpt>
      <trkpt lat="44.5856" lon="5.78615">
        <ele>1044.61</ele>
        <time>2013-11-14T10:36:48Z</time>
      </trkpt>
      <trkpt lat="44.58563" lon="5.78615">
        <ele>1045.09</ele>
        <time>2013-11-14T10:37:07Z</time>
      </trkpt>
      <trkpt lat="44.58569" lon="5.78615">
        <ele>1045.09</ele>
        <time>2013-11-14T10:37:35Z</time>
      </trkpt>
      <trkpt lat="44.58572" lon="5.78616">
        <ele>1045.09</ele>
        <time>2013-11-14T10:37:58Z</time>
      </trkpt>
      <trkpt lat="44.58569" lon="5.78614">
        <ele>1045.57</ele>
        <time>2013-11-14T10:38:20Z</time>
      </trkpt>
      <trkpt lat="44.58569" lon="5.78611">
        <ele>1046.05</ele>
        <time>2013-11-14T10:38:43Z</time>
      </trkpt>
      <trkpt lat="44.58565" lon="5.78612">
        <ele>1046.05</ele>
        <time>2013-11-14T10:39:08Z</time>
      </trkpt>
      <trkpt lat="44.58566" lon="5.78617">
        <ele>1046.05</ele>
        <time>2013-11-14T10:39:35Z</time>
      </trkpt>
      <trkpt lat="44.58569" lon="5.78614">
        <ele>1046.05</ele>
        <time>2013-11-14T10:40:02Z</time>
      </trkpt>
      <trkpt lat="44.5857" lon="5.78614">
        <ele>1046.53</ele>
        <time>2013-11-14T10:40:24Z</time>
      </trkpt>
      <trkpt lat="44.58571" lon="5.78616">
        <ele>1046.53</ele>
        <time>2013-11-14T10:40:51Z</time>
      </trkpt>
      <trkpt lat="44.58568" lon="5.7862">
        <ele>1047.01</ele>
        <time>2013-11-14T10:41:16Z</time>
      </trkpt>
      <trkpt lat="44.58563" lon="5.78612">
        <ele>1047.01</ele>
        <time>2013-11-14T10:41:38Z</time>
      </trkpt>
      <trkpt lat="44.58558" lon="5.78617">
        <ele>1047.01</ele>
        <time>2013-11-14T10:42:03Z</time>
      </trkpt>
      <trkpt lat="44.58559" lon="5.78618">
        <ele>1047.01</ele>
        <time>2013-11-14T10:42:20Z</time>
      </trkpt>
      <trkpt lat="44.58558" lon="5.78612">
        <ele>1047.01</ele>
        <time>2013-11-14T10:42:35Z</time>
      </trkpt>
      <trkpt lat="44.5855" lon="5.78616">
        <ele>1047.01</ele>
        <time>2013-11-14T10:42:58Z</time>
      </trkpt>
      <trkpt lat="44.58555" lon="5.78612">
        <ele>1047.49</ele>
        <time>2013-11-14T10:43:18Z</time>
      </trkpt>
      <trkpt lat="44.58555" lon="5.78613">
        <ele>1047.49</ele>
        <time>2013-11-14T10:43:40Z</time>
      </trkpt>
      <trkpt lat="44.58546" lon="5.78607">
        <ele>1047.49</ele>
        <time>2013-11-14T10:43:54Z</time>
      </trkpt>
      <trkpt lat="44.58538" lon="5.78606">
        <ele>1047.49</ele>
        <time>2013-11-14T10:44:03Z</time>
      </trkpt>
      <trkpt lat="44.58517" lon="5.78596">
        <ele>1047.97</ele>
        <time>2013-11-14T10:44:24Z</time>
      </trkpt>
      <trkpt lat="44.58511" lon="5.78589">
        <ele>1048.45</ele>
        <time>2013-11-14T10:44:33Z</time>
      </trkpt>
      <trkpt lat="44.58495" lon="5.78572">
        <ele>1050.38</ele>
        <time>2013-11-14T10:44:55Z</time>
      </trkpt>
      <trkpt lat="44.58484" lon="5.78561">
        <ele>1052.78</ele>
        <time>2013-11-14T10:45:12Z</time>
      </trkpt>
      <trkpt lat="44.58478" lon="5.78558">
        <ele>1054.22</ele>
        <time>2013-11-14T10:45:21Z</time>
      </trkpt>
      <trkpt lat="44.58469" lon="5.78553">
        <ele>1054.7</ele>
        <time>2013-11-14T10:45:39Z</time>
      </trkpt>
      <trkpt lat="44.58465" lon="5.78541">
        <ele>1057.11</ele>
        <time>2013-11-14T10:45:55Z</time>
      </trkpt>
      <trkpt lat="44.58465" lon="5.7853">
        <ele>1059.99</ele>
        <time>2013-11-14T10:46:11Z</time>
      </trkpt>
      <trkpt lat="44.58462" lon="5.7852">
        <ele>1063.36</ele>
        <time>2013-11-14T10:46:28Z</time>
      </trkpt>
      <trkpt lat="44.58454" lon="5.78514">
        <ele>1065.28</ele>
        <time>2013-11-14T10:46:42Z</time>
      </trkpt>
      <trkpt lat="44.58443" lon="5.78508">
        <ele>1066.72</ele>
        <time>2013-11-14T10:46:55Z</time>
      </trkpt>
      <trkpt lat="44.58435" lon="5.785">
        <ele>1068.16</ele>
        <time>2013-11-14T10:47:11Z</time>
      </trkpt>
      <trkpt lat="44.5843" lon="5.7849">
        <ele>1069.6</ele>
        <time>2013-11-14T10:47:29Z</time>
      </trkpt>
      <trkpt lat="44.5842" lon="5.78473">
        <ele>1071.53</ele>
        <time>2013-11-14T10:47:46Z</time>
      </trkpt>
      <trkpt lat="44.58411" lon="5.78459">
        <ele>1074.41</ele>
        <time>2013-11-14T10:48:04Z</time>
      </trkpt>
      <trkpt lat="44.58404" lon="5.78451">
        <ele>1076.33</ele>
        <time>2013-11-14T10:48:19Z</time>
      </trkpt>
      <trkpt lat="44.58394" lon="5.78437">
        <ele>1078.74</ele>
        <time>2013-11-14T10:48:36Z</time>
      </trkpt>
      <trkpt lat="44.58385" lon="5.78424">
        <ele>1080.18</ele>
        <time>2013-11-14T10:48:52Z</time>
      </trkpt>
      <trkpt lat="44.58378" lon="5.78414">
        <ele>1080.66</ele>
        <time>2013-11-14T10:49:03Z</time>
      </trkpt>
      <trkpt lat="44.58356" lon="5.78402">
        <ele>1080.18</ele>
        <time>2013-11-14T10:49:24Z</time>
      </trkpt>
      <trkpt lat="44.58349" lon="5.78396">
        <ele>1080.66</ele>
        <time>2013-11-14T10:49:41Z</time>
      </trkpt>
      <trkpt lat="44.58341" lon="5.78393">
        <ele>1082.1</ele>
        <time>2013-11-14T10:49:55Z</time>
      </trkpt>
      <trkpt lat="44.58324" lon="5.78386">
        <ele>1083.54</ele>
        <time>2013-11-14T10:50:13Z</time>
      </trkpt>
      <trkpt lat="44.58313" lon="5.78369">
        <ele>1085.47</ele>
        <time>2013-11-14T10:50:31Z</time>
      </trkpt>
      <trkpt lat="44.583" lon="5.78358">
        <ele>1087.87</ele>
        <time>2013-11-14T10:50:47Z</time>
      </trkpt>
      <trkpt lat="44.58294" lon="5.78355">
        <ele>1087.39</ele>
        <time>2013-11-14T10:50:54Z</time>
      </trkpt>
      <trkpt lat="44.58281" lon="5.78341">
        <ele>1090.75</ele>
        <time>2013-11-14T10:51:13Z</time>
      </trkpt>
      <trkpt lat="44.5827" lon="5.78325">
        <ele>1091.71</ele>
        <time>2013-11-14T10:51:28Z</time>
      </trkpt>
      <trkpt lat="44.5826" lon="5.78311">
        <ele>1094.12</ele>
        <time>2013-11-14T10:51:45Z</time>
      </trkpt>
      <trkpt lat="44.58254" lon="5.78296">
        <ele>1097</ele>
        <time>2013-11-14T10:52:02Z</time>
      </trkpt>
      <trkpt lat="44.58252" lon="5.7828">
        <ele>1099.4</ele>
        <time>2013-11-14T10:52:17Z</time>
      </trkpt>
      <trkpt lat="44.5825" lon="5.78266">
        <ele>1102.29</ele>
        <time>2013-11-14T10:52:32Z</time>
      </trkpt>
      <trkpt lat="44.58248" lon="5.78253">
        <ele>1105.17</ele>
        <time>2013-11-14T10:52:48Z</time>
      </trkpt>
      <trkpt lat="44.58247" lon="5.78237">
        <ele>1106.13</ele>
        <time>2013-11-14T10:53:03Z</time>
      </trkpt>
      <trkpt lat="44.58245" lon="5.78223">
        <ele>1108.54</ele>
        <time>2013-11-14T10:53:21Z</time>
      </trkpt>
      <trkpt lat="44.5825" lon="5.78206">
        <ele>1111.42</ele>
        <time>2013-11-14T10:53:36Z</time>
      </trkpt>
      <trkpt lat="44.5826" lon="5.78197">
        <ele>1113.34</ele>
        <time>2013-11-14T10:53:54Z</time>
      </trkpt>
      <trkpt lat="44.58267" lon="5.7818">
        <ele>1116.23</ele>
        <time>2013-11-14T10:54:12Z</time>
      </trkpt>
      <trkpt lat="44.58271" lon="5.78168">
        <ele>1118.63</ele>
        <time>2013-11-14T10:54:29Z</time>
      </trkpt>
      <trkpt lat="44.58285" lon="5.78154">
        <ele>1121.03</ele>
        <time>2013-11-14T10:54:46Z</time>
      </trkpt>
      <trkpt lat="44.58295" lon="5.78148">
        <ele>1122.96</ele>
        <time>2013-11-14T10:55:02Z</time>
      </trkpt>
      <trkpt lat="44.58303" lon="5.78149">
        <ele>1125.84</ele>
        <time>2013-11-14T10:55:22Z</time>
      </trkpt>
      <trkpt lat="44.58311" lon="5.78144">
        <ele>1129.21</ele>
        <time>2013-11-14T10:55:41Z</time>
      </trkpt>
      <trkpt lat="44.58322" lon="5.7814">
        <ele>1131.61</ele>
        <time>2013-11-14T10:55:58Z</time>
      </trkpt>
      <trkpt lat="44.58333" lon="5.78148">
        <ele>1134.49</ele>
        <time>2013-11-14T10:56:14Z</time>
      </trkpt>
      <trkpt lat="44.58342" lon="5.78141">
        <ele>1135.94</ele>
        <time>2013-11-14T10:56:32Z</time>
      </trkpt>
      <trkpt lat="44.58341" lon="5.78151">
        <ele>1135.45</ele>
        <time>2013-11-14T10:56:48Z</time>
      </trkpt>
      <trkpt lat="44.58336" lon="5.78154">
        <ele>1135.45</ele>
        <time>2013-11-14T10:57:08Z</time>
      </trkpt>
      <trkpt lat="44.58337" lon="5.78155">
        <ele>1135.45</ele>
        <time>2013-11-14T10:57:15Z</time>
      </trkpt>
      <trkpt lat="44.58341" lon="5.78147">
        <ele>1135.94</ele>
        <time>2013-11-14T10:57:29Z</time>
      </trkpt>
      <trkpt lat="44.58341" lon="5.78147">
        <ele>1136.42</ele>
        <time>2013-11-14T10:57:51Z</time>
      </trkpt>
      <trkpt lat="44.58349" lon="5.78142">
        <ele>1138.82</ele>
        <time>2013-11-14T10:58:01Z</time>
      </trkpt>
      <trkpt lat="44.58367" lon="5.78142">
        <ele>1142.18</ele>
        <time>2013-11-14T10:58:15Z</time>
      </trkpt>
      <trkpt lat="44.58375" lon="5.78149">
        <ele>1145.07</ele>
        <time>2013-11-14T10:58:30Z</time>
      </trkpt>
      <trkpt lat="44.58387" lon="5.78152">
        <ele>1147.95</ele>
        <time>2013-11-14T10:58:46Z</time>
      </trkpt>
      <trkpt lat="44.584" lon="5.78154">
        <ele>1150.84</ele>
        <time>2013-11-14T10:59:00Z</time>
      </trkpt>
      <trkpt lat="44.58412" lon="5.78155">
        <ele>1152.28</ele>
        <time>2013-11-14T10:59:14Z</time>
      </trkpt>
      <trkpt lat="44.58424" lon="5.7816">
        <ele>1152.76</ele>
        <time>2013-11-14T10:59:30Z</time>
      </trkpt>
      <trkpt lat="44.58442" lon="5.78165">
        <ele>1155.16</ele>
        <time>2013-11-14T10:59:47Z</time>
      </trkpt>
      <trkpt lat="44.58445" lon="5.78167">
        <ele>1155.64</ele>
        <time>2013-11-14T11:00:07Z</time>
      </trkpt>
      <trkpt lat="44.58446" lon="5.78163">
        <ele>1155.64</ele>
        <time>2013-11-14T11:00:34Z</time>
      </trkpt>
      <trkpt lat="44.58449" lon="5.78151">
        <ele>1156.6</ele>
        <time>2013-11-14T11:00:50Z</time>
      </trkpt>
      <trkpt lat="44.58454" lon="5.78139">
        <ele>1158.05</ele>
        <time>2013-11-14T11:01:07Z</time>
      </trkpt>
      <trkpt lat="44.58463" lon="5.78131">
        <ele>1159.97</ele>
        <time>2013-11-14T11:01:21Z</time>
      </trkpt>
      <trkpt lat="44.58474" lon="5.78124">
        <ele>1161.89</ele>
        <time>2013-11-14T11:01:37Z</time>
      </trkpt>
      <trkpt lat="44.58489" lon="5.78126">
        <ele>1164.29</ele>
        <time>2013-11-14T11:01:55Z</time>
      </trkpt>
      <trkpt lat="44.58501" lon="5.78128">
        <ele>1166.22</ele>
        <time>2013-11-14T11:02:11Z</time>
      </trkpt>
      <trkpt lat="44.58512" lon="5.78131">
        <ele>1168.62</ele>
        <time>2013-11-14T11:02:27Z</time>
      </trkpt>
      <trkpt lat="44.5853" lon="5.78131">
        <ele>1170.06</ele>
        <time>2013-11-14T11:02:48Z</time>
      </trkpt>
      <trkpt lat="44.58541" lon="5.7812">
        <ele>1171.5</ele>
        <time>2013-11-14T11:03:07Z</time>
      </trkpt>
      <trkpt lat="44.58544" lon="5.78111">
        <ele>1173.43</ele>
        <time>2013-11-14T11:03:21Z</time>
      </trkpt>
      <trkpt lat="44.58543" lon="5.78105">
        <ele>1175.35</ele>
        <time>2013-11-14T11:03:39Z</time>
      </trkpt>
      <trkpt lat="44.58544" lon="5.78089">
        <ele>1176.79</ele>
        <time>2013-11-14T11:03:52Z</time>
      </trkpt>
      <trkpt lat="44.58551" lon="5.78069">
        <ele>1179.67</ele>
        <time>2013-11-14T11:04:10Z</time>
      </trkpt>
      <trkpt lat="44.58557" lon="5.78052">
        <ele>1182.56</ele>
        <time>2013-11-14T11:04:29Z</time>
      </trkpt>
      <trkpt lat="44.58561" lon="5.78042">
        <ele>1184</ele>
        <time>2013-11-14T11:04:39Z</time>
      </trkpt>
      <trkpt lat="44.5858" lon="5.78041">
        <ele>1185.92</ele>
        <time>2013-11-14T11:04:56Z</time>
      </trkpt>
      <trkpt lat="44.58598" lon="5.78022">
        <ele>1188.33</ele>
        <time>2013-11-14T11:05:17Z</time>
      </trkpt>
      <trkpt lat="44.58609" lon="5.78">
        <ele>1190.25</ele>
        <time>2013-11-14T11:05:37Z</time>
      </trkpt>
      <trkpt lat="44.5862" lon="5.77977">
        <ele>1192.17</ele>
        <time>2013-11-14T11:06:00Z</time>
      </trkpt>
      <trkpt lat="44.58633" lon="5.77957">
        <ele>1194.58</ele>
        <time>2013-11-14T11:06:21Z</time>
      </trkpt>
      <trkpt lat="44.58643" lon="5.77944">
        <ele>1196.5</ele>
        <time>2013-11-14T11:06:36Z</time>
      </trkpt>
      <trkpt lat="44.58653" lon="5.77922">
        <ele>1198.42</ele>
        <time>2013-11-14T11:06:57Z</time>
      </trkpt>
      <trkpt lat="44.58659" lon="5.77904">
        <ele>1199.38</ele>
        <time>2013-11-14T11:07:10Z</time>
      </trkpt>
      <trkpt lat="44.58663" lon="5.77877">
        <ele>1200.82</ele>
        <time>2013-11-14T11:07:29Z</time>
      </trkpt>
      <trkpt lat="44.58671" lon="5.77858">
        <ele>1202.27</ele>
        <time>2013-11-14T11:07:44Z</time>
      </trkpt>
      <trkpt lat="44.58688" lon="5.77845">
        <ele>1203.71</ele>
        <time>2013-11-14T11:08:02Z</time>
      </trkpt>
      <trkpt lat="44.58702" lon="5.77834">
        <ele>1205.15</ele>
        <time>2013-11-14T11:08:18Z</time>
      </trkpt>
      <trkpt lat="44.58717" lon="5.77822">
        <ele>1206.59</ele>
        <time>2013-11-14T11:08:36Z</time>
      </trkpt>
      <trkpt lat="44.58733" lon="5.77811">
        <ele>1208.51</ele>
        <time>2013-11-14T11:08:56Z</time>
      </trkpt>
      <trkpt lat="44.5875" lon="5.77802">
        <ele>1209.96</ele>
        <time>2013-11-14T11:09:13Z</time>
      </trkpt>
      <trkpt lat="44.58771" lon="5.77811">
        <ele>1212.36</ele>
        <time>2013-11-14T11:09:32Z</time>
      </trkpt>
      <trkpt lat="44.58778" lon="5.77822">
        <ele>1212.84</ele>
        <time>2013-11-14T11:09:43Z</time>
      </trkpt>
      <trkpt lat="44.58791" lon="5.77842">
        <ele>1214.76</ele>
        <time>2013-11-14T11:10:02Z</time>
      </trkpt>
      <trkpt lat="44.58795" lon="5.77845">
        <ele>1214.76</ele>
        <time>2013-11-14T11:10:06Z</time>
      </trkpt>
      <trkpt lat="44.58811" lon="5.77845">
        <ele>1216.21</ele>
        <time>2013-11-14T11:10:23Z</time>
      </trkpt>
      <trkpt lat="44.58823" lon="5.77829">
        <ele>1218.13</ele>
        <time>2013-11-14T11:10:41Z</time>
      </trkpt>
      <trkpt lat="44.58834" lon="5.77805">
        <ele>1219.57</ele>
        <time>2013-11-14T11:11:00Z</time>
      </trkpt>
      <trkpt lat="44.58838" lon="5.77788">
        <ele>1220.05</ele>
        <time>2013-11-14T11:11:12Z</time>
      </trkpt>
      <trkpt lat="44.58846" lon="5.77763">
        <ele>1220.53</ele>
        <time>2013-11-14T11:11:29Z</time>
      </trkpt>
      <trkpt lat="44.5885" lon="5.77755">
        <ele>1221.01</ele>
        <time>2013-11-14T11:11:36Z</time>
      </trkpt>
      <trkpt lat="44.58867" lon="5.77746">
        <ele>1221.97</ele>
        <time>2013-11-14T11:11:52Z</time>
      </trkpt>
      <trkpt lat="44.58884" lon="5.77751">
        <ele>1223.42</ele>
        <time>2013-11-14T11:12:06Z</time>
      </trkpt>
      <trkpt lat="44.589" lon="5.7776">
        <ele>1225.34</ele>
        <time>2013-11-14T11:12:24Z</time>
      </trkpt>
      <trkpt lat="44.58916" lon="5.77766">
        <ele>1226.78</ele>
        <time>2013-11-14T11:12:40Z</time>
      </trkpt>
      <trkpt lat="44.58932" lon="5.77771">
        <ele>1230.14</ele>
        <time>2013-11-14T11:12:57Z</time>
      </trkpt>
      <trkpt lat="44.5895" lon="5.77768">
        <ele>1230.14</ele>
        <time>2013-11-14T11:13:16Z</time>
      </trkpt>
      <trkpt lat="44.58954" lon="5.77767">
        <ele>1230.62</ele>
        <time>2013-11-14T11:13:19Z</time>
      </trkpt>
      <trkpt lat="44.58974" lon="5.77764">
        <ele>1232.55</ele>
        <time>2013-11-14T11:13:41Z</time>
      </trkpt>
      <trkpt lat="44.58991" lon="5.7776">
        <ele>1233.99</ele>
        <time>2013-11-14T11:14:00Z</time>
      </trkpt>
      <trkpt lat="44.59012" lon="5.77751">
        <ele>1235.91</ele>
        <time>2013-11-14T11:14:20Z</time>
      </trkpt>
      <trkpt lat="44.59028" lon="5.77746">
        <ele>1237.35</ele>
        <time>2013-11-14T11:14:37Z</time>
      </trkpt>
      <trkpt lat="44.59046" lon="5.77738">
        <ele>1240.72</ele>
        <time>2013-11-14T11:14:57Z</time>
      </trkpt>
      <trkpt lat="44.59065" lon="5.7773">
        <ele>1242.16</ele>
        <time>2013-11-14T11:15:16Z</time>
      </trkpt>
      <trkpt lat="44.59084" lon="5.77721">
        <ele>1243.6</ele>
        <time>2013-11-14T11:15:36Z</time>
      </trkpt>
      <trkpt lat="44.59105" lon="5.77701">
        <ele>1246.01</ele>
        <time>2013-11-14T11:16:00Z</time>
      </trkpt>
      <trkpt lat="44.59121" lon="5.77681">
        <ele>1247.93</ele>
        <time>2013-11-14T11:16:21Z</time>
      </trkpt>
      <trkpt lat="44.59133" lon="5.77668">
        <ele>1249.85</ele>
        <time>2013-11-14T11:16:39Z</time>
      </trkpt>
      <trkpt lat="44.59144" lon="5.7765">
        <ele>1250.81</ele>
        <time>2013-11-14T11:16:56Z</time>
      </trkpt>
      <trkpt lat="44.59155" lon="5.77634">
        <ele>1252.25</ele>
        <time>2013-11-14T11:17:13Z</time>
      </trkpt>
      <trkpt lat="44.59171" lon="5.77613">
        <ele>1253.7</ele>
        <time>2013-11-14T11:17:33Z</time>
      </trkpt>
      <trkpt lat="44.59182" lon="5.77598">
        <ele>1255.14</ele>
        <time>2013-11-14T11:17:47Z</time>
      </trkpt>
      <trkpt lat="44.59197" lon="5.77584">
        <ele>1255.62</ele>
        <time>2013-11-14T11:18:04Z</time>
      </trkpt>
      <trkpt lat="44.59203" lon="5.77583">
        <ele>1256.58</ele>
        <time>2013-11-14T11:18:11Z</time>
      </trkpt>
      <trkpt lat="44.59226" lon="5.77587">
        <ele>1258.5</ele>
        <time>2013-11-14T11:18:32Z</time>
      </trkpt>
      <trkpt lat="44.59241" lon="5.7758">
        <ele>1259.94</ele>
        <time>2013-11-14T11:18:49Z</time>
      </trkpt>
      <trkpt lat="44.59241" lon="5.77579">
        <ele>1259.94</ele>
        <time>2013-11-14T11:18:50Z</time>
      </trkpt>
      <trkpt lat="44.59253" lon="5.77559">
        <ele>1259.46</ele>
        <time>2013-11-14T11:19:09Z</time>
      </trkpt>
      <trkpt lat="44.59256" lon="5.77553">
        <ele>1259.46</ele>
        <time>2013-11-14T11:19:13Z</time>
      </trkpt>
      <trkpt lat="44.59263" lon="5.77533">
        <ele>1258.5</ele>
        <time>2013-11-14T11:19:32Z</time>
      </trkpt>
      <trkpt lat="44.59282" lon="5.77542">
        <ele>1258.98</ele>
        <time>2013-11-14T11:19:49Z</time>
      </trkpt>
      <trkpt lat="44.59292" lon="5.77549">
        <ele>1259.46</ele>
        <time>2013-11-14T11:20:00Z</time>
      </trkpt>
      <trkpt lat="44.59309" lon="5.77555">
        <ele>1260.91</ele>
        <time>2013-11-14T11:20:17Z</time>
      </trkpt>
      <trkpt lat="44.59327" lon="5.77572">
        <ele>1261.87</ele>
        <time>2013-11-14T11:20:34Z</time>
      </trkpt>
      <trkpt lat="44.59331" lon="5.7758">
        <ele>1261.87</ele>
        <time>2013-11-14T11:20:39Z</time>
      </trkpt>
      <trkpt lat="44.59342" lon="5.77594">
        <ele>1262.83</ele>
        <time>2013-11-14T11:20:54Z</time>
      </trkpt>
      <trkpt lat="44.59362" lon="5.77601">
        <ele>1264.75</ele>
        <time>2013-11-14T11:21:13Z</time>
      </trkpt>
      <trkpt lat="44.59379" lon="5.77617">
        <ele>1266.67</ele>
        <time>2013-11-14T11:21:32Z</time>
      </trkpt>
      <trkpt lat="44.59395" lon="5.77622">
        <ele>1267.64</ele>
        <time>2013-11-14T11:21:47Z</time>
      </trkpt>
      <trkpt lat="44.59413" lon="5.77621">
        <ele>1268.6</ele>
        <time>2013-11-14T11:22:04Z</time>
      </trkpt>
      <trkpt lat="44.59432" lon="5.77618">
        <ele>1269.56</ele>
        <time>2013-11-14T11:22:22Z</time>
      </trkpt>
      <trkpt lat="44.59446" lon="5.77616">
        <ele>1270.04</ele>
        <time>2013-11-14T11:22:36Z</time>
      </trkpt>
      <trkpt lat="44.59463" lon="5.77617">
        <ele>1271</ele>
        <time>2013-11-14T11:22:52Z</time>
      </trkpt>
      <trkpt lat="44.59483" lon="5.77614">
        <ele>1271.96</ele>
        <time>2013-11-14T11:23:10Z</time>
      </trkpt>
      <trkpt lat="44.59504" lon="5.77613">
        <ele>1272.92</ele>
        <time>2013-11-14T11:23:29Z</time>
      </trkpt>
      <trkpt lat="44.59519" lon="5.77608">
        <ele>1273.88</ele>
        <time>2013-11-14T11:23:45Z</time>
      </trkpt>
      <trkpt lat="44.59538" lon="5.77598">
        <ele>1275.33</ele>
        <time>2013-11-14T11:24:03Z</time>
      </trkpt>
      <trkpt lat="44.59557" lon="5.77589">
        <ele>1276.77</ele>
        <time>2013-11-14T11:24:22Z</time>
      </trkpt>
      <trkpt lat="44.59563" lon="5.77584">
        <ele>1277.25</ele>
        <time>2013-11-14T11:24:29Z</time>
      </trkpt>
      <trkpt lat="44.5958" lon="5.77572">
        <ele>1278.21</ele>
        <time>2013-11-14T11:24:48Z</time>
      </trkpt>
      <trkpt lat="44.59594" lon="5.77559">
        <ele>1279.65</ele>
        <time>2013-11-14T11:25:04Z</time>
      </trkpt>
      <trkpt lat="44.59615" lon="5.77543">
        <ele>1281.09</ele>
        <time>2013-11-14T11:25:26Z</time>
      </trkpt>
      <trkpt lat="44.59631" lon="5.77532">
        <ele>1282.06</ele>
        <time>2013-11-14T11:25:43Z</time>
      </trkpt>
      <trkpt lat="44.59649" lon="5.77522">
        <ele>1283.02</ele>
        <time>2013-11-14T11:26:01Z</time>
      </trkpt>
      <trkpt lat="44.59665" lon="5.77505">
        <ele>1284.94</ele>
        <time>2013-11-14T11:26:20Z</time>
      </trkpt>
      <trkpt lat="44.59668" lon="5.77502">
        <ele>1284.94</ele>
        <time>2013-11-14T11:26:24Z</time>
      </trkpt>
      <trkpt lat="44.59679" lon="5.77478">
        <ele>1286.38</ele>
        <time>2013-11-14T11:26:42Z</time>
      </trkpt>
      <trkpt lat="44.59684" lon="5.77454">
        <ele>1286.86</ele>
        <time>2013-11-14T11:26:59Z</time>
      </trkpt>
      <trkpt lat="44.5969" lon="5.77435">
        <ele>1287.34</ele>
        <time>2013-11-14T11:27:14Z</time>
      </trkpt>
      <trkpt lat="44.59692" lon="5.77412">
        <ele>1288.3</ele>
        <time>2013-11-14T11:27:30Z</time>
      </trkpt>
      <trkpt lat="44.59696" lon="5.77387">
        <ele>1289.27</ele>
        <time>2013-11-14T11:27:48Z</time>
      </trkpt>
      <trkpt lat="44.59704" lon="5.77364">
        <ele>1290.71</ele>
        <time>2013-11-14T11:28:06Z</time>
      </trkpt>
      <trkpt lat="44.59713" lon="5.77341">
        <ele>1293.11</ele>
        <time>2013-11-14T11:28:24Z</time>
      </trkpt>
      <trkpt lat="44.59716" lon="5.77322">
        <ele>1294.07</ele>
        <time>2013-11-14T11:28:39Z</time>
      </trkpt>
      <trkpt lat="44.59721" lon="5.77298">
        <ele>1295.51</ele>
        <time>2013-11-14T11:28:57Z</time>
      </trkpt>
      <trkpt lat="44.59725" lon="5.77271">
        <ele>1296.48</ele>
        <time>2013-11-14T11:29:16Z</time>
      </trkpt>
      <trkpt lat="44.59729" lon="5.77251">
        <ele>1297.44</ele>
        <time>2013-11-14T11:29:32Z</time>
      </trkpt>
      <trkpt lat="44.59749" lon="5.77242">
        <ele>1298.4</ele>
        <time>2013-11-14T11:29:51Z</time>
      </trkpt>
      <trkpt lat="44.59767" lon="5.77245">
        <ele>1299.36</ele>
        <time>2013-11-14T11:30:07Z</time>
      </trkpt>
      <trkpt lat="44.59786" lon="5.77246">
        <ele>1300.32</ele>
        <time>2013-11-14T11:30:25Z</time>
      </trkpt>
      <trkpt lat="44.59802" lon="5.77241">
        <ele>1301.76</ele>
        <time>2013-11-14T11:30:41Z</time>
      </trkpt>
      <trkpt lat="44.59819" lon="5.77235">
        <ele>1302.72</ele>
        <time>2013-11-14T11:30:58Z</time>
      </trkpt>
      <trkpt lat="44.59837" lon="5.77229">
        <ele>1303.69</ele>
        <time>2013-11-14T11:31:15Z</time>
      </trkpt>
      <trkpt lat="44.59857" lon="5.77225">
        <ele>1304.17</ele>
        <time>2013-11-14T11:31:34Z</time>
      </trkpt>
      <trkpt lat="44.59874" lon="5.77222">
        <ele>1306.09</ele>
        <time>2013-11-14T11:31:53Z</time>
      </trkpt>
      <trkpt lat="44.59893" lon="5.77222">
        <ele>1308.49</ele>
        <time>2013-11-14T11:32:11Z</time>
      </trkpt>
      <trkpt lat="44.59911" lon="5.7722">
        <ele>1308.97</ele>
        <time>2013-11-14T11:32:29Z</time>
      </trkpt>
      <trkpt lat="44.59931" lon="5.77218">
        <ele>1311.38</ele>
        <time>2013-11-14T11:32:47Z</time>
      </trkpt>
      <trkpt lat="44.59943" lon="5.77211">
        <ele>1312.82</ele>
        <time>2013-11-14T11:33:03Z</time>
      </trkpt>
      <trkpt lat="44.5996" lon="5.77194">
        <ele>1314.26</ele>
        <time>2013-11-14T11:33:23Z</time>
      </trkpt>
      <trkpt lat="44.59962" lon="5.77184">
        <ele>1314.74</ele>
        <time>2013-11-14T11:33:40Z</time>
      </trkpt>
      <trkpt lat="44.59958" lon="5.7718">
        <ele>1317.14</ele>
        <time>2013-11-14T11:33:58Z</time>
      </trkpt>
      <trkpt lat="44.59959" lon="5.77181">
        <ele>1317.62</ele>
        <time>2013-11-14T11:34:12Z</time>
      </trkpt>
      <trkpt lat="44.59958" lon="5.77176">
        <ele>1317.14</ele>
        <time>2013-11-14T11:34:24Z</time>
      </trkpt>
      <trkpt lat="44.59956" lon="5.77174">
        <ele>1318.59</ele>
        <time>2013-11-14T11:34:40Z</time>
      </trkpt>
      <trkpt lat="44.59957" lon="5.77172">
        <ele>1317.62</ele>
        <time>2013-11-14T11:35:04Z</time>
      </trkpt>
      <trkpt lat="44.59958" lon="5.77172">
        <ele>1316.18</ele>
        <time>2013-11-14T11:35:34Z</time>
      </trkpt>
      <trkpt lat="44.59962" lon="5.77177">
        <ele>1318.1</ele>
        <time>2013-11-14T11:35:54Z</time>
      </trkpt>
      <trkpt lat="44.59956" lon="5.7718">
        <ele>1318.1</ele>
        <time>2013-11-14T11:36:17Z</time>
      </trkpt>
      <trkpt lat="44.59952" lon="5.77174">
        <ele>1319.55</ele>
        <time>2013-11-14T11:36:33Z</time>
      </trkpt>
      <trkpt lat="44.59962" lon="5.77168">
        <ele>1320.99</ele>
        <time>2013-11-14T11:36:54Z</time>
      </trkpt>
      <trkpt lat="44.59963" lon="5.77152">
        <ele>1322.43</ele>
        <time>2013-11-14T11:37:11Z</time>
      </trkpt>
      <trkpt lat="44.59962" lon="5.77137">
        <ele>1325.8</ele>
        <time>2013-11-14T11:37:24Z</time>
      </trkpt>
      <trkpt lat="44.59962" lon="5.77126">
        <ele>1328.68</ele>
        <time>2013-11-14T11:37:39Z</time>
      </trkpt>
      <trkpt lat="44.59965" lon="5.77111">
        <ele>1331.08</ele>
        <time>2013-11-14T11:37:55Z</time>
      </trkpt>
      <trkpt lat="44.5997" lon="5.77099">
        <ele>1333.49</ele>
        <time>2013-11-14T11:38:12Z</time>
      </trkpt>
      <trkpt lat="44.59974" lon="5.77091">
        <ele>1336.37</ele>
        <time>2013-11-14T11:38:28Z</time>
      </trkpt>
      <trkpt lat="44.59981" lon="5.77076">
        <ele>1339.73</ele>
        <time>2013-11-14T11:38:47Z</time>
      </trkpt>
      <trkpt lat="44.59985" lon="5.7707">
        <ele>1342.62</ele>
        <time>2013-11-14T11:39:00Z</time>
      </trkpt>
      <trkpt lat="44.59992" lon="5.77059">
        <ele>1344.54</ele>
        <time>2013-11-14T11:39:17Z</time>
      </trkpt>
      <trkpt lat="44.59998" lon="5.77052">
        <ele>1347.43</ele>
        <time>2013-11-14T11:39:32Z</time>
      </trkpt>
      <trkpt lat="44.60002" lon="5.77045">
        <ele>1350.79</ele>
        <time>2013-11-14T11:39:47Z</time>
      </trkpt>
      <trkpt lat="44.6001" lon="5.77036">
        <ele>1352.71</ele>
        <time>2013-11-14T11:40:05Z</time>
      </trkpt>
      <trkpt lat="44.60019" lon="5.7703">
        <ele>1355.6</ele>
        <time>2013-11-14T11:40:22Z</time>
      </trkpt>
      <trkpt lat="44.60023" lon="5.7702">
        <ele>1358.48</ele>
        <time>2013-11-14T11:40:37Z</time>
      </trkpt>
      <trkpt lat="44.60028" lon="5.7701">
        <ele>1361.36</ele>
        <time>2013-11-14T11:40:56Z</time>
      </trkpt>
      <trkpt lat="44.60033" lon="5.77004">
        <ele>1365.21</ele>
        <time>2013-11-14T11:41:09Z</time>
      </trkpt>
      <trkpt lat="44.60042" lon="5.76997">
        <ele>1365.69</ele>
        <time>2013-11-14T11:41:25Z</time>
      </trkpt>
      <trkpt lat="44.60048" lon="5.76986">
        <ele>1369.05</ele>
        <time>2013-11-14T11:41:42Z</time>
      </trkpt>
      <trkpt lat="44.60053" lon="5.76977">
        <ele>1371.94</ele>
        <time>2013-11-14T11:41:57Z</time>
      </trkpt>
      <trkpt lat="44.60061" lon="5.76972">
        <ele>1373.86</ele>
        <time>2013-11-14T11:42:13Z</time>
      </trkpt>
      <trkpt lat="44.60066" lon="5.76963">
        <ele>1376.75</ele>
        <time>2013-11-14T11:42:31Z</time>
      </trkpt>
      <trkpt lat="44.60072" lon="5.76953">
        <ele>1380.11</ele>
        <time>2013-11-14T11:42:47Z</time>
      </trkpt>
      <trkpt lat="44.60081" lon="5.76943">
        <ele>1382.51</ele>
        <time>2013-11-14T11:43:07Z</time>
      </trkpt>
      <trkpt lat="44.60088" lon="5.76935">
        <ele>1384.44</ele>
        <time>2013-11-14T11:43:25Z</time>
      </trkpt>
      <trkpt lat="44.60092" lon="5.76925">
        <ele>1387.8</ele>
        <time>2013-11-14T11:43:40Z</time>
      </trkpt>
      <trkpt lat="44.60097" lon="5.76914">
        <ele>1391.17</ele>
        <time>2013-11-14T11:43:58Z</time>
      </trkpt>
      <trkpt lat="44.60103" lon="5.76908">
        <ele>1394.05</ele>
        <time>2013-11-14T11:44:12Z</time>
      </trkpt>
      <trkpt lat="44.60107" lon="5.76897">
        <ele>1397.41</ele>
        <time>2013-11-14T11:44:29Z</time>
      </trkpt>
      <trkpt lat="44.60113" lon="5.76891">
        <ele>1400.3</ele>
        <time>2013-11-14T11:44:46Z</time>
      </trkpt>
      <trkpt lat="44.60119" lon="5.76884">
        <ele>1402.7</ele>
        <time>2013-11-14T11:44:58Z</time>
      </trkpt>
      <trkpt lat="44.60121" lon="5.76872">
        <ele>1403.66</ele>
        <time>2013-11-14T11:45:16Z</time>
      </trkpt>
      <trkpt lat="44.60124" lon="5.76865">
        <ele>1406.55</ele>
        <time>2013-11-14T11:45:31Z</time>
      </trkpt>
      <trkpt lat="44.60127" lon="5.76859">
        <ele>1409.43</ele>
        <time>2013-11-14T11:45:41Z</time>
      </trkpt>
      <trkpt lat="44.6013" lon="5.76851">
        <ele>1410.39</ele>
        <time>2013-11-14T11:46:01Z</time>
      </trkpt>
      <trkpt lat="44.60138" lon="5.76844">
        <ele>1413.76</ele>
        <time>2013-11-14T11:46:18Z</time>
      </trkpt>
      <trkpt lat="44.60141" lon="5.76835">
        <ele>1417.12</ele>
        <time>2013-11-14T11:46:34Z</time>
      </trkpt>
      <trkpt lat="44.60147" lon="5.76825">
        <ele>1418.56</ele>
        <time>2013-11-14T11:46:51Z</time>
      </trkpt>
      <trkpt lat="44.60152" lon="5.76819">
        <ele>1420.97</ele>
        <time>2013-11-14T11:47:03Z</time>
      </trkpt>
      <trkpt lat="44.60158" lon="5.76809">
        <ele>1422.41</ele>
        <time>2013-11-14T11:47:21Z</time>
      </trkpt>
      <trkpt lat="44.60158" lon="5.76807">
        <ele>1424.33</ele>
        <time>2013-11-14T11:47:25Z</time>
      </trkpt>
      <trkpt lat="44.60161" lon="5.76798">
        <ele>1423.85</ele>
        <time>2013-11-14T11:47:38Z</time>
      </trkpt>
      <trkpt lat="44.60164" lon="5.76796">
        <ele>1425.29</ele>
        <time>2013-11-14T11:47:42Z</time>
      </trkpt>
      <trkpt lat="44.60169" lon="5.76789">
        <ele>1429.14</ele>
        <time>2013-11-14T11:47:54Z</time>
      </trkpt>
      <trkpt lat="44.60176" lon="5.76783">
        <ele>1430.58</ele>
        <time>2013-11-14T11:48:09Z</time>
      </trkpt>
      <trkpt lat="44.60184" lon="5.76773">
        <ele>1433.94</ele>
        <time>2013-11-14T11:48:28Z</time>
      </trkpt>
      <trkpt lat="44.60189" lon="5.76762">
        <ele>1436.35</ele>
        <time>2013-11-14T11:48:47Z</time>
      </trkpt>
      <trkpt lat="44.60193" lon="5.76751">
        <ele>1439.23</ele>
        <time>2013-11-14T11:49:04Z</time>
      </trkpt>
      <trkpt lat="44.60198" lon="5.76748">
        <ele>1442.6</ele>
        <time>2013-11-14T11:49:13Z</time>
      </trkpt>
      <trkpt lat="44.60208" lon="5.7674">
        <ele>1443.08</ele>
        <time>2013-11-14T11:49:30Z</time>
      </trkpt>
      <trkpt lat="44.60212" lon="5.76734">
        <ele>1445.48</ele>
        <time>2013-11-14T11:49:44Z</time>
      </trkpt>
      <trkpt lat="44.6022" lon="5.76725">
        <ele>1446.44</ele>
        <time>2013-11-14T11:50:00Z</time>
      </trkpt>
      <trkpt lat="44.60225" lon="5.76722">
        <ele>1449.32</ele>
        <time>2013-11-14T11:50:10Z</time>
      </trkpt>
      <trkpt lat="44.60235" lon="5.76716">
        <ele>1451.25</ele>
        <time>2013-11-14T11:50:32Z</time>
      </trkpt>
      <trkpt lat="44.6023" lon="5.76717">
        <ele>1453.17</ele>
        <time>2013-11-14T11:50:47Z</time>
      </trkpt>
      <trkpt lat="44.60222" lon="5.7671">
        <ele>1454.61</ele>
        <time>2013-11-14T11:51:03Z</time>
      </trkpt>
      <trkpt lat="44.60212" lon="5.7671">
        <ele>1457.02</ele>
        <time>2013-11-14T11:51:19Z</time>
      </trkpt>
      <trkpt lat="44.60203" lon="5.76705">
        <ele>1458.94</ele>
        <time>2013-11-14T11:51:36Z</time>
      </trkpt>
      <trkpt lat="44.60207" lon="5.76694">
        <ele>1458.94</ele>
        <time>2013-11-14T11:51:53Z</time>
      </trkpt>
      <trkpt lat="44.60211" lon="5.76689">
        <ele>1460.86</ele>
        <time>2013-11-14T11:51:59Z</time>
      </trkpt>
      <trkpt lat="44.60219" lon="5.76679">
        <ele>1462.78</ele>
        <time>2013-11-14T11:52:16Z</time>
      </trkpt>
      <trkpt lat="44.60225" lon="5.76668">
        <ele>1465.19</ele>
        <time>2013-11-14T11:52:34Z</time>
      </trkpt>
      <trkpt lat="44.60234" lon="5.76666">
        <ele>1468.07</ele>
        <time>2013-11-14T11:52:51Z</time>
      </trkpt>
      <trkpt lat="44.60246" lon="5.76662">
        <ele>1470.47</ele>
        <time>2013-11-14T11:53:11Z</time>
      </trkpt>
      <trkpt lat="44.60247" lon="5.76661">
        <ele>1473.84</ele>
        <time>2013-11-14T11:53:25Z</time>
      </trkpt>
      <trkpt lat="44.60241" lon="5.76656">
        <ele>1475.76</ele>
        <time>2013-11-14T11:53:40Z</time>
      </trkpt>
      <trkpt lat="44.60235" lon="5.76646">
        <ele>1477.68</ele>
        <time>2013-11-14T11:53:55Z</time>
      </trkpt>
      <trkpt lat="44.60228" lon="5.7664">
        <ele>1480.09</ele>
        <time>2013-11-14T11:54:13Z</time>
      </trkpt>
      <trkpt lat="44.60237" lon="5.76631">
        <ele>1481.53</ele>
        <time>2013-11-14T11:54:30Z</time>
      </trkpt>
      <trkpt lat="44.60251" lon="5.76625">
        <ele>1483.45</ele>
        <time>2013-11-14T11:54:48Z</time>
      </trkpt>
      <trkpt lat="44.60252" lon="5.76624">
        <ele>1484.89</ele>
        <time>2013-11-14T11:54:50Z</time>
      </trkpt>
      <trkpt lat="44.60254" lon="5.76623">
        <ele>1485.85</ele>
        <time>2013-11-14T11:54:54Z</time>
      </trkpt>
      <trkpt lat="44.60257" lon="5.76617">
        <ele>1486.82</ele>
        <time>2013-11-14T11:55:06Z</time>
      </trkpt>
      <trkpt lat="44.60268" lon="5.76616">
        <ele>1489.22</ele>
        <time>2013-11-14T11:55:21Z</time>
      </trkpt>
      <trkpt lat="44.60276" lon="5.76612">
        <ele>1490.66</ele>
        <time>2013-11-14T11:55:39Z</time>
      </trkpt>
      <trkpt lat="44.60279" lon="5.76609">
        <ele>1494.03</ele>
        <time>2013-11-14T11:55:53Z</time>
      </trkpt>
      <trkpt lat="44.60269" lon="5.76604">
        <ele>1495.95</ele>
        <time>2013-11-14T11:56:09Z</time>
      </trkpt>
      <trkpt lat="44.6026" lon="5.76597">
        <ele>1497.39</ele>
        <time>2013-11-14T11:56:26Z</time>
      </trkpt>
      <trkpt lat="44.60252" lon="5.76587">
        <ele>1498.83</ele>
        <time>2013-11-14T11:56:42Z</time>
      </trkpt>
      <trkpt lat="44.60253" lon="5.76578">
        <ele>1500.76</ele>
        <time>2013-11-14T11:56:50Z</time>
      </trkpt>
      <trkpt lat="44.60265" lon="5.76574">
        <ele>1502.2</ele>
        <time>2013-11-14T11:57:07Z</time>
      </trkpt>
      <trkpt lat="44.60273" lon="5.76573">
        <ele>1505.56</ele>
        <time>2013-11-14T11:57:22Z</time>
      </trkpt>
      <trkpt lat="44.60283" lon="5.76567">
        <ele>1507</ele>
        <time>2013-11-14T11:57:41Z</time>
      </trkpt>
      <trkpt lat="44.60272" lon="5.76567">
        <ele>1509.41</ele>
        <time>2013-11-14T11:57:54Z</time>
      </trkpt>
      <trkpt lat="44.60259" lon="5.7656">
        <ele>1510.37</ele>
        <time>2013-11-14T11:58:10Z</time>
      </trkpt>
      <trkpt lat="44.60259" lon="5.76562">
        <ele>1510.85</ele>
        <time>2013-11-14T11:58:20Z</time>
      </trkpt>
      <trkpt lat="44.60258" lon="5.76562">
        <ele>1510.37</ele>
        <time>2013-11-14T11:58:46Z</time>
      </trkpt>
      <trkpt lat="44.6026" lon="5.76564">
        <ele>1510.37</ele>
        <time>2013-11-14T11:59:12Z</time>
      </trkpt>
      <trkpt lat="44.60262" lon="5.76562">
        <ele>1511.81</ele>
        <time>2013-11-14T11:59:18Z</time>
      </trkpt>
      <trkpt lat="44.60263" lon="5.76561">
        <ele>1511.33</ele>
        <time>2013-11-14T11:59:19Z</time>
      </trkpt>
      <trkpt lat="44.60257" lon="5.76555">
        <ele>1511.33</ele>
        <time>2013-11-14T11:59:43Z</time>
      </trkpt>
      <trkpt lat="44.60258" lon="5.76558">
        <ele>1510.37</ele>
        <time>2013-11-14T12:00:01Z</time>
      </trkpt>
      <trkpt lat="44.60262" lon="5.76561">
        <ele>1511.81</ele>
        <time>2013-11-14T12:00:23Z</time>
      </trkpt>
      <trkpt lat="44.60264" lon="5.76563">
        <ele>1511.33</ele>
        <time>2013-11-14T12:00:46Z</time>
      </trkpt>
      <trkpt lat="44.60254" lon="5.7657">
        <ele>1511.81</ele>
        <time>2013-11-14T12:01:11Z</time>
      </trkpt>
      <trkpt lat="44.60256" lon="5.76556">
        <ele>1512.29</ele>
        <time>2013-11-14T12:01:35Z</time>
      </trkpt>
      <trkpt lat="44.60257" lon="5.76553">
        <ele>1514.21</ele>
        <time>2013-11-14T12:01:49Z</time>
      </trkpt>
      <trkpt lat="44.60256" lon="5.76544">
        <ele>1515.66</ele>
        <time>2013-11-14T12:02:04Z</time>
      </trkpt>
      <trkpt lat="44.60256" lon="5.76539">
        <ele>1517.58</ele>
        <time>2013-11-14T12:02:22Z</time>
      </trkpt>
      <trkpt lat="44.60257" lon="5.76539">
        <ele>1518.06</ele>
        <time>2013-11-14T12:02:40Z</time>
      </trkpt>
      <trkpt lat="44.60258" lon="5.76543">
        <ele>1517.1</ele>
        <time>2013-11-14T12:02:54Z</time>
      </trkpt>
      <trkpt lat="44.60256" lon="5.76548">
        <ele>1517.58</ele>
        <time>2013-11-14T12:03:26Z</time>
      </trkpt>
      <trkpt lat="44.60259" lon="5.7654">
        <ele>1517.58</ele>
        <time>2013-11-14T12:03:54Z</time>
      </trkpt>
      <trkpt lat="44.60257" lon="5.76545">
        <ele>1518.06</ele>
        <time>2013-11-14T12:04:20Z</time>
      </trkpt>
      <trkpt lat="44.60251" lon="5.76547">
        <ele>1518.06</ele>
        <time>2013-11-14T12:04:39Z</time>
      </trkpt>
      <trkpt lat="44.60253" lon="5.76544">
        <ele>1518.06</ele>
        <time>2013-11-14T12:05:11Z</time>
      </trkpt>
      <trkpt lat="44.60252" lon="5.76543">
        <ele>1517.58</ele>
        <time>2013-11-14T12:05:35Z</time>
      </trkpt>
      <trkpt lat="44.6025" lon="5.76546">
        <ele>1518.06</ele>
        <time>2013-11-14T12:06:03Z</time>
      </trkpt>
      <trkpt lat="44.60251" lon="5.76545">
        <ele>1518.06</ele>
        <time>2013-11-14T12:06:30Z</time>
      </trkpt>
      <trkpt lat="44.6025" lon="5.76542">
        <ele>1517.1</ele>
        <time>2013-11-14T12:06:56Z</time>
      </trkpt>
      <trkpt lat="44.60252" lon="5.76543">
        <ele>1517.58</ele>
        <time>2013-11-14T12:07:15Z</time>
      </trkpt>
      <trkpt lat="44.6025" lon="5.76543">
        <ele>1518.06</ele>
        <time>2013-11-14T12:07:35Z</time>
      </trkpt>
      <trkpt lat="44.60252" lon="5.76541">
        <ele>1518.06</ele>
        <time>2013-11-14T12:07:52Z</time>
      </trkpt>
      <trkpt lat="44.60251" lon="5.76542">
        <ele>1518.06</ele>
        <time>2013-11-14T12:08:11Z</time>
      </trkpt>
      <trkpt lat="44.60249" lon="5.76543">
        <ele>1517.1</ele>
        <time>2013-11-14T12:08:34Z</time>
      </trkpt>
      <trkpt lat="44.60255" lon="5.76542">
        <ele>1518.06</ele>
        <time>2013-11-14T12:08:52Z</time>
      </trkpt>
      <trkpt lat="44.60255" lon="5.76542">
        <ele>1518.54</ele>
        <time>2013-11-14T12:09:10Z</time>
      </trkpt>
      <trkpt lat="44.60254" lon="5.76543">
        <ele>1517.58</ele>
        <time>2013-11-14T12:09:25Z</time>
      </trkpt>
      <trkpt lat="44.60254" lon="5.76542">
        <ele>1518.54</ele>
        <time>2013-11-14T12:09:44Z</time>
      </trkpt>
      <trkpt lat="44.60254" lon="5.7654">
        <ele>1518.54</ele>
        <time>2013-11-14T12:09:56Z</time>
      </trkpt>
      <trkpt lat="44.60253" lon="5.76539">
        <ele>1518.06</ele>
        <time>2013-11-14T12:10:14Z</time>
      </trkpt>
      <trkpt lat="44.60255" lon="5.76538">
        <ele>1517.58</ele>
        <time>2013-11-14T12:10:32Z</time>
      </trkpt>
      <trkpt lat="44.60256" lon="5.7654">
        <ele>1517.1</ele>
        <time>2013-11-14T12:10:45Z</time>
      </trkpt>
      <trkpt lat="44.60256" lon="5.76542">
        <ele>1518.06</ele>
        <time>2013-11-14T12:10:58Z</time>
      </trkpt>
      <trkpt lat="44.60257" lon="5.76542">
        <ele>1517.1</ele>
        <time>2013-11-14T12:11:17Z</time>
      </trkpt>
      <trkpt lat="44.60256" lon="5.76542">
        <ele>1517.58</ele>
        <time>2013-11-14T12:11:38Z</time>
      </trkpt>
      <trkpt lat="44.60257" lon="5.76544">
        <ele>1517.58</ele>
        <time>2013-11-14T12:11:58Z</time>
      </trkpt>
      <trkpt lat="44.60256" lon="5.76542">
        <ele>1518.06</ele>
        <time>2013-11-14T12:12:21Z</time>
      </trkpt>
      <trkpt lat="44.60255" lon="5.76543">
        <ele>1517.1</ele>
        <time>2013-11-14T12:12:42Z</time>
      </trkpt>
      <trkpt lat="44.60255" lon="5.76545">
        <ele>1517.58</ele>
        <time>2013-11-14T12:13:09Z</time>
      </trkpt>
      <trkpt lat="44.60254" lon="5.76545">
        <ele>1516.14</ele>
        <time>2013-11-14T12:13:32Z</time>
      </trkpt>
      <trkpt lat="44.60252" lon="5.76545">
        <ele>1516.14</ele>
        <time>2013-11-14T12:13:58Z</time>
      </trkpt>
      <trkpt lat="44.60253" lon="5.76547">
        <ele>1517.1</ele>
        <time>2013-11-14T12:14:19Z</time>
      </trkpt>
      <trkpt lat="44.60252" lon="5.76546">
        <ele>1516.62</ele>
        <time>2013-11-14T12:14:42Z</time>
      </trkpt>
      <trkpt lat="44.60253" lon="5.76545">
        <ele>1516.62</ele>
        <time>2013-11-14T12:15:01Z</time>
      </trkpt>
      <trkpt lat="44.60252" lon="5.76545">
        <ele>1518.06</ele>
        <time>2013-11-14T12:15:25Z</time>
      </trkpt>
      <trkpt lat="44.60252" lon="5.76542">
        <ele>1518.06</ele>
        <time>2013-11-14T12:15:55Z</time>
      </trkpt>
      <trkpt lat="44.60249" lon="5.76542">
        <ele>1518.06</ele>
        <time>2013-11-14T12:16:17Z</time>
      </trkpt>
      <trkpt lat="44.60252" lon="5.76543">
        <ele>1517.58</ele>
        <time>2013-11-14T12:16:38Z</time>
      </trkpt>
      <trkpt lat="44.60254" lon="5.76543">
        <ele>1517.1</ele>
        <time>2013-11-14T12:17:02Z</time>
      </trkpt>
      <trkpt lat="44.60254" lon="5.76542">
        <ele>1517.58</ele>
        <time>2013-11-14T12:17:20Z</time>
      </trkpt>
      <trkpt lat="44.60258" lon="5.76541">
        <ele>1516.62</ele>
        <time>2013-11-14T12:17:44Z</time>
      </trkpt>
      <trkpt lat="44.60257" lon="5.76542">
        <ele>1516.62</ele>
        <time>2013-11-14T12:18:14Z</time>
      </trkpt>
      <trkpt lat="44.60255" lon="5.76541">
        <ele>1516.14</ele>
        <time>2013-11-14T12:18:45Z</time>
      </trkpt>
      <trkpt lat="44.60257" lon="5.7654">
        <ele>1517.1</ele>
        <time>2013-11-14T12:19:15Z</time>
      </trkpt>
      <trkpt lat="44.60255" lon="5.76538">
        <ele>1518.06</ele>
        <time>2013-11-14T12:19:40Z</time>
      </trkpt>
      <trkpt lat="44.60253" lon="5.76536">
        <ele>1518.54</ele>
        <time>2013-11-14T12:20:02Z</time>
      </trkpt>
      <trkpt lat="44.60253" lon="5.76536">
        <ele>1517.1</ele>
        <time>2013-11-14T12:20:29Z</time>
      </trkpt>
      <trkpt lat="44.60255" lon="5.76538">
        <ele>1517.1</ele>
        <time>2013-11-14T12:20:56Z</time>
      </trkpt>
      <trkpt lat="44.60255" lon="5.7654">
        <ele>1517.1</ele>
        <time>2013-11-14T12:21:23Z</time>
      </trkpt>
      <trkpt lat="44.60257" lon="5.76543">
        <ele>1516.62</ele>
        <time>2013-11-14T12:21:53Z</time>
      </trkpt>
      <trkpt lat="44.60255" lon="5.76542">
        <ele>1517.1</ele>
        <time>2013-11-14T12:22:23Z</time>
      </trkpt>
      <trkpt lat="44.60255" lon="5.76543">
        <ele>1516.62</ele>
        <time>2013-11-14T12:22:57Z</time>
      </trkpt>
      <trkpt lat="44.60254" lon="5.76544">
        <ele>1517.58</ele>
        <time>2013-11-14T12:23:34Z</time>
      </trkpt>
      <trkpt lat="44.60252" lon="5.76542">
        <ele>1517.58</ele>
        <time>2013-11-14T12:23:57Z</time>
      </trkpt>
      <trkpt lat="44.60253" lon="5.76542">
        <ele>1517.1</ele>
        <time>2013-11-14T12:24:28Z</time>
      </trkpt>
      <trkpt lat="44.60253" lon="5.76544">
        <ele>1516.62</ele>
        <time>2013-11-14T12:24:43Z</time>
      </trkpt>
      <trkpt lat="44.60253" lon="5.76542">
        <ele>1518.06</ele>
        <time>2013-11-14T12:25:03Z</time>
      </trkpt>
      <trkpt lat="44.60252" lon="5.76541">
        <ele>1517.58</ele>
        <time>2013-11-14T12:25:33Z</time>
      </trkpt>
      <trkpt lat="44.60253" lon="5.76543">
        <ele>1518.54</ele>
        <time>2013-11-14T12:25:54Z</time>
      </trkpt>
      <trkpt lat="44.60253" lon="5.76544">
        <ele>1518.54</ele>
        <time>2013-11-14T12:26:19Z</time>
      </trkpt>
      <trkpt lat="44.60254" lon="5.76541">
        <ele>1519.02</ele>
        <time>2013-11-14T12:26:38Z</time>
      </trkpt>
      <trkpt lat="44.60256" lon="5.76541">
        <ele>1518.54</ele>
        <time>2013-11-14T12:27:07Z</time>
      </trkpt>
      <trkpt lat="44.60256" lon="5.76543">
        <ele>1518.54</ele>
        <time>2013-11-14T12:27:46Z</time>
      </trkpt>
      <trkpt lat="44.60257" lon="5.76543">
        <ele>1519.02</ele>
        <time>2013-11-14T12:28:17Z</time>
      </trkpt>
      <trkpt lat="44.60256" lon="5.76542">
        <ele>1517.58</ele>
        <time>2013-11-14T12:28:44Z</time>
      </trkpt>
      <trkpt lat="44.60256" lon="5.76542">
        <ele>1518.06</ele>
        <time>2013-11-14T12:29:22Z</time>
      </trkpt>
      <trkpt lat="44.60256" lon="5.76542">
        <ele>1519.5</ele>
        <time>2013-11-14T12:29:59Z</time>
      </trkpt>
      <trkpt lat="44.60256" lon="5.76542">
        <ele>1519.02</ele>
        <time>2013-11-14T12:30:39Z</time>
      </trkpt>
      <trkpt lat="44.60256" lon="5.76543">
        <ele>1517.58</ele>
        <time>2013-11-14T12:31:13Z</time>
      </trkpt>
      <trkpt lat="44.60255" lon="5.76543">
        <ele>1516.62</ele>
        <time>2013-11-14T12:31:46Z</time>
      </trkpt>
      <trkpt lat="44.60256" lon="5.76542">
        <ele>1518.06</ele>
        <time>2013-11-14T12:32:26Z</time>
      </trkpt>
      <trkpt lat="44.60256" lon="5.76545">
        <ele>1519.02</ele>
        <time>2013-11-14T12:33:11Z</time>
      </trkpt>
      <trkpt lat="44.60255" lon="5.76543">
        <ele>1518.06</ele>
        <time>2013-11-14T12:33:47Z</time>
      </trkpt>
      <trkpt lat="44.60256" lon="5.76543">
        <ele>1517.1</ele>
        <time>2013-11-14T12:34:20Z</time>
      </trkpt>
      <trkpt lat="44.60256" lon="5.76541">
        <ele>1518.54</ele>
        <time>2013-11-14T12:35:05Z</time>
      </trkpt>
      <trkpt lat="44.60256" lon="5.76541">
        <ele>1518.06</ele>
        <time>2013-11-14T12:35:46Z</time>
      </trkpt>
      <trkpt lat="44.60256" lon="5.76541">
        <ele>1518.06</ele>
        <time>2013-11-14T12:36:22Z</time>
      </trkpt>
      <trkpt lat="44.60256" lon="5.76541">
        <ele>1516.62</ele>
        <time>2013-11-14T12:36:57Z</time>
      </trkpt>
      <trkpt lat="44.60257" lon="5.76538">
        <ele>1518.06</ele>
        <time>2013-11-14T12:37:35Z</time>
      </trkpt>
      <trkpt lat="44.60257" lon="5.76543">
        <ele>1515.66</ele>
        <time>2013-11-14T12:38:10Z</time>
      </trkpt>
      <trkpt lat="44.60257" lon="5.76539">
        <ele>1516.14</ele>
        <time>2013-11-14T12:38:41Z</time>
      </trkpt>
      <trkpt lat="44.60257" lon="5.76542">
        <ele>1515.18</ele>
        <time>2013-11-14T12:39:20Z</time>
      </trkpt>
      <trkpt lat="44.60257" lon="5.76546">
        <ele>1517.1</ele>
        <time>2013-11-14T12:39:51Z</time>
      </trkpt>
      <trkpt lat="44.6026" lon="5.76543">
        <ele>1518.06</ele>
        <time>2013-11-14T12:40:25Z</time>
      </trkpt>
      <trkpt lat="44.60259" lon="5.76541">
        <ele>1519.02</ele>
        <time>2013-11-14T12:40:56Z</time>
      </trkpt>
      <trkpt lat="44.60258" lon="5.76542">
        <ele>1517.58</ele>
        <time>2013-11-14T12:41:23Z</time>
      </trkpt>
      <trkpt lat="44.60256" lon="5.76539">
        <ele>1518.54</ele>
        <time>2013-11-14T12:41:59Z</time>
      </trkpt>
      <trkpt lat="44.60256" lon="5.76537">
        <ele>1518.06</ele>
        <time>2013-11-14T12:42:31Z</time>
      </trkpt>
      <trkpt lat="44.60259" lon="5.7654">
        <ele>1518.06</ele>
        <time>2013-11-14T12:42:46Z</time>
      </trkpt>
      <trkpt lat="44.60259" lon="5.76538">
        <ele>1518.06</ele>
        <time>2013-11-14T12:43:06Z</time>
      </trkpt>
      <trkpt lat="44.60254" lon="5.76539">
        <ele>1517.1</ele>
        <time>2013-11-14T12:43:21Z</time>
      </trkpt>
      <trkpt lat="44.60252" lon="5.76544">
        <ele>1518.54</ele>
        <time>2013-11-14T12:43:48Z</time>
      </trkpt>
      <trkpt lat="44.60255" lon="5.76547">
        <ele>1519.02</ele>
        <time>2013-11-14T12:44:08Z</time>
      </trkpt>
      <trkpt lat="44.60256" lon="5.7654">
        <ele>1518.54</ele>
        <time>2013-11-14T12:44:30Z</time>
      </trkpt>
      <trkpt lat="44.60254" lon="5.76541">
        <ele>1518.06</ele>
        <time>2013-11-14T12:44:58Z</time>
      </trkpt>
      <trkpt lat="44.60255" lon="5.76545">
        <ele>1518.54</ele>
        <time>2013-11-14T12:45:20Z</time>
      </trkpt>
      <trkpt lat="44.60254" lon="5.76545">
        <ele>1519.02</ele>
        <time>2013-11-14T12:45:41Z</time>
      </trkpt>
      <trkpt lat="44.60249" lon="5.76542">
        <ele>1519.98</ele>
        <time>2013-11-14T12:46:01Z</time>
      </trkpt>
      <trkpt lat="44.60246" lon="5.76542">
        <ele>1519.5</ele>
        <time>2013-11-14T12:46:21Z</time>
      </trkpt>
      <trkpt lat="44.60235" lon="5.76541">
        <ele>1518.54</ele>
        <time>2013-11-14T12:46:36Z</time>
      </trkpt>
      <trkpt lat="44.60232" lon="5.76543">
        <ele>1516.14</ele>
        <time>2013-11-14T12:46:52Z</time>
      </trkpt>
      <trkpt lat="44.60222" lon="5.76537">
        <ele>1517.1</ele>
        <time>2013-11-14T12:47:06Z</time>
      </trkpt>
      <trkpt lat="44.6021" lon="5.76529">
        <ele>1519.02</ele>
        <time>2013-11-14T12:47:24Z</time>
      </trkpt>
      <trkpt lat="44.60203" lon="5.76524">
        <ele>1522.39</ele>
        <time>2013-11-14T12:47:42Z</time>
      </trkpt>
      <trkpt lat="44.60193" lon="5.76517">
        <ele>1523.83</ele>
        <time>2013-11-14T12:48:00Z</time>
      </trkpt>
      <trkpt lat="44.60191" lon="5.76511">
        <ele>1525.75</ele>
        <time>2013-11-14T12:48:15Z</time>
      </trkpt>
      <trkpt lat="44.6019" lon="5.76503">
        <ele>1528.63</ele>
        <time>2013-11-14T12:48:34Z</time>
      </trkpt>
      <trkpt lat="44.60194" lon="5.76492">
        <ele>1531.04</ele>
        <time>2013-11-14T12:48:50Z</time>
      </trkpt>
      <trkpt lat="44.60211" lon="5.76489">
        <ele>1532.48</ele>
        <time>2013-11-14T12:49:11Z</time>
      </trkpt>
      <trkpt lat="44.60223" lon="5.76484">
        <ele>1535.36</ele>
        <time>2013-11-14T12:49:31Z</time>
      </trkpt>
      <trkpt lat="44.60231" lon="5.76483">
        <ele>1537.77</ele>
        <time>2013-11-14T12:49:48Z</time>
      </trkpt>
      <trkpt lat="44.60238" lon="5.76484">
        <ele>1540.17</ele>
        <time>2013-11-14T12:50:07Z</time>
      </trkpt>
      <trkpt lat="44.60228" lon="5.76477">
        <ele>1543.05</ele>
        <time>2013-11-14T12:50:24Z</time>
      </trkpt>
      <trkpt lat="44.60237" lon="5.76467">
        <ele>1544.98</ele>
        <time>2013-11-14T12:50:40Z</time>
      </trkpt>
      <trkpt lat="44.60249" lon="5.76462">
        <ele>1547.38</ele>
        <time>2013-11-14T12:51:00Z</time>
      </trkpt>
      <trkpt lat="44.60239" lon="5.7646">
        <ele>1549.3</ele>
        <time>2013-11-14T12:51:16Z</time>
      </trkpt>
      <trkpt lat="44.60231" lon="5.76454">
        <ele>1552.19</ele>
        <time>2013-11-14T12:51:30Z</time>
      </trkpt>
      <trkpt lat="44.60221" lon="5.76448">
        <ele>1553.63</ele>
        <time>2013-11-14T12:51:45Z</time>
      </trkpt>
      <trkpt lat="44.60207" lon="5.76443">
        <ele>1554.11</ele>
        <time>2013-11-14T12:52:00Z</time>
      </trkpt>
      <trkpt lat="44.60196" lon="5.76434">
        <ele>1555.55</ele>
        <time>2013-11-14T12:52:15Z</time>
      </trkpt>
      <trkpt lat="44.60192" lon="5.76426">
        <ele>1556.99</ele>
        <time>2013-11-14T12:52:29Z</time>
      </trkpt>
      <trkpt lat="44.60183" lon="5.7642">
        <ele>1556.51</ele>
        <time>2013-11-14T12:52:43Z</time>
      </trkpt>
      <trkpt lat="44.60169" lon="5.76414">
        <ele>1558.43</ele>
        <time>2013-11-14T12:53:02Z</time>
      </trkpt>
      <trkpt lat="44.60155" lon="5.76411">
        <ele>1559.88</ele>
        <time>2013-11-14T12:53:19Z</time>
      </trkpt>
      <trkpt lat="44.60145" lon="5.76416">
        <ele>1560.84</ele>
        <time>2013-11-14T12:53:33Z</time>
      </trkpt>
      <trkpt lat="44.60147" lon="5.76406">
        <ele>1562.28</ele>
        <time>2013-11-14T12:53:47Z</time>
      </trkpt>
      <trkpt lat="44.6015" lon="5.76396">
        <ele>1563.72</ele>
        <time>2013-11-14T12:54:00Z</time>
      </trkpt>
      <trkpt lat="44.60146" lon="5.76396">
        <ele>1564.68</ele>
        <time>2013-11-14T12:54:06Z</time>
      </trkpt>
      <trkpt lat="44.60141" lon="5.76391">
        <ele>1566.12</ele>
        <time>2013-11-14T12:54:17Z</time>
      </trkpt>
      <trkpt lat="44.60139" lon="5.76382">
        <ele>1567.57</ele>
        <time>2013-11-14T12:54:31Z</time>
      </trkpt>
      <trkpt lat="44.60137" lon="5.7638">
        <ele>1569.01</ele>
        <time>2013-11-14T12:54:47Z</time>
      </trkpt>
      <trkpt lat="44.60137" lon="5.76379">
        <ele>1568.05</ele>
        <time>2013-11-14T12:55:02Z</time>
      </trkpt>
      <trkpt lat="44.60137" lon="5.76378">
        <ele>1567.57</ele>
        <time>2013-11-14T12:55:20Z</time>
      </trkpt>
      <trkpt lat="44.60139" lon="5.76381">
        <ele>1567.57</ele>
        <time>2013-11-14T12:55:35Z</time>
      </trkpt>
      <trkpt lat="44.60138" lon="5.76381">
        <ele>1567.09</ele>
        <time>2013-11-14T12:55:50Z</time>
      </trkpt>
      <trkpt lat="44.60135" lon="5.7638">
        <ele>1568.05</ele>
        <time>2013-11-14T12:56:09Z</time>
      </trkpt>
      <trkpt lat="44.60133" lon="5.76379">
        <ele>1567.57</ele>
        <time>2013-11-14T12:56:29Z</time>
      </trkpt>
      <trkpt lat="44.60134" lon="5.76378">
        <ele>1567.57</ele>
        <time>2013-11-14T12:56:46Z</time>
      </trkpt>
      <trkpt lat="44.60135" lon="5.76379">
        <ele>1567.57</ele>
        <time>2013-11-14T12:57:02Z</time>
      </trkpt>
      <trkpt lat="44.60135" lon="5.76378">
        <ele>1567.57</ele>
        <time>2013-11-14T12:57:23Z</time>
      </trkpt>
      <trkpt lat="44.60137" lon="5.76379">
        <ele>1568.05</ele>
        <time>2013-11-14T12:57:41Z</time>
      </trkpt>
      <trkpt lat="44.60135" lon="5.76381">
        <ele>1566.12</ele>
        <time>2013-11-14T12:58:02Z</time>
      </trkpt>
      <trkpt lat="44.60135" lon="5.7638">
        <ele>1567.09</ele>
        <time>2013-11-14T12:58:21Z</time>
      </trkpt>
      <trkpt lat="44.60136" lon="5.76378">
        <ele>1568.05</ele>
        <time>2013-11-14T12:58:47Z</time>
      </trkpt>
      <trkpt lat="44.60135" lon="5.76378">
        <ele>1568.53</ele>
        <time>2013-11-14T12:59:17Z</time>
      </trkpt>
      <trkpt lat="44.60135" lon="5.76379">
        <ele>1568.05</ele>
        <time>2013-11-14T12:59:37Z</time>
      </trkpt>
      <trkpt lat="44.60134" lon="5.76379">
        <ele>1568.05</ele>
        <time>2013-11-14T13:00:09Z</time>
      </trkpt>
      <trkpt lat="44.60134" lon="5.76384">
        <ele>1566.61</ele>
        <time>2013-11-14T13:00:34Z</time>
      </trkpt>
      <trkpt lat="44.60134" lon="5.76396">
        <ele>1564.68</ele>
        <time>2013-11-14T13:00:55Z</time>
      </trkpt>
      <trkpt lat="44.60134" lon="5.76398">
        <ele>1566.12</ele>
        <time>2013-11-14T13:00:58Z</time>
      </trkpt>
      <trkpt lat="44.60132" lon="5.76404">
        <ele>1565.16</ele>
        <time>2013-11-14T13:01:02Z</time>
      </trkpt>
      <trkpt lat="44.60122" lon="5.76428">
        <ele>1563.72</ele>
        <time>2013-11-14T13:01:20Z</time>
      </trkpt>
      <trkpt lat="44.60113" lon="5.76448">
        <ele>1562.76</ele>
        <time>2013-11-14T13:01:38Z</time>
      </trkpt>
      <trkpt lat="44.60108" lon="5.76469">
        <ele>1559.88</ele>
        <time>2013-11-14T13:01:56Z</time>
      </trkpt>
      <trkpt lat="44.60104" lon="5.76477">
        <ele>1559.4</ele>
        <time>2013-11-14T13:02:03Z</time>
      </trkpt>
      <trkpt lat="44.60096" lon="5.76486">
        <ele>1557.47</ele>
        <time>2013-11-14T13:02:20Z</time>
      </trkpt>
      <trkpt lat="44.6009" lon="5.76491">
        <ele>1555.55</ele>
        <time>2013-11-14T13:02:36Z</time>
      </trkpt>
      <trkpt lat="44.60088" lon="5.76494">
        <ele>1554.11</ele>
        <time>2013-11-14T13:02:50Z</time>
      </trkpt>
      <trkpt lat="44.60084" lon="5.76498">
        <ele>1552.19</ele>
        <time>2013-11-14T13:03:04Z</time>
      </trkpt>
      <trkpt lat="44.60075" lon="5.76503">
        <ele>1549.3</ele>
        <time>2013-11-14T13:03:18Z</time>
      </trkpt>
      <trkpt lat="44.60069" lon="5.76509">
        <ele>1547.86</ele>
        <time>2013-11-14T13:03:31Z</time>
      </trkpt>
      <trkpt lat="44.60058" lon="5.76513">
        <ele>1545.46</ele>
        <time>2013-11-14T13:03:46Z</time>
      </trkpt>
      <trkpt lat="44.60052" lon="5.76519">
        <ele>1542.09</ele>
        <time>2013-11-14T13:03:58Z</time>
      </trkpt>
      <trkpt lat="44.6004" lon="5.76528">
        <ele>1538.73</ele>
        <time>2013-11-14T13:04:13Z</time>
      </trkpt>
      <trkpt lat="44.60029" lon="5.76538">
        <ele>1535.84</ele>
        <time>2013-11-14T13:04:26Z</time>
      </trkpt>
      <trkpt lat="44.60017" lon="5.76554">
        <ele>1532.48</ele>
        <time>2013-11-14T13:04:40Z</time>
      </trkpt>
      <trkpt lat="44.60008" lon="5.76557">
        <ele>1529.59</ele>
        <time>2013-11-14T13:04:52Z</time>
      </trkpt>
      <trkpt lat="44.59997" lon="5.7657">
        <ele>1527.67</ele>
        <time>2013-11-14T13:05:09Z</time>
      </trkpt>
      <trkpt lat="44.59987" lon="5.76579">
        <ele>1525.27</ele>
        <time>2013-11-14T13:05:24Z</time>
      </trkpt>
      <trkpt lat="44.59986" lon="5.7658">
        <ele>1525.27</ele>
        <time>2013-11-14T13:05:25Z</time>
      </trkpt>
      <trkpt lat="44.59971" lon="5.76593">
        <ele>1521.9</ele>
        <time>2013-11-14T13:05:44Z</time>
      </trkpt>
      <trkpt lat="44.59956" lon="5.766">
        <ele>1519.5</ele>
        <time>2013-11-14T13:06:00Z</time>
      </trkpt>
      <trkpt lat="44.59941" lon="5.76609">
        <ele>1516.62</ele>
        <time>2013-11-14T13:06:18Z</time>
      </trkpt>
      <trkpt lat="44.5993" lon="5.7661">
        <ele>1513.73</ele>
        <time>2013-11-14T13:06:30Z</time>
      </trkpt>
      <trkpt lat="44.59916" lon="5.76618">
        <ele>1510.85</ele>
        <time>2013-11-14T13:06:47Z</time>
      </trkpt>
      <trkpt lat="44.59898" lon="5.76618">
        <ele>1507.48</ele>
        <time>2013-11-14T13:07:05Z</time>
      </trkpt>
      <trkpt lat="44.59888" lon="5.76614">
        <ele>1504.12</ele>
        <time>2013-11-14T13:07:16Z</time>
      </trkpt>
      <trkpt lat="44.59874" lon="5.7661">
        <ele>1501.72</ele>
        <time>2013-11-14T13:07:32Z</time>
      </trkpt>
      <trkpt lat="44.59874" lon="5.76602">
        <ele>1498.83</ele>
        <time>2013-11-14T13:07:43Z</time>
      </trkpt>
      <trkpt lat="44.59882" lon="5.76586">
        <ele>1495.47</ele>
        <time>2013-11-14T13:07:58Z</time>
      </trkpt>
      <trkpt lat="44.59887" lon="5.76567">
        <ele>1492.1</ele>
        <time>2013-11-14T13:08:14Z</time>
      </trkpt>
      <trkpt lat="44.59874" lon="5.76568">
        <ele>1489.7</ele>
        <time>2013-11-14T13:08:30Z</time>
      </trkpt>
      <trkpt lat="44.59858" lon="5.7657">
        <ele>1487.3</ele>
        <time>2013-11-14T13:08:46Z</time>
      </trkpt>
      <trkpt lat="44.59854" lon="5.76571">
        <ele>1486.34</ele>
        <time>2013-11-14T13:08:50Z</time>
      </trkpt>
      <trkpt lat="44.59841" lon="5.76569">
        <ele>1482.97</ele>
        <time>2013-11-14T13:09:04Z</time>
      </trkpt>
      <trkpt lat="44.59831" lon="5.76567">
        <ele>1480.09</ele>
        <time>2013-11-14T13:09:16Z</time>
      </trkpt>
      <trkpt lat="44.59821" lon="5.76564">
        <ele>1477.2</ele>
        <time>2013-11-14T13:09:29Z</time>
      </trkpt>
      <trkpt lat="44.59822" lon="5.76554">
        <ele>1473.84</ele>
        <time>2013-11-14T13:09:41Z</time>
      </trkpt>
      <trkpt lat="44.59826" lon="5.76544">
        <ele>1470.47</ele>
        <time>2013-11-14T13:09:52Z</time>
      </trkpt>
      <trkpt lat="44.59831" lon="5.76532">
        <ele>1467.59</ele>
        <time>2013-11-14T13:10:03Z</time>
      </trkpt>
      <trkpt lat="44.59837" lon="5.76515">
        <ele>1464.23</ele>
        <time>2013-11-14T13:10:18Z</time>
      </trkpt>
      <trkpt lat="44.59842" lon="5.76503">
        <ele>1462.3</ele>
        <time>2013-11-14T13:10:30Z</time>
      </trkpt>
      <trkpt lat="44.59848" lon="5.76487">
        <ele>1458.46</ele>
        <time>2013-11-14T13:10:44Z</time>
      </trkpt>
      <trkpt lat="44.59852" lon="5.76474">
        <ele>1455.09</ele>
        <time>2013-11-14T13:10:55Z</time>
      </trkpt>
      <trkpt lat="44.59855" lon="5.76458">
        <ele>1453.17</ele>
        <time>2013-11-14T13:11:07Z</time>
      </trkpt>
      <trkpt lat="44.59864" lon="5.76442">
        <ele>1450.77</ele>
        <time>2013-11-14T13:11:23Z</time>
      </trkpt>
      <trkpt lat="44.59872" lon="5.76419">
        <ele>1447.4</ele>
        <time>2013-11-14T13:11:39Z</time>
      </trkpt>
      <trkpt lat="44.59878" lon="5.76397">
        <ele>1444.04</ele>
        <time>2013-11-14T13:11:55Z</time>
      </trkpt>
      <trkpt lat="44.59883" lon="5.7638">
        <ele>1440.67</ele>
        <time>2013-11-14T13:12:08Z</time>
      </trkpt>
      <trkpt lat="44.59887" lon="5.76359">
        <ele>1437.79</ele>
        <time>2013-11-14T13:12:24Z</time>
      </trkpt>
      <trkpt lat="44.59888" lon="5.7634">
        <ele>1435.39</ele>
        <time>2013-11-14T13:12:39Z</time>
      </trkpt>
      <trkpt lat="44.59882" lon="5.76326">
        <ele>1432.5</ele>
        <time>2013-11-14T13:12:52Z</time>
      </trkpt>
      <trkpt lat="44.59873" lon="5.76312">
        <ele>1429.14</ele>
        <time>2013-11-14T13:13:08Z</time>
      </trkpt>
      <trkpt lat="44.59862" lon="5.76306">
        <ele>1426.73</ele>
        <time>2013-11-14T13:13:23Z</time>
      </trkpt>
      <trkpt lat="44.59849" lon="5.76307">
        <ele>1423.37</ele>
        <time>2013-11-14T13:13:40Z</time>
      </trkpt>
      <trkpt lat="44.59837" lon="5.76301">
        <ele>1420.49</ele>
        <time>2013-11-14T13:13:54Z</time>
      </trkpt>
      <trkpt lat="44.59827" lon="5.76295">
        <ele>1417.12</ele>
        <time>2013-11-14T13:14:05Z</time>
      </trkpt>
      <trkpt lat="44.59817" lon="5.7629">
        <ele>1414.24</ele>
        <time>2013-11-14T13:14:18Z</time>
      </trkpt>
      <trkpt lat="44.59805" lon="5.7628">
        <ele>1410.87</ele>
        <time>2013-11-14T13:14:35Z</time>
      </trkpt>
      <trkpt lat="44.59794" lon="5.76272">
        <ele>1407.99</ele>
        <time>2013-11-14T13:14:51Z</time>
      </trkpt>
      <trkpt lat="44.59781" lon="5.76256">
        <ele>1405.1</ele>
        <time>2013-11-14T13:15:07Z</time>
      </trkpt>
      <trkpt lat="44.5977" lon="5.76246">
        <ele>1401.74</ele>
        <time>2013-11-14T13:15:24Z</time>
      </trkpt>
      <trkpt lat="44.59757" lon="5.76239">
        <ele>1398.37</ele>
        <time>2013-11-14T13:15:42Z</time>
      </trkpt>
      <trkpt lat="44.59746" lon="5.76234">
        <ele>1395.01</ele>
        <time>2013-11-14T13:15:56Z</time>
      </trkpt>
      <trkpt lat="44.59738" lon="5.76229">
        <ele>1392.13</ele>
        <time>2013-11-14T13:16:06Z</time>
      </trkpt>
      <trkpt lat="44.59732" lon="5.76224">
        <ele>1388.76</ele>
        <time>2013-11-14T13:16:20Z</time>
      </trkpt>
      <trkpt lat="44.5973" lon="5.76225">
        <ele>1386.84</ele>
        <time>2013-11-14T13:16:32Z</time>
      </trkpt>
      <trkpt lat="44.5973" lon="5.76225">
        <ele>1388.28</ele>
        <time>2013-11-14T13:16:39Z</time>
      </trkpt>
      <trkpt lat="44.59729" lon="5.76225">
        <ele>1388.28</ele>
        <time>2013-11-14T13:17:05Z</time>
      </trkpt>
      <trkpt lat="44.5973" lon="5.76224">
        <ele>1389.24</ele>
        <time>2013-11-14T13:17:22Z</time>
      </trkpt>
      <trkpt lat="44.59731" lon="5.76223">
        <ele>1389.24</ele>
        <time>2013-11-14T13:17:38Z</time>
      </trkpt>
      <trkpt lat="44.59717" lon="5.76217">
        <ele>1385.88</ele>
        <time>2013-11-14T13:17:55Z</time>
      </trkpt>
      <trkpt lat="44.59708" lon="5.76213">
        <ele>1382.51</ele>
        <time>2013-11-14T13:18:06Z</time>
      </trkpt>
      <trkpt lat="44.59701" lon="5.76207">
        <ele>1380.59</ele>
        <time>2013-11-14T13:18:13Z</time>
      </trkpt>
      <trkpt lat="44.59691" lon="5.76196">
        <ele>1376.75</ele>
        <time>2013-11-14T13:18:25Z</time>
      </trkpt>
      <trkpt lat="44.5968" lon="5.76184">
        <ele>1374.34</ele>
        <time>2013-11-14T13:18:39Z</time>
      </trkpt>
      <trkpt lat="44.59668" lon="5.76172">
        <ele>1370.98</ele>
        <time>2013-11-14T13:18:52Z</time>
      </trkpt>
      <trkpt lat="44.59658" lon="5.76166">
        <ele>1367.61</ele>
        <time>2013-11-14T13:19:06Z</time>
      </trkpt>
      <trkpt lat="44.59647" lon="5.76157">
        <ele>1364.73</ele>
        <time>2013-11-14T13:19:19Z</time>
      </trkpt>
      <trkpt lat="44.59638" lon="5.76154">
        <ele>1361.36</ele>
        <time>2013-11-14T13:19:32Z</time>
      </trkpt>
      <trkpt lat="44.5963" lon="5.76148">
        <ele>1358.48</ele>
        <time>2013-11-14T13:19:40Z</time>
      </trkpt>
      <trkpt lat="44.59618" lon="5.76137">
        <ele>1356.56</ele>
        <time>2013-11-14T13:19:54Z</time>
      </trkpt>
      <trkpt lat="44.59608" lon="5.76128">
        <ele>1353.19</ele>
        <time>2013-11-14T13:20:07Z</time>
      </trkpt>
      <trkpt lat="44.59596" lon="5.76115">
        <ele>1350.31</ele>
        <time>2013-11-14T13:20:22Z</time>
      </trkpt>
      <trkpt lat="44.5959" lon="5.76111">
        <ele>1348.39</ele>
        <time>2013-11-14T13:20:31Z</time>
      </trkpt>
      <trkpt lat="44.5958" lon="5.76106">
        <ele>1345.02</ele>
        <time>2013-11-14T13:20:41Z</time>
      </trkpt>
      <trkpt lat="44.59578" lon="5.76106">
        <ele>1344.06</ele>
        <time>2013-11-14T13:20:44Z</time>
      </trkpt>
      <trkpt lat="44.59564" lon="5.76098">
        <ele>1340.7</ele>
        <time>2013-11-14T13:20:59Z</time>
      </trkpt>
      <trkpt lat="44.5955" lon="5.76083">
        <ele>1337.81</ele>
        <time>2013-11-14T13:21:16Z</time>
      </trkpt>
      <trkpt lat="44.59543" lon="5.76078">
        <ele>1334.45</ele>
        <time>2013-11-14T13:21:26Z</time>
      </trkpt>
      <trkpt lat="44.59535" lon="5.76074">
        <ele>1332.52</ele>
        <time>2013-11-14T13:21:36Z</time>
      </trkpt>
      <trkpt lat="44.59521" lon="5.76064">
        <ele>1329.64</ele>
        <time>2013-11-14T13:21:52Z</time>
      </trkpt>
      <trkpt lat="44.59521" lon="5.76062">
        <ele>1329.64</ele>
        <time>2013-11-14T13:21:53Z</time>
      </trkpt>
      <trkpt lat="44.59509" lon="5.76043">
        <ele>1326.76</ele>
        <time>2013-11-14T13:22:08Z</time>
      </trkpt>
      <trkpt lat="44.59503" lon="5.76032">
        <ele>1323.87</ele>
        <time>2013-11-14T13:22:19Z</time>
      </trkpt>
      <trkpt lat="44.595" lon="5.76027">
        <ele>1321.47</ele>
        <time>2013-11-14T13:22:23Z</time>
      </trkpt>
      <trkpt lat="44.59494" lon="5.76009">
        <ele>1320.51</ele>
        <time>2013-11-14T13:22:37Z</time>
      </trkpt>
      <trkpt lat="44.59491" lon="5.76001">
        <ele>1317.62</ele>
        <time>2013-11-14T13:22:46Z</time>
      </trkpt>
      <trkpt lat="44.59486" lon="5.7598">
        <ele>1314.26</ele>
        <time>2013-11-14T13:23:00Z</time>
      </trkpt>
      <trkpt lat="44.59485" lon="5.75977">
        <ele>1312.34</ele>
        <time>2013-11-14T13:23:03Z</time>
      </trkpt>
      <trkpt lat="44.59484" lon="5.75965">
        <ele>1309.93</ele>
        <time>2013-11-14T13:23:13Z</time>
      </trkpt>
      <trkpt lat="44.59478" lon="5.75956">
        <ele>1308.49</ele>
        <time>2013-11-14T13:23:22Z</time>
      </trkpt>
      <trkpt lat="44.59465" lon="5.75945">
        <ele>1305.13</ele>
        <time>2013-11-14T13:23:38Z</time>
      </trkpt>
      <trkpt lat="44.59458" lon="5.75944">
        <ele>1303.2</ele>
        <time>2013-11-14T13:23:46Z</time>
      </trkpt>
      <trkpt lat="44.59443" lon="5.75941">
        <ele>1299.84</ele>
        <time>2013-11-14T13:24:02Z</time>
      </trkpt>
      <trkpt lat="44.59436" lon="5.75941">
        <ele>1298.88</ele>
        <time>2013-11-14T13:24:10Z</time>
      </trkpt>
      <trkpt lat="44.5942" lon="5.75948">
        <ele>1297.92</ele>
        <time>2013-11-14T13:24:25Z</time>
      </trkpt>
      <trkpt lat="44.59407" lon="5.75964">
        <ele>1295.03</ele>
        <time>2013-11-14T13:24:41Z</time>
      </trkpt>
      <trkpt lat="44.59394" lon="5.7598">
        <ele>1291.67</ele>
        <time>2013-11-14T13:24:58Z</time>
      </trkpt>
      <trkpt lat="44.59386" lon="5.75972">
        <ele>1289.27</ele>
        <time>2013-11-14T13:25:09Z</time>
      </trkpt>
      <trkpt lat="44.59382" lon="5.75947">
        <ele>1286.38</ele>
        <time>2013-11-14T13:25:26Z</time>
      </trkpt>
      <trkpt lat="44.59382" lon="5.7593">
        <ele>1284.46</ele>
        <time>2013-11-14T13:25:38Z</time>
      </trkpt>
      <trkpt lat="44.59386" lon="5.75906">
        <ele>1280.61</ele>
        <time>2013-11-14T13:25:54Z</time>
      </trkpt>
      <trkpt lat="44.59389" lon="5.75883">
        <ele>1277.73</ele>
        <time>2013-11-14T13:26:09Z</time>
      </trkpt>
      <trkpt lat="44.59391" lon="5.75872">
        <ele>1275.81</ele>
        <time>2013-11-14T13:26:17Z</time>
      </trkpt>
      <trkpt lat="44.59395" lon="5.75854">
        <ele>1273.88</ele>
        <time>2013-11-14T13:26:30Z</time>
      </trkpt>
      <trkpt lat="44.59395" lon="5.75848">
        <ele>1271.96</ele>
        <time>2013-11-14T13:26:34Z</time>
      </trkpt>
      <trkpt lat="44.5939" lon="5.75834">
        <ele>1270.04</ele>
        <time>2013-11-14T13:26:52Z</time>
      </trkpt>
      <trkpt lat="44.59382" lon="5.75838">
        <ele>1268.6</ele>
        <time>2013-11-14T13:27:07Z</time>
      </trkpt>
      <trkpt lat="44.59377" lon="5.75838">
        <ele>1268.6</ele>
        <time>2013-11-14T13:27:12Z</time>
      </trkpt>
      <trkpt lat="44.5936" lon="5.75842">
        <ele>1265.23</ele>
        <time>2013-11-14T13:27:29Z</time>
      </trkpt>
      <trkpt lat="44.59355" lon="5.75846">
        <ele>1264.75</ele>
        <time>2013-11-14T13:27:34Z</time>
      </trkpt>
      <trkpt lat="44.59354" lon="5.75847">
        <ele>1264.75</ele>
        <time>2013-11-14T13:27:35Z</time>
      </trkpt>
      <trkpt lat="44.59341" lon="5.75855">
        <ele>1262.35</ele>
        <time>2013-11-14T13:27:48Z</time>
      </trkpt>
      <trkpt lat="44.59338" lon="5.75857">
        <ele>1261.39</ele>
        <time>2013-11-14T13:27:52Z</time>
      </trkpt>
      <trkpt lat="44.59324" lon="5.75863">
        <ele>1258.98</ele>
        <time>2013-11-14T13:28:05Z</time>
      </trkpt>
      <trkpt lat="44.59312" lon="5.75871">
        <ele>1258.5</ele>
        <time>2013-11-14T13:28:16Z</time>
      </trkpt>
      <trkpt lat="44.593" lon="5.75885">
        <ele>1255.62</ele>
        <time>2013-11-14T13:28:32Z</time>
      </trkpt>
      <trkpt lat="44.59289" lon="5.75897">
        <ele>1252.25</ele>
        <time>2013-11-14T13:28:46Z</time>
      </trkpt>
      <trkpt lat="44.59277" lon="5.75885">
        <ele>1249.85</ele>
        <time>2013-11-14T13:29:02Z</time>
      </trkpt>
      <trkpt lat="44.59269" lon="5.75868">
        <ele>1246.49</ele>
        <time>2013-11-14T13:29:17Z</time>
      </trkpt>
      <trkpt lat="44.59265" lon="5.75858">
        <ele>1245.53</ele>
        <time>2013-11-14T13:29:25Z</time>
      </trkpt>
      <trkpt lat="44.5926" lon="5.75845">
        <ele>1241.68</ele>
        <time>2013-11-14T13:29:36Z</time>
      </trkpt>
      <trkpt lat="44.59259" lon="5.75843">
        <ele>1240.72</ele>
        <time>2013-11-14T13:29:38Z</time>
      </trkpt>
      <trkpt lat="44.59246" lon="5.75829">
        <ele>1237.83</ele>
        <time>2013-11-14T13:29:52Z</time>
      </trkpt>
      <trkpt lat="44.59245" lon="5.75829">
        <ele>1237.83</ele>
        <time>2013-11-14T13:29:53Z</time>
      </trkpt>
      <trkpt lat="44.59231" lon="5.75821">
        <ele>1235.43</ele>
        <time>2013-11-14T13:30:09Z</time>
      </trkpt>
      <trkpt lat="44.59223" lon="5.75819">
        <ele>1233.51</ele>
        <time>2013-11-14T13:30:23Z</time>
      </trkpt>
      <trkpt lat="44.59219" lon="5.75826">
        <ele>1232.07</ele>
        <time>2013-11-14T13:30:36Z</time>
      </trkpt>
      <trkpt lat="44.59216" lon="5.75823">
        <ele>1232.07</ele>
        <time>2013-11-14T13:31:07Z</time>
      </trkpt>
      <trkpt lat="44.59219" lon="5.75821">
        <ele>1232.55</ele>
        <time>2013-11-14T13:31:48Z</time>
      </trkpt>
      <trkpt lat="44.59223" lon="5.75815">
        <ele>1232.07</ele>
        <time>2013-11-14T13:31:59Z</time>
      </trkpt>
      <trkpt lat="44.59221" lon="5.75811">
        <ele>1230.62</ele>
        <time>2013-11-14T13:32:14Z</time>
      </trkpt>
      <trkpt lat="44.59223" lon="5.75813">
        <ele>1232.07</ele>
        <time>2013-11-14T13:32:19Z</time>
      </trkpt>
      <trkpt lat="44.5922" lon="5.75813">
        <ele>1233.03</ele>
        <time>2013-11-14T13:32:42Z</time>
      </trkpt>
      <trkpt lat="44.5922" lon="5.75812">
        <ele>1232.55</ele>
        <time>2013-11-14T13:33:10Z</time>
      </trkpt>
      <trkpt lat="44.59213" lon="5.75811">
        <ele>1231.59</ele>
        <time>2013-11-14T13:33:29Z</time>
      </trkpt>
      <trkpt lat="44.59209" lon="5.75808">
        <ele>1230.14</ele>
        <time>2013-11-14T13:33:37Z</time>
      </trkpt>
      <trkpt lat="44.59199" lon="5.75805">
        <ele>1229.18</ele>
        <time>2013-11-14T13:33:53Z</time>
      </trkpt>
      <trkpt lat="44.59196" lon="5.75801">
        <ele>1229.66</ele>
        <time>2013-11-14T13:34:09Z</time>
      </trkpt>
      <trkpt lat="44.59196" lon="5.75801">
        <ele>1230.62</ele>
        <time>2013-11-14T13:34:30Z</time>
      </trkpt>
      <trkpt lat="44.59196" lon="5.75801">
        <ele>1230.14</ele>
        <time>2013-11-14T13:34:48Z</time>
      </trkpt>
      <trkpt lat="44.59194" lon="5.75801">
        <ele>1230.62</ele>
        <time>2013-11-14T13:35:19Z</time>
      </trkpt>
      <trkpt lat="44.59196" lon="5.75798">
        <ele>1229.66</ele>
        <time>2013-11-14T13:35:33Z</time>
      </trkpt>
      <trkpt lat="44.59194" lon="5.758">
        <ele>1230.62</ele>
        <time>2013-11-14T13:35:57Z</time>
      </trkpt>
      <trkpt lat="44.59194" lon="5.75799">
        <ele>1231.59</ele>
        <time>2013-11-14T13:36:19Z</time>
      </trkpt>
      <trkpt lat="44.59193" lon="5.75802">
        <ele>1230.62</ele>
        <time>2013-11-14T13:36:39Z</time>
      </trkpt>
      <trkpt lat="44.59193" lon="5.75801">
        <ele>1230.14</ele>
        <time>2013-11-14T13:36:59Z</time>
      </trkpt>
      <trkpt lat="44.59194" lon="5.75792">
        <ele>1229.66</ele>
        <time>2013-11-14T13:37:08Z</time>
      </trkpt>
      <trkpt lat="44.59202" lon="5.7578">
        <ele>1227.26</ele>
        <time>2013-11-14T13:37:22Z</time>
      </trkpt>
      <trkpt lat="44.5921" lon="5.75772">
        <ele>1225.82</ele>
        <time>2013-11-14T13:37:34Z</time>
      </trkpt>
      <trkpt lat="44.59216" lon="5.75771">
        <ele>1224.86</ele>
        <time>2013-11-14T13:37:44Z</time>
      </trkpt>
      <trkpt lat="44.59226" lon="5.75774">
        <ele>1222.93</ele>
        <time>2013-11-14T13:38:00Z</time>
      </trkpt>
      <trkpt lat="44.59234" lon="5.75773">
        <ele>1221.49</ele>
        <time>2013-11-14T13:38:14Z</time>
      </trkpt>
      <trkpt lat="44.59246" lon="5.75771">
        <ele>1220.05</ele>
        <time>2013-11-14T13:38:27Z</time>
      </trkpt>
      <trkpt lat="44.5926" lon="5.7576">
        <ele>1220.53</ele>
        <time>2013-11-14T13:38:42Z</time>
      </trkpt>
      <trkpt lat="44.5926" lon="5.75758">
        <ele>1220.53</ele>
        <time>2013-11-14T13:38:44Z</time>
      </trkpt>
      <trkpt lat="44.59258" lon="5.75741">
        <ele>1219.09</ele>
        <time>2013-11-14T13:38:59Z</time>
      </trkpt>
      <trkpt lat="44.5925" lon="5.75731">
        <ele>1218.13</ele>
        <time>2013-11-14T13:39:10Z</time>
      </trkpt>
      <trkpt lat="44.59235" lon="5.75727">
        <ele>1216.21</ele>
        <time>2013-11-14T13:39:25Z</time>
      </trkpt>
      <trkpt lat="44.59225" lon="5.75721">
        <ele>1214.28</ele>
        <time>2013-11-14T13:39:39Z</time>
      </trkpt>
      <trkpt lat="44.59213" lon="5.75712">
        <ele>1211.88</ele>
        <time>2013-11-14T13:39:53Z</time>
      </trkpt>
      <trkpt lat="44.59202" lon="5.75701">
        <ele>1209</ele>
        <time>2013-11-14T13:40:10Z</time>
      </trkpt>
      <trkpt lat="44.59192" lon="5.75685">
        <ele>1206.11</ele>
        <time>2013-11-14T13:40:26Z</time>
      </trkpt>
      <trkpt lat="44.59185" lon="5.75678">
        <ele>1204.67</ele>
        <time>2013-11-14T13:40:34Z</time>
      </trkpt>
      <trkpt lat="44.59171" lon="5.75664">
        <ele>1202.27</ele>
        <time>2013-11-14T13:40:49Z</time>
      </trkpt>
      <trkpt lat="44.59162" lon="5.75654">
        <ele>1200.82</ele>
        <time>2013-11-14T13:41:02Z</time>
      </trkpt>
      <trkpt lat="44.59152" lon="5.75645">
        <ele>1198.9</ele>
        <time>2013-11-14T13:41:20Z</time>
      </trkpt>
      <trkpt lat="44.59141" lon="5.75637">
        <ele>1196.5</ele>
        <time>2013-11-14T13:41:34Z</time>
      </trkpt>
      <trkpt lat="44.59125" lon="5.7563">
        <ele>1194.09</ele>
        <time>2013-11-14T13:41:50Z</time>
      </trkpt>
      <trkpt lat="44.5911" lon="5.75624">
        <ele>1192.17</ele>
        <time>2013-11-14T13:42:10Z</time>
      </trkpt>
      <trkpt lat="44.59099" lon="5.75623">
        <ele>1189.29</ele>
        <time>2013-11-14T13:42:27Z</time>
      </trkpt>
      <trkpt lat="44.59083" lon="5.75611">
        <ele>1186.4</ele>
        <time>2013-11-14T13:42:47Z</time>
      </trkpt>
      <trkpt lat="44.59081" lon="5.75607">
        <ele>1185.92</ele>
        <time>2013-11-14T13:42:51Z</time>
      </trkpt>
      <trkpt lat="44.5907" lon="5.75591">
        <ele>1182.56</ele>
        <time>2013-11-14T13:43:09Z</time>
      </trkpt>
      <trkpt lat="44.59057" lon="5.75578">
        <ele>1184</ele>
        <time>2013-11-14T13:43:27Z</time>
      </trkpt>
      <trkpt lat="44.59046" lon="5.75573">
        <ele>1182.08</ele>
        <time>2013-11-14T13:43:38Z</time>
      </trkpt>
      <trkpt lat="44.59027" lon="5.75566">
        <ele>1179.67</ele>
        <time>2013-11-14T13:43:58Z</time>
      </trkpt>
      <trkpt lat="44.59008" lon="5.75561">
        <ele>1178.71</ele>
        <time>2013-11-14T13:44:17Z</time>
      </trkpt>
      <trkpt lat="44.58989" lon="5.75546">
        <ele>1178.71</ele>
        <time>2013-11-14T13:44:37Z</time>
      </trkpt>
      <trkpt lat="44.58984" lon="5.75539">
        <ele>1177.75</ele>
        <time>2013-11-14T13:44:42Z</time>
      </trkpt>
      <trkpt lat="44.58964" lon="5.75528">
        <ele>1174.87</ele>
        <time>2013-11-14T13:45:02Z</time>
      </trkpt>
      <trkpt lat="44.58958" lon="5.75512">
        <ele>1171.5</ele>
        <time>2013-11-14T13:45:15Z</time>
      </trkpt>
      <trkpt lat="44.58954" lon="5.75499">
        <ele>1168.62</ele>
        <time>2013-11-14T13:45:26Z</time>
      </trkpt>
      <trkpt lat="44.58954" lon="5.75498">
        <ele>1168.62</ele>
        <time>2013-11-14T13:45:27Z</time>
      </trkpt>
      <trkpt lat="44.58944" lon="5.75489">
        <ele>1167.66</ele>
        <time>2013-11-14T13:45:40Z</time>
      </trkpt>
      <trkpt lat="44.58931" lon="5.75495">
        <ele>1168.14</ele>
        <time>2013-11-14T13:45:54Z</time>
      </trkpt>
      <trkpt lat="44.5891" lon="5.75507">
        <ele>1170.06</ele>
        <time>2013-11-14T13:46:15Z</time>
      </trkpt>
      <trkpt lat="44.58895" lon="5.75516">
        <ele>1172.47</ele>
        <time>2013-11-14T13:46:33Z</time>
      </trkpt>
      <trkpt lat="44.58881" lon="5.75519">
        <ele>1173.91</ele>
        <time>2013-11-14T13:46:49Z</time>
      </trkpt>
      <trkpt lat="44.58879" lon="5.75519">
        <ele>1174.39</ele>
        <time>2013-11-14T13:46:51Z</time>
      </trkpt>
      <trkpt lat="44.58862" lon="5.75515">
        <ele>1173.91</ele>
        <time>2013-11-14T13:47:07Z</time>
      </trkpt>
      <trkpt lat="44.58851" lon="5.75503">
        <ele>1175.35</ele>
        <time>2013-11-14T13:47:21Z</time>
      </trkpt>
      <trkpt lat="44.58841" lon="5.75495">
        <ele>1177.27</ele>
        <time>2013-11-14T13:47:35Z</time>
      </trkpt>
      <trkpt lat="44.58828" lon="5.75489">
        <ele>1177.75</ele>
        <time>2013-11-14T13:47:51Z</time>
      </trkpt>
      <trkpt lat="44.58827" lon="5.75489">
        <ele>1177.75</ele>
        <time>2013-11-14T13:47:52Z</time>
      </trkpt>
      <trkpt lat="44.58813" lon="5.75485">
        <ele>1176.79</ele>
        <time>2013-11-14T13:48:08Z</time>
      </trkpt>
      <trkpt lat="44.58799" lon="5.75478">
        <ele>1176.79</ele>
        <time>2013-11-14T13:48:24Z</time>
      </trkpt>
      <trkpt lat="44.58784" lon="5.75469">
        <ele>1176.79</ele>
        <time>2013-11-14T13:48:41Z</time>
      </trkpt>
      <trkpt lat="44.58771" lon="5.75465">
        <ele>1175.35</ele>
        <time>2013-11-14T13:48:58Z</time>
      </trkpt>
      <trkpt lat="44.58757" lon="5.75465">
        <ele>1172.95</ele>
        <time>2013-11-14T13:49:15Z</time>
      </trkpt>
      <trkpt lat="44.58746" lon="5.75462">
        <ele>1169.58</ele>
        <time>2013-11-14T13:49:29Z</time>
      </trkpt>
      <trkpt lat="44.58728" lon="5.75451">
        <ele>1167.18</ele>
        <time>2013-11-14T13:49:49Z</time>
      </trkpt>
      <trkpt lat="44.58713" lon="5.75437">
        <ele>1165.74</ele>
        <time>2013-11-14T13:50:06Z</time>
      </trkpt>
      <trkpt lat="44.58703" lon="5.75424">
        <ele>1164.29</ele>
        <time>2013-11-14T13:50:22Z</time>
      </trkpt>
      <trkpt lat="44.58702" lon="5.75423">
        <ele>1163.81</ele>
        <time>2013-11-14T13:50:23Z</time>
      </trkpt>
      <trkpt lat="44.58699" lon="5.75413">
        <ele>1163.81</ele>
        <time>2013-11-14T13:50:30Z</time>
      </trkpt>
      <trkpt lat="44.5869" lon="5.75388">
        <ele>1162.85</ele>
        <time>2013-11-14T13:50:48Z</time>
      </trkpt>
      <trkpt lat="44.58679" lon="5.75365">
        <ele>1160.93</ele>
        <time>2013-11-14T13:51:05Z</time>
      </trkpt>
      <trkpt lat="44.58666" lon="5.75351">
        <ele>1159.97</ele>
        <time>2013-11-14T13:51:21Z</time>
      </trkpt>
      <trkpt lat="44.58658" lon="5.75339">
        <ele>1159.97</ele>
        <time>2013-11-14T13:51:32Z</time>
      </trkpt>
      <trkpt lat="44.58652" lon="5.75334">
        <ele>1161.89</ele>
        <time>2013-11-14T13:51:44Z</time>
      </trkpt>
      <trkpt lat="44.58639" lon="5.75338">
        <ele>1160.93</ele>
        <time>2013-11-14T13:51:56Z</time>
      </trkpt>
      <trkpt lat="44.58614" lon="5.75339">
        <ele>1159.49</ele>
        <time>2013-11-14T13:52:19Z</time>
      </trkpt>
      <trkpt lat="44.5859" lon="5.7534">
        <ele>1158.05</ele>
        <time>2013-11-14T13:52:40Z</time>
      </trkpt>
      <trkpt lat="44.58567" lon="5.75331">
        <ele>1156.6</ele>
        <time>2013-11-14T13:53:01Z</time>
      </trkpt>
      <trkpt lat="44.58547" lon="5.75324">
        <ele>1155.16</ele>
        <time>2013-11-14T13:53:22Z</time>
      </trkpt>
      <trkpt lat="44.58534" lon="5.75319">
        <ele>1156.12</ele>
        <time>2013-11-14T13:53:39Z</time>
      </trkpt>
      <trkpt lat="44.58521" lon="5.75305">
        <ele>1156.6</ele>
        <time>2013-11-14T13:53:54Z</time>
      </trkpt>
      <trkpt lat="44.58509" lon="5.753">
        <ele>1155.16</ele>
        <time>2013-11-14T13:54:07Z</time>
      </trkpt>
      <trkpt lat="44.58503" lon="5.75298">
        <ele>1154.68</ele>
        <time>2013-11-14T13:54:14Z</time>
      </trkpt>
      <trkpt lat="44.58493" lon="5.75284">
        <ele>1157.08</ele>
        <time>2013-11-14T13:54:27Z</time>
      </trkpt>
      <trkpt lat="44.58487" lon="5.75276">
        <ele>1158.05</ele>
        <time>2013-11-14T13:54:42Z</time>
      </trkpt>
      <trkpt lat="44.58484" lon="5.75269">
        <ele>1158.05</ele>
        <time>2013-11-14T13:54:47Z</time>
      </trkpt>
      <trkpt lat="44.58468" lon="5.75256">
        <ele>1158.05</ele>
        <time>2013-11-14T13:55:04Z</time>
      </trkpt>
      <trkpt lat="44.58457" lon="5.75247">
        <ele>1156.6</ele>
        <time>2013-11-14T13:55:14Z</time>
      </trkpt>
      <trkpt lat="44.58443" lon="5.75234">
        <ele>1154.2</ele>
        <time>2013-11-14T13:55:30Z</time>
      </trkpt>
      <trkpt lat="44.58427" lon="5.75225">
        <ele>1152.76</ele>
        <time>2013-11-14T13:55:45Z</time>
      </trkpt>
      <trkpt lat="44.58418" lon="5.75217">
        <ele>1150.84</ele>
        <time>2013-11-14T13:55:54Z</time>
      </trkpt>
      <trkpt lat="44.58411" lon="5.75208">
        <ele>1149.39</ele>
        <time>2013-11-14T13:56:03Z</time>
      </trkpt>
      <trkpt lat="44.58393" lon="5.75197">
        <ele>1146.99</ele>
        <time>2013-11-14T13:56:20Z</time>
      </trkpt>
      <trkpt lat="44.58379" lon="5.75186">
        <ele>1145.07</ele>
        <time>2013-11-14T13:56:35Z</time>
      </trkpt>
      <trkpt lat="44.58375" lon="5.75183">
        <ele>1145.07</ele>
        <time>2013-11-14T13:56:42Z</time>
      </trkpt>
      <trkpt lat="44.5836" lon="5.75169">
        <ele>1146.03</ele>
        <time>2013-11-14T13:56:58Z</time>
      </trkpt>
      <trkpt lat="44.58348" lon="5.75147">
        <ele>1143.63</ele>
        <time>2013-11-14T13:57:15Z</time>
      </trkpt>
      <trkpt lat="44.58337" lon="5.75129">
        <ele>1140.74</ele>
        <time>2013-11-14T13:57:31Z</time>
      </trkpt>
      <trkpt lat="44.58327" lon="5.7511">
        <ele>1138.34</ele>
        <time>2013-11-14T13:57:46Z</time>
      </trkpt>
      <trkpt lat="44.58316" lon="5.75096">
        <ele>1136.42</ele>
        <time>2013-11-14T13:57:59Z</time>
      </trkpt>
      <trkpt lat="44.58314" lon="5.75069">
        <ele>1133.53</ele>
        <time>2013-11-14T13:58:17Z</time>
      </trkpt>
      <trkpt lat="44.58316" lon="5.75048">
        <ele>1133.05</ele>
        <time>2013-11-14T13:58:31Z</time>
      </trkpt>
      <trkpt lat="44.58317" lon="5.75015">
        <ele>1131.61</ele>
        <time>2013-11-14T13:58:50Z</time>
      </trkpt>
      <trkpt lat="44.58315" lon="5.74985">
        <ele>1130.17</ele>
        <time>2013-11-14T13:59:12Z</time>
      </trkpt>
      <trkpt lat="44.58319" lon="5.74954">
        <ele>1128.73</ele>
        <time>2013-11-14T13:59:30Z</time>
      </trkpt>
      <trkpt lat="44.58327" lon="5.74936">
        <ele>1126.8</ele>
        <time>2013-11-14T13:59:44Z</time>
      </trkpt>
      <trkpt lat="44.58333" lon="5.74904">
        <ele>1123.92</ele>
        <time>2013-11-14T14:00:06Z</time>
      </trkpt>
      <trkpt lat="44.58337" lon="5.74864">
        <ele>1122.48</ele>
        <time>2013-11-14T14:00:29Z</time>
      </trkpt>
      <trkpt lat="44.58335" lon="5.74862">
        <ele>1122</ele>
        <time>2013-11-14T14:00:31Z</time>
      </trkpt>
      <trkpt lat="44.58332" lon="5.74859">
        <ele>1121.52</ele>
        <time>2013-11-14T14:00:34Z</time>
      </trkpt>
      <trkpt lat="44.58323" lon="5.74866">
        <ele>1118.63</ele>
        <time>2013-11-14T14:00:54Z</time>
      </trkpt>
      <trkpt lat="44.58314" lon="5.74876">
        <ele>1117.19</ele>
        <time>2013-11-14T14:01:05Z</time>
      </trkpt>
      <trkpt lat="44.58298" lon="5.74891">
        <ele>1115.27</ele>
        <time>2013-11-14T14:01:26Z</time>
      </trkpt>
      <trkpt lat="44.58282" lon="5.74902">
        <ele>1112.38</ele>
        <time>2013-11-14T14:01:43Z</time>
      </trkpt>
      <trkpt lat="44.58265" lon="5.74912">
        <ele>1109.5</ele>
        <time>2013-11-14T14:01:59Z</time>
      </trkpt>
      <trkpt lat="44.58246" lon="5.74912">
        <ele>1106.61</ele>
        <time>2013-11-14T14:02:18Z</time>
      </trkpt>
      <trkpt lat="44.58243" lon="5.74906">
        <ele>1105.17</ele>
        <time>2013-11-14T14:02:22Z</time>
      </trkpt>
      <trkpt lat="44.58228" lon="5.74878">
        <ele>1102.29</ele>
        <time>2013-11-14T14:02:40Z</time>
      </trkpt>
      <trkpt lat="44.58224" lon="5.74868">
        <ele>1101.33</ele>
        <time>2013-11-14T14:02:47Z</time>
      </trkpt>
      <trkpt lat="44.58225" lon="5.74857">
        <ele>1098.92</ele>
        <time>2013-11-14T14:02:53Z</time>
      </trkpt>
      <trkpt lat="44.58223" lon="5.74843">
        <ele>1097.96</ele>
        <time>2013-11-14T14:03:02Z</time>
      </trkpt>
      <trkpt lat="44.58216" lon="5.74818">
        <ele>1095.08</ele>
        <time>2013-11-14T14:03:20Z</time>
      </trkpt>
      <trkpt lat="44.58211" lon="5.74796">
        <ele>1093.16</ele>
        <time>2013-11-14T14:03:35Z</time>
      </trkpt>
      <trkpt lat="44.58204" lon="5.74766">
        <ele>1090.27</ele>
        <time>2013-11-14T14:03:55Z</time>
      </trkpt>
      <trkpt lat="44.58204" lon="5.74747">
        <ele>1088.83</ele>
        <time>2013-11-14T14:04:07Z</time>
      </trkpt>
      <trkpt lat="44.58209" lon="5.74724">
        <ele>1087.39</ele>
        <time>2013-11-14T14:04:26Z</time>
      </trkpt>
      <trkpt lat="44.58208" lon="5.74693">
        <ele>1084.5</ele>
        <time>2013-11-14T14:04:44Z</time>
      </trkpt>
      <trkpt lat="44.58211" lon="5.74659">
        <ele>1082.1</ele>
        <time>2013-11-14T14:05:07Z</time>
      </trkpt>
      <trkpt lat="44.58216" lon="5.74621">
        <ele>1078.74</ele>
        <time>2013-11-14T14:05:31Z</time>
      </trkpt>
      <trkpt lat="44.58214" lon="5.74603">
        <ele>1077.78</ele>
        <time>2013-11-14T14:05:45Z</time>
      </trkpt>
      <trkpt lat="44.582" lon="5.74582">
        <ele>1077.29</ele>
        <time>2013-11-14T14:06:02Z</time>
      </trkpt>
      <trkpt lat="44.58196" lon="5.74567">
        <ele>1074.89</ele>
        <time>2013-11-14T14:06:10Z</time>
      </trkpt>
      <trkpt lat="44.58195" lon="5.74556">
        <ele>1074.41</ele>
        <time>2013-11-14T14:06:17Z</time>
      </trkpt>
      <trkpt lat="44.58185" lon="5.74529">
        <ele>1071.05</ele>
        <time>2013-11-14T14:06:35Z</time>
      </trkpt>
      <trkpt lat="44.58175" lon="5.74503">
        <ele>1071.05</ele>
        <time>2013-11-14T14:06:55Z</time>
      </trkpt>
      <trkpt lat="44.58167" lon="5.74473">
        <ele>1068.64</ele>
        <time>2013-11-14T14:07:14Z</time>
      </trkpt>
      <trkpt lat="44.58153" lon="5.74454">
        <ele>1066.24</ele>
        <time>2013-11-14T14:07:35Z</time>
      </trkpt>
      <trkpt lat="44.58145" lon="5.7444">
        <ele>1062.39</ele>
        <time>2013-11-14T14:07:46Z</time>
      </trkpt>
      <trkpt lat="44.58131" lon="5.74421">
        <ele>1060.95</ele>
        <time>2013-11-14T14:08:03Z</time>
      </trkpt>
      <trkpt lat="44.58111" lon="5.74411">
        <ele>1059.51</ele>
        <time>2013-11-14T14:08:21Z</time>
      </trkpt>
      <trkpt lat="44.58096" lon="5.74394">
        <ele>1059.03</ele>
        <time>2013-11-14T14:08:38Z</time>
      </trkpt>
      <trkpt lat="44.58091" lon="5.74382">
        <ele>1057.11</ele>
        <time>2013-11-14T14:08:46Z</time>
      </trkpt>
      <trkpt lat="44.58082" lon="5.74367">
        <ele>1056.15</ele>
        <time>2013-11-14T14:08:56Z</time>
      </trkpt>
      <trkpt lat="44.58071" lon="5.74342">
        <ele>1052.78</ele>
        <time>2013-11-14T14:09:13Z</time>
      </trkpt>
      <trkpt lat="44.58059" lon="5.74316">
        <ele>1049.9</ele>
        <time>2013-11-14T14:09:32Z</time>
      </trkpt>
      <trkpt lat="44.58046" lon="5.74299">
        <ele>1047.01</ele>
        <time>2013-11-14T14:09:49Z</time>
      </trkpt>
      <trkpt lat="44.58045" lon="5.74297">
        <ele>1047.01</ele>
        <time>2013-11-14T14:09:50Z</time>
      </trkpt>
      <trkpt lat="44.58029" lon="5.74266">
        <ele>1045.09</ele>
        <time>2013-11-14T14:10:12Z</time>
      </trkpt>
      <trkpt lat="44.58022" lon="5.74234">
        <ele>1044.61</ele>
        <time>2013-11-14T14:10:32Z</time>
      </trkpt>
      <trkpt lat="44.58022" lon="5.74225">
        <ele>1041.73</ele>
        <time>2013-11-14T14:10:37Z</time>
      </trkpt>
      <trkpt lat="44.58022" lon="5.74224">
        <ele>1041.73</ele>
        <time>2013-11-14T14:10:38Z</time>
      </trkpt>
      <trkpt lat="44.58021" lon="5.74219">
        <ele>1043.17</ele>
        <time>2013-11-14T14:10:41Z</time>
      </trkpt>
      <trkpt lat="44.58014" lon="5.74195">
        <ele>1039.8</ele>
        <time>2013-11-14T14:10:55Z</time>
      </trkpt>
      <trkpt lat="44.58008" lon="5.74158">
        <ele>1037.88</ele>
        <time>2013-11-14T14:11:17Z</time>
      </trkpt>
      <trkpt lat="44.58001" lon="5.74127">
        <ele>1038.36</ele>
        <time>2013-11-14T14:11:38Z</time>
      </trkpt>
      <trkpt lat="44.57999" lon="5.74099">
        <ele>1035.96</ele>
        <time>2013-11-14T14:11:56Z</time>
      </trkpt>
      <trkpt lat="44.57999" lon="5.74097">
        <ele>1035.96</ele>
        <time>2013-11-14T14:11:57Z</time>
      </trkpt>
      <trkpt lat="44.57998" lon="5.74088">
        <ele>1033.07</ele>
        <time>2013-11-14T14:12:01Z</time>
      </trkpt>
      <trkpt lat="44.57991" lon="5.74056">
        <ele>1033.07</ele>
        <time>2013-11-14T14:12:20Z</time>
      </trkpt>
      <trkpt lat="44.57984" lon="5.74045">
        <ele>1029.71</ele>
        <time>2013-11-14T14:12:29Z</time>
      </trkpt>
      <trkpt lat="44.57963" lon="5.74028">
        <ele>1029.23</ele>
        <time>2013-11-14T14:12:50Z</time>
      </trkpt>
      <trkpt lat="44.57945" lon="5.74022">
        <ele>1029.23</ele>
        <time>2013-11-14T14:13:05Z</time>
      </trkpt>
      <trkpt lat="44.57937" lon="5.74019">
        <ele>1027.79</ele>
        <time>2013-11-14T14:13:12Z</time>
      </trkpt>
      <trkpt lat="44.57919" lon="5.74015">
        <ele>1024.42</ele>
        <time>2013-11-14T14:13:29Z</time>
      </trkpt>
      <trkpt lat="44.57894" lon="5.74007">
        <ele>1022.5</ele>
        <time>2013-11-14T14:13:51Z</time>
      </trkpt>
      <trkpt lat="44.57875" lon="5.73996">
        <ele>1021.54</ele>
        <time>2013-11-14T14:14:08Z</time>
      </trkpt>
      <trkpt lat="44.57872" lon="5.73995">
        <ele>1021.54</ele>
        <time>2013-11-14T14:14:11Z</time>
      </trkpt>
      <trkpt lat="44.57866" lon="5.7399">
        <ele>1020.1</ele>
        <time>2013-11-14T14:14:17Z</time>
      </trkpt>
      <trkpt lat="44.5785" lon="5.73983">
        <ele>1018.17</ele>
        <time>2013-11-14T14:14:31Z</time>
      </trkpt>
      <trkpt lat="44.57829" lon="5.73974">
        <ele>1018.17</ele>
        <time>2013-11-14T14:14:49Z</time>
      </trkpt>
      <trkpt lat="44.57819" lon="5.7397">
        <ele>1016.25</ele>
        <time>2013-11-14T14:15:05Z</time>
      </trkpt>
      <trkpt lat="44.57801" lon="5.73968">
        <ele>1013.85</ele>
        <time>2013-11-14T14:15:21Z</time>
      </trkpt>
      <trkpt lat="44.57782" lon="5.73962">
        <ele>1015.29</ele>
        <time>2013-11-14T14:15:37Z</time>
      </trkpt>
      <trkpt lat="44.57771" lon="5.73956">
        <ele>1013.37</ele>
        <time>2013-11-14T14:15:48Z</time>
      </trkpt>
      <trkpt lat="44.57768" lon="5.73957">
        <ele>1013.37</ele>
        <time>2013-11-14T14:15:51Z</time>
      </trkpt>
      <trkpt lat="44.57757" lon="5.73954">
        <ele>1011.93</ele>
        <time>2013-11-14T14:16:01Z</time>
      </trkpt>
      <trkpt lat="44.57747" lon="5.73952">
        <ele>1011.44</ele>
        <time>2013-11-14T14:16:09Z</time>
      </trkpt>
      <trkpt lat="44.57727" lon="5.73947">
        <ele>1008.08</ele>
        <time>2013-11-14T14:16:25Z</time>
      </trkpt>
      <trkpt lat="44.57719" lon="5.73949">
        <ele>1008.08</ele>
        <time>2013-11-14T14:16:32Z</time>
      </trkpt>
      <trkpt lat="44.57705" lon="5.73956">
        <ele>1005.2</ele>
        <time>2013-11-14T14:16:46Z</time>
      </trkpt>
      <trkpt lat="44.57688" lon="5.73967">
        <ele>1003.75</ele>
        <time>2013-11-14T14:17:05Z</time>
      </trkpt>
      <trkpt lat="44.57678" lon="5.73974">
        <ele>1000.39</ele>
        <time>2013-11-14T14:17:17Z</time>
      </trkpt>
      <trkpt lat="44.57681" lon="5.73981">
        <ele>1002.79</ele>
        <time>2013-11-14T14:17:25Z</time>
      </trkpt>
      <trkpt lat="44.57681" lon="5.73995">
        <ele>1001.35</ele>
        <time>2013-11-14T14:17:41Z</time>
      </trkpt>
      <trkpt lat="44.5768" lon="5.73997">
        <ele>1001.83</ele>
        <time>2013-11-14T14:17:53Z</time>
      </trkpt>
      <trkpt lat="44.57679" lon="5.73995">
        <ele>1005.2</ele>
        <time>2013-11-14T14:18:10Z</time>
      </trkpt>
      <trkpt lat="44.57679" lon="5.73995">
        <ele>1004.23</ele>
        <time>2013-11-14T14:18:11Z</time>
      </trkpt>
      <trkpt lat="44.57678" lon="5.73995">
        <ele>1002.79</ele>
        <time>2013-11-14T14:18:13Z</time>
      </trkpt>
      <trkpt lat="44.57678" lon="5.73992">
        <ele>1001.35</ele>
        <time>2013-11-14T14:18:22Z</time>
      </trkpt>
      <trkpt lat="44.5768" lon="5.73997">
        <ele>1002.31</ele>
        <time>2013-11-14T14:18:32Z</time>
      </trkpt>
      <trkpt lat="44.57675" lon="5.73996">
        <ele>1001.35</ele>
        <time>2013-11-14T14:18:52Z</time>
      </trkpt>
      <trkpt lat="44.57671" lon="5.73996">
        <ele>1001.83</ele>
        <time>2013-11-14T14:19:07Z</time>
      </trkpt>
      <trkpt lat="44.57675" lon="5.73986">
        <ele>996.06</ele>
        <time>2013-11-14T14:19:16Z</time>
      </trkpt>
      <trkpt lat="44.57676" lon="5.73985">
        <ele>997.99</ele>
        <time>2013-11-14T14:19:17Z</time>
      </trkpt>
      <trkpt lat="44.57679" lon="5.73977">
        <ele>1000.87</ele>
        <time>2013-11-14T14:19:23Z</time>
      </trkpt>
      <trkpt lat="44.57673" lon="5.73977">
        <ele>1000.39</ele>
        <time>2013-11-14T14:19:29Z</time>
      </trkpt>
      <trkpt lat="44.57658" lon="5.73992">
        <ele>997.02</ele>
        <time>2013-11-14T14:19:44Z</time>
      </trkpt>
      <trkpt lat="44.57644" lon="5.74005">
        <ele>995.1</ele>
        <time>2013-11-14T14:19:57Z</time>
      </trkpt>
      <trkpt lat="44.57641" lon="5.74009">
        <ele>994.14</ele>
        <time>2013-11-14T14:20:01Z</time>
      </trkpt>
      <trkpt lat="44.57636" lon="5.74011">
        <ele>993.18</ele>
        <time>2013-11-14T14:20:05Z</time>
      </trkpt>
      <trkpt lat="44.57626" lon="5.74019">
        <ele>993.66</ele>
        <time>2013-11-14T14:20:13Z</time>
      </trkpt>
      <trkpt lat="44.57624" lon="5.7402">
        <ele>994.14</ele>
        <time>2013-11-14T14:20:15Z</time>
      </trkpt>
      <trkpt lat="44.57608" lon="5.74033">
        <ele>993.18</ele>
        <time>2013-11-14T14:20:32Z</time>
      </trkpt>
      <trkpt lat="44.57597" lon="5.74047">
        <ele>991.74</ele>
        <time>2013-11-14T14:20:45Z</time>
      </trkpt>
      <trkpt lat="44.57596" lon="5.74048">
        <ele>991.74</ele>
        <time>2013-11-14T14:20:46Z</time>
      </trkpt>
      <trkpt lat="44.57593" lon="5.74055">
        <ele>990.78</ele>
        <time>2013-11-14T14:21:04Z</time>
      </trkpt>
      <trkpt lat="44.57602" lon="5.74054">
        <ele>991.74</ele>
        <time>2013-11-14T14:21:25Z</time>
      </trkpt>
      <trkpt lat="44.57605" lon="5.74057">
        <ele>992.7</ele>
        <time>2013-11-14T14:21:38Z</time>
      </trkpt>
      <trkpt lat="44.57608" lon="5.74055">
        <ele>993.18</ele>
        <time>2013-11-14T14:21:58Z</time>
      </trkpt>
      <trkpt lat="44.5761" lon="5.74056">
        <ele>993.66</ele>
        <time>2013-11-14T14:22:28Z</time>
      </trkpt>
      <trkpt lat="44.5761" lon="5.74061">
        <ele>993.66</ele>
        <time>2013-11-14T14:22:50Z</time>
      </trkpt>
      <trkpt lat="44.57611" lon="5.74064">
        <ele>992.7</ele>
        <time>2013-11-14T14:23:17Z</time>
      </trkpt>
      <trkpt lat="44.57609" lon="5.74062">
        <ele>993.66</ele>
        <time>2013-11-14T14:23:45Z</time>
      </trkpt>
      <trkpt lat="44.57611" lon="5.74058">
        <ele>994.14</ele>
        <time>2013-11-14T14:24:13Z</time>
      </trkpt>
      <trkpt lat="44.57611" lon="5.74061">
        <ele>993.18</ele>
        <time>2013-11-14T14:24:38Z</time>
      </trkpt>
      <trkpt lat="44.5761" lon="5.74061">
        <ele>993.18</ele>
        <time>2013-11-14T14:24:47Z</time>
      </trkpt>
      <trkpt lat="44.57612" lon="5.74062">
        <ele>993.66</ele>
        <time>2013-11-14T14:25:15Z</time>
      </trkpt>
      <trkpt lat="44.57607" lon="5.74057">
        <ele>994.62</ele>
        <time>2013-11-14T14:25:45Z</time>
      </trkpt>
      <trkpt lat="44.57605" lon="5.74056">
        <ele>993.66</ele>
        <time>2013-11-14T14:26:05Z</time>
      </trkpt>
      <trkpt lat="44.57608" lon="5.74058">
        <ele>993.66</ele>
        <time>2013-11-14T14:26:32Z</time>
      </trkpt>
      <trkpt lat="44.57609" lon="5.74059">
        <ele>992.7</ele>
        <time>2013-11-14T14:26:57Z</time>
      </trkpt>
      <trkpt lat="44.57613" lon="5.7406">
        <ele>993.66</ele>
        <time>2013-11-14T14:27:28Z</time>
      </trkpt>
      <trkpt lat="44.5761" lon="5.74053">
        <ele>995.1</ele>
        <time>2013-11-14T14:27:57Z</time>
      </trkpt>
      <trkpt lat="44.57607" lon="5.7405">
        <ele>994.62</ele>
        <time>2013-11-14T14:28:29Z</time>
      </trkpt>
      <trkpt lat="44.57607" lon="5.74048">
        <ele>994.14</ele>
        <time>2013-11-14T14:29:06Z</time>
      </trkpt>
      <trkpt lat="44.57607" lon="5.74048">
        <ele>995.1</ele>
        <time>2013-11-14T14:29:35Z</time>
      </trkpt>
      <trkpt lat="44.57608" lon="5.74061">
        <ele>996.54</ele>
        <time>2013-11-14T14:29:58Z</time>
      </trkpt>
      <trkpt lat="44.57609" lon="5.74061">
        <ele>997.02</ele>
        <time>2013-11-14T14:30:22Z</time>
      </trkpt>
      <trkpt lat="44.57609" lon="5.74062">
        <ele>997.02</ele>
        <time>2013-11-14T14:30:49Z</time>
      </trkpt>
      <trkpt lat="44.57609" lon="5.74063">
        <ele>997.02</ele>
        <time>2013-11-14T14:31:10Z</time>
      </trkpt>
      <trkpt lat="44.57611" lon="5.74064">
        <ele>996.06</ele>
        <time>2013-11-14T14:31:36Z</time>
      </trkpt>
      <trkpt lat="44.57612" lon="5.74065">
        <ele>996.06</ele>
        <time>2013-11-14T14:32:01Z</time>
      </trkpt>
      <trkpt lat="44.57612" lon="5.74065">
        <ele>997.02</ele>
        <time>2013-11-14T14:32:31Z</time>
      </trkpt>
      <trkpt lat="44.57613" lon="5.74065">
        <ele>997.02</ele>
        <time>2013-11-14T14:33:02Z</time>
      </trkpt>
      <trkpt lat="44.57611" lon="5.74066">
        <ele>997.02</ele>
        <time>2013-11-14T14:33:31Z</time>
      </trkpt>
      <trkpt lat="44.5761" lon="5.74065">
        <ele>996.54</ele>
        <time>2013-11-14T14:34:06Z</time>
      </trkpt>
      <trkpt lat="44.57611" lon="5.74065">
        <ele>997.99</ele>
        <time>2013-11-14T14:34:13Z</time>
      </trkpt>
      <trkpt lat="44.57606" lon="5.7406">
        <ele>997.02</ele>
        <time>2013-11-14T14:34:35Z</time>
      </trkpt>
      <trkpt lat="44.57595" lon="5.74052">
        <ele>995.58</ele>
        <time>2013-11-14T14:34:50Z</time>
      </trkpt>
      <trkpt lat="44.57593" lon="5.74051">
        <ele>995.58</ele>
        <time>2013-11-14T14:35:00Z</time>
      </trkpt>
      <trkpt lat="44.57588" lon="5.7405">
        <ele>994.62</ele>
        <time>2013-11-14T14:35:05Z</time>
      </trkpt>
      <trkpt lat="44.57586" lon="5.7405">
        <ele>994.14</ele>
        <time>2013-11-14T14:35:07Z</time>
      </trkpt>
      <trkpt lat="44.57573" lon="5.74058">
        <ele>993.18</ele>
        <time>2013-11-14T14:35:21Z</time>
      </trkpt>
      <trkpt lat="44.57557" lon="5.74067">
        <ele>992.7</ele>
        <time>2013-11-14T14:35:37Z</time>
      </trkpt>
      <trkpt lat="44.57547" lon="5.74074">
        <ele>992.22</ele>
        <time>2013-11-14T14:35:51Z</time>
      </trkpt>
      <trkpt lat="44.57534" lon="5.74084">
        <ele>990.78</ele>
        <time>2013-11-14T14:36:09Z</time>
      </trkpt>
      <trkpt lat="44.57531" lon="5.74091">
        <ele>990.78</ele>
        <time>2013-11-14T14:36:24Z</time>
      </trkpt>
      <trkpt lat="44.57514" lon="5.741">
        <ele>989.81</ele>
        <time>2013-11-14T14:36:45Z</time>
      </trkpt>
      <trkpt lat="44.57503" lon="5.74108">
        <ele>989.33</ele>
        <time>2013-11-14T14:37:00Z</time>
      </trkpt>
      <trkpt lat="44.5749" lon="5.74117">
        <ele>988.85</ele>
        <time>2013-11-14T14:37:15Z</time>
      </trkpt>
      <trkpt lat="44.57475" lon="5.74132">
        <ele>988.37</ele>
        <time>2013-11-14T14:37:33Z</time>
      </trkpt>
      <trkpt lat="44.57457" lon="5.74149">
        <ele>987.41</ele>
        <time>2013-11-14T14:37:52Z</time>
      </trkpt>
      <trkpt lat="44.57438" lon="5.74163">
        <ele>986.45</ele>
        <time>2013-11-14T14:38:10Z</time>
      </trkpt>
      <trkpt lat="44.5743" lon="5.74166">
        <ele>984.05</ele>
        <time>2013-11-14T14:38:17Z</time>
      </trkpt>
      <trkpt lat="44.57412" lon="5.74175">
        <ele>981.64</ele>
        <time>2013-11-14T14:38:34Z</time>
      </trkpt>
      <trkpt lat="44.57392" lon="5.74184">
        <ele>979.24</ele>
        <time>2013-11-14T14:38:51Z</time>
      </trkpt>
      <trkpt lat="44.57372" lon="5.74206">
        <ele>977.8</ele>
        <time>2013-11-14T14:39:12Z</time>
      </trkpt>
      <trkpt lat="44.57361" lon="5.74224">
        <ele>977.32</ele>
        <time>2013-11-14T14:39:26Z</time>
      </trkpt>
      <trkpt lat="44.57354" lon="5.74249">
        <ele>976.36</ele>
        <time>2013-11-14T14:39:42Z</time>
      </trkpt>
      <trkpt lat="44.57344" lon="5.74271">
        <ele>974.91</ele>
        <time>2013-11-14T14:39:58Z</time>
      </trkpt>
      <trkpt lat="44.5733" lon="5.74277">
        <ele>972.99</ele>
        <time>2013-11-14T14:40:11Z</time>
      </trkpt>
      <trkpt lat="44.57318" lon="5.74278">
        <ele>971.07</ele>
        <time>2013-11-14T14:40:23Z</time>
      </trkpt>
      <trkpt lat="44.57299" lon="5.74278">
        <ele>967.7</ele>
        <time>2013-11-14T14:40:39Z</time>
      </trkpt>
      <trkpt lat="44.57297" lon="5.74278">
        <ele>966.74</ele>
        <time>2013-11-14T14:40:41Z</time>
      </trkpt>
      <trkpt lat="44.57279" lon="5.74279">
        <ele>963.86</ele>
        <time>2013-11-14T14:40:57Z</time>
      </trkpt>
      <trkpt lat="44.57273" lon="5.74278">
        <ele>962.42</ele>
        <time>2013-11-14T14:41:03Z</time>
      </trkpt>
      <trkpt lat="44.57256" lon="5.74277">
        <ele>959.53</ele>
        <time>2013-11-14T14:41:19Z</time>
      </trkpt>
      <trkpt lat="44.57239" lon="5.74279">
        <ele>956.17</ele>
        <time>2013-11-14T14:41:34Z</time>
      </trkpt>
      <trkpt lat="44.57222" lon="5.74282">
        <ele>954.25</ele>
        <time>2013-11-14T14:41:49Z</time>
      </trkpt>
      <trkpt lat="44.57218" lon="5.74283">
        <ele>953.28</ele>
        <time>2013-11-14T14:41:53Z</time>
      </trkpt>
      <trkpt lat="44.57195" lon="5.74287">
        <ele>949.92</ele>
        <time>2013-11-14T14:42:11Z</time>
      </trkpt>
      <trkpt lat="44.57184" lon="5.74296">
        <ele>946.56</ele>
        <time>2013-11-14T14:42:22Z</time>
      </trkpt>
      <trkpt lat="44.57169" lon="5.74305">
        <ele>943.19</ele>
        <time>2013-11-14T14:42:35Z</time>
      </trkpt>
      <trkpt lat="44.57156" lon="5.74317">
        <ele>940.31</ele>
        <time>2013-11-14T14:42:49Z</time>
      </trkpt>
      <trkpt lat="44.57142" lon="5.74329">
        <ele>936.94</ele>
        <time>2013-11-14T14:43:02Z</time>
      </trkpt>
      <trkpt lat="44.57127" lon="5.74342">
        <ele>934.06</ele>
        <time>2013-11-14T14:43:17Z</time>
      </trkpt>
      <trkpt lat="44.57115" lon="5.7435">
        <ele>931.65</ele>
        <time>2013-11-14T14:43:32Z</time>
      </trkpt>
      <trkpt lat="44.57101" lon="5.74357">
        <ele>928.29</ele>
        <time>2013-11-14T14:43:47Z</time>
      </trkpt>
      <trkpt lat="44.57087" lon="5.74362">
        <ele>924.93</ele>
        <time>2013-11-14T14:44:01Z</time>
      </trkpt>
      <trkpt lat="44.57067" lon="5.74367">
        <ele>922.04</ele>
        <time>2013-11-14T14:44:18Z</time>
      </trkpt>
      <trkpt lat="44.57045" lon="5.74365">
        <ele>920.6</ele>
        <time>2013-11-14T14:44:37Z</time>
      </trkpt>
      <trkpt lat="44.57032" lon="5.74367">
        <ele>918.68</ele>
        <time>2013-11-14T14:44:51Z</time>
      </trkpt>
      <trkpt lat="44.5701" lon="5.74371">
        <ele>916.75</ele>
        <time>2013-11-14T14:45:10Z</time>
      </trkpt>
      <trkpt lat="44.56992" lon="5.74381">
        <ele>913.87</ele>
        <time>2013-11-14T14:45:28Z</time>
      </trkpt>
      <trkpt lat="44.5698" lon="5.7439">
        <ele>910.99</ele>
        <time>2013-11-14T14:45:41Z</time>
      </trkpt>
      <trkpt lat="44.56962" lon="5.74398">
        <ele>907.62</ele>
        <time>2013-11-14T14:46:00Z</time>
      </trkpt>
      <trkpt lat="44.56948" lon="5.74408">
        <ele>904.26</ele>
        <time>2013-11-14T14:46:15Z</time>
      </trkpt>
      <trkpt lat="44.56939" lon="5.74412">
        <ele>902.33</ele>
        <time>2013-11-14T14:46:24Z</time>
      </trkpt>
      <trkpt lat="44.56927" lon="5.74421">
        <ele>898.97</ele>
        <time>2013-11-14T14:46:37Z</time>
      </trkpt>
      <trkpt lat="44.56911" lon="5.74433">
        <ele>896.09</ele>
        <time>2013-11-14T14:46:53Z</time>
      </trkpt>
      <trkpt lat="44.56895" lon="5.74439">
        <ele>892.72</ele>
        <time>2013-11-14T14:47:08Z</time>
      </trkpt>
      <trkpt lat="44.56878" lon="5.74452">
        <ele>891.28</ele>
        <time>2013-11-14T14:47:25Z</time>
      </trkpt>
      <trkpt lat="44.56869" lon="5.74463">
        <ele>888.88</ele>
        <time>2013-11-14T14:47:35Z</time>
      </trkpt>
      <trkpt lat="44.56855" lon="5.74477">
        <ele>885.03</ele>
        <time>2013-11-14T14:47:51Z</time>
      </trkpt>
      <trkpt lat="44.56843" lon="5.74488">
        <ele>882.15</ele>
        <time>2013-11-14T14:48:05Z</time>
      </trkpt>
      <trkpt lat="44.5683" lon="5.74502">
        <ele>879.74</ele>
        <time>2013-11-14T14:48:21Z</time>
      </trkpt>
      <trkpt lat="44.5682" lon="5.74511">
        <ele>876.38</ele>
        <time>2013-11-14T14:48:34Z</time>
      </trkpt>
      <trkpt lat="44.56805" lon="5.74521">
        <ele>873.98</ele>
        <time>2013-11-14T14:48:50Z</time>
      </trkpt>
      <trkpt lat="44.56804" lon="5.74521">
        <ele>873.98</ele>
        <time>2013-11-14T14:48:51Z</time>
      </trkpt>
      <trkpt lat="44.568" lon="5.74523">
        <ele>873.01</ele>
        <time>2013-11-14T14:48:56Z</time>
      </trkpt>
      <trkpt lat="44.56787" lon="5.74525">
        <ele>869.65</ele>
        <time>2013-11-14T14:49:10Z</time>
      </trkpt>
      <trkpt lat="44.56774" lon="5.74525">
        <ele>866.77</ele>
        <time>2013-11-14T14:49:24Z</time>
      </trkpt>
      <trkpt lat="44.56773" lon="5.74529">
        <ele>866.29</ele>
        <time>2013-11-14T14:49:27Z</time>
      </trkpt>
      <trkpt lat="44.56776" lon="5.74541">
        <ele>864.84</ele>
        <time>2013-11-14T14:49:37Z</time>
      </trkpt>
      <trkpt lat="44.56788" lon="5.74554">
        <ele>861.48</ele>
        <time>2013-11-14T14:49:52Z</time>
      </trkpt>
      <trkpt lat="44.56795" lon="5.74563">
        <ele>858.59</ele>
        <time>2013-11-14T14:50:06Z</time>
      </trkpt>
      <trkpt lat="44.56805" lon="5.74569">
        <ele>855.71</ele>
        <time>2013-11-14T14:50:24Z</time>
      </trkpt>
      <trkpt lat="44.56806" lon="5.7457">
        <ele>855.23</ele>
        <time>2013-11-14T14:50:25Z</time>
      </trkpt>
      <trkpt lat="44.56813" lon="5.74577">
        <ele>852.83</ele>
        <time>2013-11-14T14:50:40Z</time>
      </trkpt>
      <trkpt lat="44.56813" lon="5.7459">
        <ele>849.94</ele>
        <time>2013-11-14T14:50:54Z</time>
      </trkpt>
      <trkpt lat="44.56804" lon="5.74596">
        <ele>847.54</ele>
        <time>2013-11-14T14:51:05Z</time>
      </trkpt>
      <trkpt lat="44.56788" lon="5.74607">
        <ele>844.18</ele>
        <time>2013-11-14T14:51:23Z</time>
      </trkpt>
      <trkpt lat="44.56771" lon="5.74617">
        <ele>841.29</ele>
        <time>2013-11-14T14:51:41Z</time>
      </trkpt>
      <trkpt lat="44.56759" lon="5.74622">
        <ele>838.89</ele>
        <time>2013-11-14T14:51:56Z</time>
      </trkpt>
      <trkpt lat="44.56753" lon="5.74624">
        <ele>837.45</ele>
        <time>2013-11-14T14:52:09Z</time>
      </trkpt>
      <trkpt lat="44.56743" lon="5.74628">
        <ele>836</ele>
        <time>2013-11-14T14:52:22Z</time>
      </trkpt>
      <trkpt lat="44.56731" lon="5.74627">
        <ele>834.08</ele>
        <time>2013-11-14T14:52:40Z</time>
      </trkpt>
      <trkpt lat="44.56725" lon="5.7463">
        <ele>832.64</ele>
        <time>2013-11-14T14:52:54Z</time>
      </trkpt>
      <trkpt lat="44.56719" lon="5.7463">
        <ele>833.12</ele>
        <time>2013-11-14T14:53:07Z</time>
      </trkpt>
      <trkpt lat="44.5672" lon="5.7464">
        <ele>832.64</ele>
        <time>2013-11-14T14:53:16Z</time>
      </trkpt>
      <trkpt lat="44.56722" lon="5.74662">
        <ele>833.12</ele>
        <time>2013-11-14T14:53:32Z</time>
      </trkpt>
      <trkpt lat="44.56722" lon="5.74691">
        <ele>832.64</ele>
        <time>2013-11-14T14:53:50Z</time>
      </trkpt>
      <trkpt lat="44.56724" lon="5.74716">
        <ele>833.12</ele>
        <time>2013-11-14T14:54:07Z</time>
      </trkpt>
      <trkpt lat="44.56725" lon="5.74743">
        <ele>833.6</ele>
        <time>2013-11-14T14:54:24Z</time>
      </trkpt>
      <trkpt lat="44.56725" lon="5.74768">
        <ele>834.08</ele>
        <time>2013-11-14T14:54:41Z</time>
      </trkpt>
      <trkpt lat="44.56714" lon="5.74787">
        <ele>833.12</ele>
        <time>2013-11-14T14:54:56Z</time>
      </trkpt>
      <trkpt lat="44.56713" lon="5.74789">
        <ele>833.12</ele>
        <time>2013-11-14T14:54:58Z</time>
      </trkpt>
      <trkpt lat="44.56698" lon="5.74807">
        <ele>831.2</ele>
        <time>2013-11-14T14:55:17Z</time>
      </trkpt>
      <trkpt lat="44.56686" lon="5.74824">
        <ele>830.72</ele>
        <time>2013-11-14T14:55:35Z</time>
      </trkpt>
      <trkpt lat="44.5667" lon="5.74836">
        <ele>830.24</ele>
        <time>2013-11-14T14:55:53Z</time>
      </trkpt>
      <trkpt lat="44.56666" lon="5.74849">
        <ele>831.68</ele>
        <time>2013-11-14T14:56:09Z</time>
      </trkpt>
      <trkpt lat="44.56665" lon="5.74848">
        <ele>830.72</ele>
        <time>2013-11-14T14:56:21Z</time>
      </trkpt>
      <trkpt lat="44.56666" lon="5.74844">
        <ele>831.2</ele>
        <time>2013-11-14T14:56:43Z</time>
      </trkpt>
      <trkpt lat="44.56666" lon="5.74844">
        <ele>830.24</ele>
        <time>2013-11-14T14:57:01Z</time>
      </trkpt>
    </trkseg>
  </trk>
</gpx>